<?xml version="1.0" encoding="UTF-8" standalone="no" ?>
<gpx xmlns="http://www.topografix.com/GPX/1/1" xmlns:xsi="http://www.w3.org/2001/XMLSchema-instance" xsi:schemaLocation="http://www.topografix.com/GPX/1/1 http://www.topografix.com/GPX/1/1/gpx.xsd" version="1.1" creator="VisuGPX - https://www.visugpx.com">
  <metadata>
    <name>rando vouvray</name>
    <desc><![CDATA[sortie du 22/10/2011]]></desc>
  </metadata>
  <trk>
    <name><![CDATA[22_10_201114_33_28_history on GPSies.com]]></name>
    <trkseg>
      <trkpt lat="47.43668" lon="0.79706">
        <ele>114.53417</ele>
        <time>2011-10-22T12:33:29Z</time>
      </trkpt>
      <trkpt lat="47.43668" lon="0.79706">
        <ele>114.53417</ele>
        <time>2011-10-22T12:34:09Z</time>
      </trkpt>
      <trkpt lat="47.43668" lon="0.79705">
        <ele>115.01489</ele>
        <time>2011-10-22T12:34:10Z</time>
      </trkpt>
      <trkpt lat="47.4367" lon="0.79706">
        <ele>109.24694</ele>
        <time>2011-10-22T12:35:56Z</time>
      </trkpt>
      <trkpt lat="47.4367" lon="0.79705">
        <ele>109.24694</ele>
        <time>2011-10-22T12:35:58Z</time>
      </trkpt>
      <trkpt lat="47.43667" lon="0.79706">
        <ele>110.68884</ele>
        <time>2011-10-22T12:36:32Z</time>
      </trkpt>
      <trkpt lat="47.43666" lon="0.79706">
        <ele>110.68884</ele>
        <time>2011-10-22T12:36:33Z</time>
      </trkpt>
      <trkpt lat="47.43667" lon="0.797">
        <ele>110.68884</ele>
        <time>2011-10-22T12:36:36Z</time>
      </trkpt>
      <trkpt lat="47.43672" lon="0.797">
        <ele>110.20825</ele>
        <time>2011-10-22T12:36:40Z</time>
      </trkpt>
      <trkpt lat="47.4367" lon="0.79703">
        <ele>109.72766</ele>
        <time>2011-10-22T12:36:42Z</time>
      </trkpt>
      <trkpt lat="47.43669" lon="0.79703">
        <ele>109.24694</ele>
        <time>2011-10-22T12:36:46Z</time>
      </trkpt>
      <trkpt lat="47.43666" lon="0.79707">
        <ele>112.61157</ele>
        <time>2011-10-22T12:38:53Z</time>
      </trkpt>
      <trkpt lat="47.43663" lon="0.79711">
        <ele>111.65026</ele>
        <time>2011-10-22T12:38:58Z</time>
      </trkpt>
      <trkpt lat="47.43662" lon="0.79712">
        <ele>111.16955</ele>
        <time>2011-10-22T12:39:06Z</time>
      </trkpt>
      <trkpt lat="47.43663" lon="0.79723">
        <ele>109.24694</ele>
        <time>2011-10-22T12:39:13Z</time>
      </trkpt>
      <trkpt lat="47.43663" lon="0.79729">
        <ele>109.24694</ele>
        <time>2011-10-22T12:39:16Z</time>
      </trkpt>
      <trkpt lat="47.43664" lon="0.79737">
        <ele>110.68884</ele>
        <time>2011-10-22T12:39:20Z</time>
      </trkpt>
      <trkpt lat="47.43666" lon="0.79756">
        <ele>111.16955</ele>
        <time>2011-10-22T12:39:26Z</time>
      </trkpt>
      <trkpt lat="47.43666" lon="0.79769">
        <ele>110.68884</ele>
        <time>2011-10-22T12:39:29Z</time>
      </trkpt>
      <trkpt lat="47.43657" lon="0.79781">
        <ele>110.68884</ele>
        <time>2011-10-22T12:39:33Z</time>
      </trkpt>
      <trkpt lat="47.43639" lon="0.79801">
        <ele>111.65026</ele>
        <time>2011-10-22T12:39:42Z</time>
      </trkpt>
      <trkpt lat="47.43622" lon="0.79817">
        <ele>111.16955</ele>
        <time>2011-10-22T12:39:48Z</time>
      </trkpt>
      <trkpt lat="47.43598" lon="0.79828">
        <ele>111.65026</ele>
        <time>2011-10-22T12:39:54Z</time>
      </trkpt>
      <trkpt lat="47.43559" lon="0.79837">
        <ele>111.65026</ele>
        <time>2011-10-22T12:40:03Z</time>
      </trkpt>
      <trkpt lat="47.43515" lon="0.79848">
        <ele>111.65026</ele>
        <time>2011-10-22T12:40:13Z</time>
      </trkpt>
      <trkpt lat="47.43472" lon="0.79859">
        <ele>111.16955</ele>
        <time>2011-10-22T12:40:22Z</time>
      </trkpt>
      <trkpt lat="47.43414" lon="0.79876">
        <ele>109.72766</ele>
        <time>2011-10-22T12:40:33Z</time>
      </trkpt>
      <trkpt lat="47.43398" lon="0.79881">
        <ele>109.24694</ele>
        <time>2011-10-22T12:40:36Z</time>
      </trkpt>
      <trkpt lat="47.43387" lon="0.79905">
        <ele>108.28564</ele>
        <time>2011-10-22T12:40:40Z</time>
      </trkpt>
      <trkpt lat="47.43392" lon="0.79918">
        <ele>108.76623</ele>
        <time>2011-10-22T12:40:42Z</time>
      </trkpt>
      <trkpt lat="47.43414" lon="0.79954">
        <ele>109.24694</ele>
        <time>2011-10-22T12:40:49Z</time>
      </trkpt>
      <trkpt lat="47.43418" lon="0.79973">
        <ele>108.76623</ele>
        <time>2011-10-22T12:40:53Z</time>
      </trkpt>
      <trkpt lat="47.43418" lon="0.80029">
        <ele>107.80505</ele>
        <time>2011-10-22T12:41:02Z</time>
      </trkpt>
      <trkpt lat="47.43418" lon="0.80059">
        <ele>107.32434</ele>
        <time>2011-10-22T12:41:07Z</time>
      </trkpt>
      <trkpt lat="47.43421" lon="0.80112">
        <ele>108.28564</ele>
        <time>2011-10-22T12:41:16Z</time>
      </trkpt>
      <trkpt lat="47.43424" lon="0.80155">
        <ele>110.20825</ele>
        <time>2011-10-22T12:41:24Z</time>
      </trkpt>
      <trkpt lat="47.43429" lon="0.80219">
        <ele>112.13098</ele>
        <time>2011-10-22T12:41:36Z</time>
      </trkpt>
      <trkpt lat="47.43435" lon="0.80278">
        <ele>113.09228</ele>
        <time>2011-10-22T12:41:47Z</time>
      </trkpt>
      <trkpt lat="47.43437" lon="0.80309">
        <ele>114.05358</ele>
        <time>2011-10-22T12:41:53Z</time>
      </trkpt>
      <trkpt lat="47.43426" lon="0.80313">
        <ele>114.05358</ele>
        <time>2011-10-22T12:41:57Z</time>
      </trkpt>
      <trkpt lat="47.434" lon="0.8031">
        <ele>113.57299</ele>
        <time>2011-10-22T12:42:03Z</time>
      </trkpt>
      <trkpt lat="47.43364" lon="0.80317">
        <ele>113.57299</ele>
        <time>2011-10-22T12:42:10Z</time>
      </trkpt>
      <trkpt lat="47.43319" lon="0.80332">
        <ele>113.09228</ele>
        <time>2011-10-22T12:42:18Z</time>
      </trkpt>
      <trkpt lat="47.43264" lon="0.80347">
        <ele>112.13098</ele>
        <time>2011-10-22T12:42:27Z</time>
      </trkpt>
      <trkpt lat="47.43216" lon="0.80355">
        <ele>110.68884</ele>
        <time>2011-10-22T12:42:35Z</time>
      </trkpt>
      <trkpt lat="47.43161" lon="0.80366">
        <ele>108.76623</ele>
        <time>2011-10-22T12:42:44Z</time>
      </trkpt>
      <trkpt lat="47.43115" lon="0.80398">
        <ele>105.40173</ele>
        <time>2011-10-22T12:42:52Z</time>
      </trkpt>
      <trkpt lat="47.43089" lon="0.80408">
        <ele>103.95971</ele>
        <time>2011-10-22T12:42:56Z</time>
      </trkpt>
      <trkpt lat="47.43082" lon="0.80407">
        <ele>103.95971</ele>
        <time>2011-10-22T12:42:57Z</time>
      </trkpt>
      <trkpt lat="47.43069" lon="0.80403">
        <ele>103.95971</ele>
        <time>2011-10-22T12:42:59Z</time>
      </trkpt>
      <trkpt lat="47.43051" lon="0.80392">
        <ele>103.479</ele>
        <time>2011-10-22T12:43:02Z</time>
      </trkpt>
      <trkpt lat="47.43037" lon="0.80394">
        <ele>102.5177</ele>
        <time>2011-10-22T12:43:06Z</time>
      </trkpt>
      <trkpt lat="47.43036" lon="0.80403">
        <ele>102.5177</ele>
        <time>2011-10-22T12:43:08Z</time>
      </trkpt>
      <trkpt lat="47.43036" lon="0.80454">
        <ele>102.99829</ele>
        <time>2011-10-22T12:43:17Z</time>
      </trkpt>
      <trkpt lat="47.43034" lon="0.80496">
        <ele>102.99829</ele>
        <time>2011-10-22T12:43:23Z</time>
      </trkpt>
      <trkpt lat="47.43028" lon="0.8054">
        <ele>102.99829</ele>
        <time>2011-10-22T12:43:29Z</time>
      </trkpt>
      <trkpt lat="47.4302" lon="0.80594">
        <ele>103.479</ele>
        <time>2011-10-22T12:43:36Z</time>
      </trkpt>
      <trkpt lat="47.43015" lon="0.80628">
        <ele>102.99829</ele>
        <time>2011-10-22T12:43:41Z</time>
      </trkpt>
      <trkpt lat="47.43008" lon="0.80676">
        <ele>103.479</ele>
        <time>2011-10-22T12:43:48Z</time>
      </trkpt>
      <trkpt lat="47.43005" lon="0.80695">
        <ele>103.95971</ele>
        <time>2011-10-22T12:43:51Z</time>
      </trkpt>
      <trkpt lat="47.43008" lon="0.80725">
        <ele>105.40173</ele>
        <time>2011-10-22T12:43:56Z</time>
      </trkpt>
      <trkpt lat="47.43016" lon="0.80751">
        <ele>106.84362</ele>
        <time>2011-10-22T12:44:00Z</time>
      </trkpt>
      <trkpt lat="47.4302" lon="0.80781">
        <ele>108.28564</ele>
        <time>2011-10-22T12:44:04Z</time>
      </trkpt>
      <trkpt lat="47.4302" lon="0.80833">
        <ele>110.20825</ele>
        <time>2011-10-22T12:44:11Z</time>
      </trkpt>
      <trkpt lat="47.43014" lon="0.80894">
        <ele>111.16955</ele>
        <time>2011-10-22T12:44:20Z</time>
      </trkpt>
      <trkpt lat="47.43009" lon="0.80943">
        <ele>110.20825</ele>
        <time>2011-10-22T12:44:28Z</time>
      </trkpt>
      <trkpt lat="47.42996" lon="0.80958">
        <ele>109.72766</ele>
        <time>2011-10-22T12:44:32Z</time>
      </trkpt>
      <trkpt lat="47.42951" lon="0.80959">
        <ele>108.76623</ele>
        <time>2011-10-22T12:44:40Z</time>
      </trkpt>
      <trkpt lat="47.4289" lon="0.80959">
        <ele>107.80505</ele>
        <time>2011-10-22T12:44:50Z</time>
      </trkpt>
      <trkpt lat="47.42834" lon="0.80958">
        <ele>107.32434</ele>
        <time>2011-10-22T12:44:59Z</time>
      </trkpt>
      <trkpt lat="47.42797" lon="0.80959">
        <ele>107.32434</ele>
        <time>2011-10-22T12:45:05Z</time>
      </trkpt>
      <trkpt lat="47.42748" lon="0.80965">
        <ele>106.84362</ele>
        <time>2011-10-22T12:45:13Z</time>
      </trkpt>
      <trkpt lat="47.427" lon="0.80971">
        <ele>107.32434</ele>
        <time>2011-10-22T12:45:21Z</time>
      </trkpt>
      <trkpt lat="47.42648" lon="0.80975">
        <ele>107.32434</ele>
        <time>2011-10-22T12:45:30Z</time>
      </trkpt>
      <trkpt lat="47.42616" lon="0.80978">
        <ele>107.32434</ele>
        <time>2011-10-22T12:45:36Z</time>
      </trkpt>
      <trkpt lat="47.42605" lon="0.80995">
        <ele>106.36303</ele>
        <time>2011-10-22T12:45:40Z</time>
      </trkpt>
      <trkpt lat="47.42606" lon="0.81002">
        <ele>106.36303</ele>
        <time>2011-10-22T12:45:41Z</time>
      </trkpt>
      <trkpt lat="47.4262" lon="0.81075">
        <ele>103.95971</ele>
        <time>2011-10-22T12:45:50Z</time>
      </trkpt>
      <trkpt lat="47.42624" lon="0.81122">
        <ele>102.5177</ele>
        <time>2011-10-22T12:45:55Z</time>
      </trkpt>
      <trkpt lat="47.42622" lon="0.81206">
        <ele>100.1145</ele>
        <time>2011-10-22T12:46:04Z</time>
      </trkpt>
      <trkpt lat="47.42616" lon="0.81288">
        <ele>98.191894</ele>
        <time>2011-10-22T12:46:13Z</time>
      </trkpt>
      <trkpt lat="47.42597" lon="0.81358">
        <ele>97.230468</ele>
        <time>2011-10-22T12:46:21Z</time>
      </trkpt>
      <trkpt lat="47.4258" lon="0.81381">
        <ele>96.749877</ele>
        <time>2011-10-22T12:46:25Z</time>
      </trkpt>
      <trkpt lat="47.42546" lon="0.81398">
        <ele>99.153076</ele>
        <time>2011-10-22T12:46:31Z</time>
      </trkpt>
      <trkpt lat="47.42521" lon="0.81415">
        <ele>100.59509</ele>
        <time>2011-10-22T12:46:36Z</time>
      </trkpt>
      <trkpt lat="47.4249" lon="0.81448">
        <ele>102.0371</ele>
        <time>2011-10-22T12:46:44Z</time>
      </trkpt>
      <trkpt lat="47.42468" lon="0.8148">
        <ele>102.0371</ele>
        <time>2011-10-22T12:46:49Z</time>
      </trkpt>
      <trkpt lat="47.42434" lon="0.81521">
        <ele>102.5177</ele>
        <time>2011-10-22T12:46:56Z</time>
      </trkpt>
      <trkpt lat="47.42402" lon="0.81552">
        <ele>101.55639</ele>
        <time>2011-10-22T12:47:03Z</time>
      </trkpt>
      <trkpt lat="47.42389" lon="0.81562">
        <ele>102.5177</ele>
        <time>2011-10-22T12:47:06Z</time>
      </trkpt>
      <trkpt lat="47.42382" lon="0.81566">
        <ele>102.99829</ele>
        <time>2011-10-22T12:47:08Z</time>
      </trkpt>
      <trkpt lat="47.42356" lon="0.81587">
        <ele>102.99829</ele>
        <time>2011-10-22T12:47:15Z</time>
      </trkpt>
      <trkpt lat="47.4235" lon="0.81594">
        <ele>102.99829</ele>
        <time>2011-10-22T12:47:17Z</time>
      </trkpt>
      <trkpt lat="47.42331" lon="0.81626">
        <ele>102.0371</ele>
        <time>2011-10-22T12:47:24Z</time>
      </trkpt>
      <trkpt lat="47.42309" lon="0.81677">
        <ele>101.55639</ele>
        <time>2011-10-22T12:47:33Z</time>
      </trkpt>
      <trkpt lat="47.42285" lon="0.81734">
        <ele>102.0371</ele>
        <time>2011-10-22T12:47:43Z</time>
      </trkpt>
      <trkpt lat="47.42266" lon="0.81782">
        <ele>101.55639</ele>
        <time>2011-10-22T12:47:52Z</time>
      </trkpt>
      <trkpt lat="47.42242" lon="0.81837">
        <ele>100.59509</ele>
        <time>2011-10-22T12:48:02Z</time>
      </trkpt>
      <trkpt lat="47.42219" lon="0.81867">
        <ele>99.633789</ele>
        <time>2011-10-22T12:48:09Z</time>
      </trkpt>
      <trkpt lat="47.42186" lon="0.81898">
        <ele>98.191894</ele>
        <time>2011-10-22T12:48:18Z</time>
      </trkpt>
      <trkpt lat="47.42144" lon="0.81933">
        <ele>102.0371</ele>
        <time>2011-10-22T12:48:28Z</time>
      </trkpt>
      <trkpt lat="47.42105" lon="0.81957">
        <ele>102.99829</ele>
        <time>2011-10-22T12:48:37Z</time>
      </trkpt>
      <trkpt lat="47.42059" lon="0.81981">
        <ele>102.0371</ele>
        <time>2011-10-22T12:48:47Z</time>
      </trkpt>
      <trkpt lat="47.42051" lon="0.81986">
        <ele>101.07568</ele>
        <time>2011-10-22T12:48:49Z</time>
      </trkpt>
      <trkpt lat="47.4204" lon="0.82003">
        <ele>100.1145</ele>
        <time>2011-10-22T12:48:53Z</time>
      </trkpt>
      <trkpt lat="47.42038" lon="0.82073">
        <ele>97.230468</ele>
        <time>2011-10-22T12:49:03Z</time>
      </trkpt>
      <trkpt lat="47.42037" lon="0.82094">
        <ele>97.230468</ele>
        <time>2011-10-22T12:49:06Z</time>
      </trkpt>
      <trkpt lat="47.42036" lon="0.8214">
        <ele>98.191894</ele>
        <time>2011-10-22T12:49:13Z</time>
      </trkpt>
      <trkpt lat="47.42034" lon="0.822">
        <ele>98.191894</ele>
        <time>2011-10-22T12:49:22Z</time>
      </trkpt>
      <trkpt lat="47.42042" lon="0.8222">
        <ele>99.633789</ele>
        <time>2011-10-22T12:49:26Z</time>
      </trkpt>
      <trkpt lat="47.42046" lon="0.82221">
        <ele>100.59509</ele>
        <time>2011-10-22T12:49:27Z</time>
      </trkpt>
      <trkpt lat="47.42055" lon="0.82221">
        <ele>101.55639</ele>
        <time>2011-10-22T12:49:29Z</time>
      </trkpt>
      <trkpt lat="47.42069" lon="0.82234">
        <ele>102.99829</ele>
        <time>2011-10-22T12:49:33Z</time>
      </trkpt>
      <trkpt lat="47.4207" lon="0.82254">
        <ele>102.99829</ele>
        <time>2011-10-22T12:49:36Z</time>
      </trkpt>
      <trkpt lat="47.42072" lon="0.82296">
        <ele>102.5177</ele>
        <time>2011-10-22T12:49:42Z</time>
      </trkpt>
      <trkpt lat="47.42072" lon="0.82324">
        <ele>102.0371</ele>
        <time>2011-10-22T12:49:46Z</time>
      </trkpt>
      <trkpt lat="47.42072" lon="0.82387">
        <ele>101.07568</ele>
        <time>2011-10-22T12:49:54Z</time>
      </trkpt>
      <trkpt lat="47.4207" lon="0.82445">
        <ele>99.633789</ele>
        <time>2011-10-22T12:50:01Z</time>
      </trkpt>
      <trkpt lat="47.42072" lon="0.82518">
        <ele>98.191894</ele>
        <time>2011-10-22T12:50:09Z</time>
      </trkpt>
      <trkpt lat="47.42076" lon="0.82585">
        <ele>96.749877</ele>
        <time>2011-10-22T12:50:16Z</time>
      </trkpt>
      <trkpt lat="47.42076" lon="0.8265">
        <ele>95.788452</ele>
        <time>2011-10-22T12:50:23Z</time>
      </trkpt>
      <trkpt lat="47.4208" lon="0.82717">
        <ele>95.307739</ele>
        <time>2011-10-22T12:50:30Z</time>
      </trkpt>
      <trkpt lat="47.42086" lon="0.82812">
        <ele>96.269287</ele>
        <time>2011-10-22T12:50:40Z</time>
      </trkpt>
      <trkpt lat="47.42089" lon="0.82887">
        <ele>97.711181</ele>
        <time>2011-10-22T12:50:48Z</time>
      </trkpt>
      <trkpt lat="47.42092" lon="0.82945">
        <ele>98.672485</ele>
        <time>2011-10-22T12:50:54Z</time>
      </trkpt>
      <trkpt lat="47.42092" lon="0.83021">
        <ele>99.633789</ele>
        <time>2011-10-22T12:51:01Z</time>
      </trkpt>
      <trkpt lat="47.42094" lon="0.83072">
        <ele>100.1145</ele>
        <time>2011-10-22T12:51:07Z</time>
      </trkpt>
      <trkpt lat="47.42093" lon="0.83131">
        <ele>100.1145</ele>
        <time>2011-10-22T12:51:15Z</time>
      </trkpt>
      <trkpt lat="47.42093" lon="0.83201">
        <ele>100.1145</ele>
        <time>2011-10-22T12:51:24Z</time>
      </trkpt>
      <trkpt lat="47.42096" lon="0.83269">
        <ele>100.1145</ele>
        <time>2011-10-22T12:51:33Z</time>
      </trkpt>
      <trkpt lat="47.42099" lon="0.83337">
        <ele>100.59509</ele>
        <time>2011-10-22T12:51:42Z</time>
      </trkpt>
      <trkpt lat="47.42104" lon="0.83408">
        <ele>100.1145</ele>
        <time>2011-10-22T12:51:51Z</time>
      </trkpt>
      <trkpt lat="47.42109" lon="0.83486">
        <ele>100.1145</ele>
        <time>2011-10-22T12:52:01Z</time>
      </trkpt>
      <trkpt lat="47.42115" lon="0.8356">
        <ele>99.633789</ele>
        <time>2011-10-22T12:52:10Z</time>
      </trkpt>
      <trkpt lat="47.42123" lon="0.83626">
        <ele>99.153076</ele>
        <time>2011-10-22T12:52:18Z</time>
      </trkpt>
      <trkpt lat="47.4213" lon="0.83686">
        <ele>97.711181</ele>
        <time>2011-10-22T12:52:25Z</time>
      </trkpt>
      <trkpt lat="47.42137" lon="0.83732">
        <ele>95.307739</ele>
        <time>2011-10-22T12:52:31Z</time>
      </trkpt>
      <trkpt lat="47.42146" lon="0.83743">
        <ele>94.346557</ele>
        <time>2011-10-22T12:52:35Z</time>
      </trkpt>
      <trkpt lat="47.42157" lon="0.83726">
        <ele>94.827148</ele>
        <time>2011-10-22T12:52:39Z</time>
      </trkpt>
      <trkpt lat="47.42164" lon="0.83716">
        <ele>95.307739</ele>
        <time>2011-10-22T12:52:41Z</time>
      </trkpt>
      <trkpt lat="47.42183" lon="0.83686">
        <ele>97.230468</ele>
        <time>2011-10-22T12:52:46Z</time>
      </trkpt>
      <trkpt lat="47.42204" lon="0.83635">
        <ele>99.153076</ele>
        <time>2011-10-22T12:52:53Z</time>
      </trkpt>
      <trkpt lat="47.42213" lon="0.83593">
        <ele>99.633789</ele>
        <time>2011-10-22T12:52:59Z</time>
      </trkpt>
      <trkpt lat="47.4222" lon="0.83554">
        <ele>100.1145</ele>
        <time>2011-10-22T12:53:05Z</time>
      </trkpt>
      <trkpt lat="47.42233" lon="0.83536">
        <ele>100.1145</ele>
        <time>2011-10-22T12:53:09Z</time>
      </trkpt>
      <trkpt lat="47.42291" lon="0.83519">
        <ele>99.153076</ele>
        <time>2011-10-22T12:53:20Z</time>
      </trkpt>
      <trkpt lat="47.42341" lon="0.83508">
        <ele>99.153076</ele>
        <time>2011-10-22T12:53:29Z</time>
      </trkpt>
      <trkpt lat="47.42379" lon="0.83505">
        <ele>99.153076</ele>
        <time>2011-10-22T12:53:35Z</time>
      </trkpt>
      <trkpt lat="47.42419" lon="0.83515">
        <ele>98.191894</ele>
        <time>2011-10-22T12:53:41Z</time>
      </trkpt>
      <trkpt lat="47.42443" lon="0.83523">
        <ele>96.749877</ele>
        <time>2011-10-22T12:53:46Z</time>
      </trkpt>
      <trkpt lat="47.42453" lon="0.83526">
        <ele>95.788452</ele>
        <time>2011-10-22T12:53:48Z</time>
      </trkpt>
      <trkpt lat="47.42478" lon="0.83533">
        <ele>92.904541</ele>
        <time>2011-10-22T12:53:53Z</time>
      </trkpt>
      <trkpt lat="47.42488" lon="0.83544">
        <ele>91.943237</ele>
        <time>2011-10-22T12:53:55Z</time>
      </trkpt>
      <trkpt lat="47.42513" lon="0.83548">
        <ele>91.462524</ele>
        <time>2011-10-22T12:53:59Z</time>
      </trkpt>
      <trkpt lat="47.42533" lon="0.8353">
        <ele>91.462524</ele>
        <time>2011-10-22T12:54:03Z</time>
      </trkpt>
      <trkpt lat="47.4257" lon="0.83504">
        <ele>90.981933</ele>
        <time>2011-10-22T12:54:11Z</time>
      </trkpt>
      <trkpt lat="47.42599" lon="0.83483">
        <ele>92.42395</ele>
        <time>2011-10-22T12:54:18Z</time>
      </trkpt>
      <trkpt lat="47.42609" lon="0.83476">
        <ele>92.42395</ele>
        <time>2011-10-22T12:54:21Z</time>
      </trkpt>
      <trkpt lat="47.42621" lon="0.83463">
        <ele>92.904541</ele>
        <time>2011-10-22T12:54:26Z</time>
      </trkpt>
      <trkpt lat="47.42639" lon="0.83439">
        <ele>94.827148</ele>
        <time>2011-10-22T12:54:34Z</time>
      </trkpt>
      <trkpt lat="47.42647" lon="0.8342">
        <ele>95.788452</ele>
        <time>2011-10-22T12:54:39Z</time>
      </trkpt>
      <trkpt lat="47.42661" lon="0.83389">
        <ele>96.749877</ele>
        <time>2011-10-22T12:54:47Z</time>
      </trkpt>
      <trkpt lat="47.42675" lon="0.83371">
        <ele>97.230468</ele>
        <time>2011-10-22T12:54:53Z</time>
      </trkpt>
      <trkpt lat="47.427" lon="0.83351">
        <ele>98.191894</ele>
        <time>2011-10-22T12:55:01Z</time>
      </trkpt>
      <trkpt lat="47.42719" lon="0.83339">
        <ele>98.672485</ele>
        <time>2011-10-22T12:55:07Z</time>
      </trkpt>
      <trkpt lat="47.42727" lon="0.83353">
        <ele>99.153076</ele>
        <time>2011-10-22T12:55:11Z</time>
      </trkpt>
      <trkpt lat="47.42732" lon="0.83395">
        <ele>100.1145</ele>
        <time>2011-10-22T12:55:19Z</time>
      </trkpt>
      <trkpt lat="47.4274" lon="0.83434">
        <ele>101.55639</ele>
        <time>2011-10-22T12:55:26Z</time>
      </trkpt>
      <trkpt lat="47.42748" lon="0.83483">
        <ele>102.5177</ele>
        <time>2011-10-22T12:55:35Z</time>
      </trkpt>
      <trkpt lat="47.4276" lon="0.83492">
        <ele>102.5177</ele>
        <time>2011-10-22T12:55:40Z</time>
      </trkpt>
      <trkpt lat="47.4277" lon="0.8349">
        <ele>102.99829</ele>
        <time>2011-10-22T12:55:43Z</time>
      </trkpt>
      <trkpt lat="47.4278" lon="0.83488">
        <ele>102.99829</ele>
        <time>2011-10-22T12:55:46Z</time>
      </trkpt>
      <trkpt lat="47.42789" lon="0.83502">
        <ele>103.95971</ele>
        <time>2011-10-22T12:55:50Z</time>
      </trkpt>
      <trkpt lat="47.42794" lon="0.83531">
        <ele>104.44042</ele>
        <time>2011-10-22T12:55:56Z</time>
      </trkpt>
      <trkpt lat="47.428" lon="0.83579">
        <ele>104.44042</ele>
        <time>2011-10-22T12:56:05Z</time>
      </trkpt>
      <trkpt lat="47.42805" lon="0.83618">
        <ele>103.95971</ele>
        <time>2011-10-22T12:56:12Z</time>
      </trkpt>
      <trkpt lat="47.42812" lon="0.83657">
        <ele>103.479</ele>
        <time>2011-10-22T12:56:19Z</time>
      </trkpt>
      <trkpt lat="47.4282" lon="0.83691">
        <ele>102.99829</ele>
        <time>2011-10-22T12:56:25Z</time>
      </trkpt>
      <trkpt lat="47.4283" lon="0.8375">
        <ele>102.0371</ele>
        <time>2011-10-22T12:56:34Z</time>
      </trkpt>
      <trkpt lat="47.42848" lon="0.83819">
        <ele>100.59509</ele>
        <time>2011-10-22T12:56:44Z</time>
      </trkpt>
      <trkpt lat="47.42866" lon="0.83878">
        <ele>100.1145</ele>
        <time>2011-10-22T12:56:53Z</time>
      </trkpt>
      <trkpt lat="47.42881" lon="0.83921">
        <ele>99.633789</ele>
        <time>2011-10-22T12:57:00Z</time>
      </trkpt>
      <trkpt lat="47.42894" lon="0.83936">
        <ele>99.633789</ele>
        <time>2011-10-22T12:57:04Z</time>
      </trkpt>
      <trkpt lat="47.42913" lon="0.83933">
        <ele>99.633789</ele>
        <time>2011-10-22T12:57:09Z</time>
      </trkpt>
      <trkpt lat="47.4293" lon="0.83945">
        <ele>99.633789</ele>
        <time>2011-10-22T12:57:14Z</time>
      </trkpt>
      <trkpt lat="47.4293" lon="0.83951">
        <ele>99.633789</ele>
        <time>2011-10-22T12:57:15Z</time>
      </trkpt>
      <trkpt lat="47.42939" lon="0.84013">
        <ele>97.711181</ele>
        <time>2011-10-22T12:57:24Z</time>
      </trkpt>
      <trkpt lat="47.42949" lon="0.84075">
        <ele>95.788452</ele>
        <time>2011-10-22T12:57:33Z</time>
      </trkpt>
      <trkpt lat="47.42958" lon="0.84082">
        <ele>95.788452</ele>
        <time>2011-10-22T12:57:37Z</time>
      </trkpt>
      <trkpt lat="47.42961" lon="0.8408">
        <ele>95.788452</ele>
        <time>2011-10-22T12:57:38Z</time>
      </trkpt>
      <trkpt lat="47.42987" lon="0.84061">
        <ele>94.827148</ele>
        <time>2011-10-22T12:57:46Z</time>
      </trkpt>
      <trkpt lat="47.43017" lon="0.84038">
        <ele>93.865844</ele>
        <time>2011-10-22T12:57:53Z</time>
      </trkpt>
      <trkpt lat="47.43026" lon="0.84031">
        <ele>93.865844</ele>
        <time>2011-10-22T12:57:55Z</time>
      </trkpt>
      <trkpt lat="47.43059" lon="0.8401">
        <ele>94.346557</ele>
        <time>2011-10-22T12:58:02Z</time>
      </trkpt>
      <trkpt lat="47.43073" lon="0.84002">
        <ele>93.865844</ele>
        <time>2011-10-22T12:58:05Z</time>
      </trkpt>
      <trkpt lat="47.43082" lon="0.83997">
        <ele>93.865844</ele>
        <time>2011-10-22T12:58:07Z</time>
      </trkpt>
      <trkpt lat="47.43123" lon="0.83982">
        <ele>92.42395</ele>
        <time>2011-10-22T12:58:15Z</time>
      </trkpt>
      <trkpt lat="47.43164" lon="0.8397">
        <ele>90.981933</ele>
        <time>2011-10-22T12:58:22Z</time>
      </trkpt>
      <trkpt lat="47.43192" lon="0.83962">
        <ele>91.462524</ele>
        <time>2011-10-22T12:58:27Z</time>
      </trkpt>
      <trkpt lat="47.43201" lon="0.83945">
        <ele>92.904541</ele>
        <time>2011-10-22T12:58:31Z</time>
      </trkpt>
      <trkpt lat="47.43204" lon="0.839">
        <ele>94.827148</ele>
        <time>2011-10-22T12:58:38Z</time>
      </trkpt>
      <trkpt lat="47.4321" lon="0.83879">
        <ele>96.269287</ele>
        <time>2011-10-22T12:58:42Z</time>
      </trkpt>
      <trkpt lat="47.43216" lon="0.83874">
        <ele>96.749877</ele>
        <time>2011-10-22T12:58:44Z</time>
      </trkpt>
      <trkpt lat="47.43244" lon="0.83861">
        <ele>98.672485</ele>
        <time>2011-10-22T12:58:52Z</time>
      </trkpt>
      <trkpt lat="47.43286" lon="0.83842">
        <ele>100.59509</ele>
        <time>2011-10-22T12:59:03Z</time>
      </trkpt>
      <trkpt lat="47.43313" lon="0.83841">
        <ele>101.55639</ele>
        <time>2011-10-22T12:59:10Z</time>
      </trkpt>
      <trkpt lat="47.43345" lon="0.83848">
        <ele>101.55639</ele>
        <time>2011-10-22T12:59:18Z</time>
      </trkpt>
      <trkpt lat="47.43358" lon="0.83849">
        <ele>101.55639</ele>
        <time>2011-10-22T12:59:21Z</time>
      </trkpt>
      <trkpt lat="47.43383" lon="0.83836">
        <ele>101.55639</ele>
        <time>2011-10-22T12:59:28Z</time>
      </trkpt>
      <trkpt lat="47.434" lon="0.83825">
        <ele>100.1145</ele>
        <time>2011-10-22T12:59:32Z</time>
      </trkpt>
      <trkpt lat="47.43416" lon="0.8382">
        <ele>99.633789</ele>
        <time>2011-10-22T12:59:36Z</time>
      </trkpt>
      <trkpt lat="47.43431" lon="0.83817">
        <ele>98.191894</ele>
        <time>2011-10-22T12:59:39Z</time>
      </trkpt>
      <trkpt lat="47.43467" lon="0.83798">
        <ele>95.788452</ele>
        <time>2011-10-22T12:59:46Z</time>
      </trkpt>
      <trkpt lat="47.43504" lon="0.8379">
        <ele>95.307739</ele>
        <time>2011-10-22T12:59:52Z</time>
      </trkpt>
      <trkpt lat="47.43544" lon="0.83786">
        <ele>94.827148</ele>
        <time>2011-10-22T12:59:58Z</time>
      </trkpt>
      <trkpt lat="47.43585" lon="0.83786">
        <ele>94.346557</ele>
        <time>2011-10-22T13:00:05Z</time>
      </trkpt>
      <trkpt lat="47.43619" lon="0.8378">
        <ele>93.865844</ele>
        <time>2011-10-22T13:00:11Z</time>
      </trkpt>
      <trkpt lat="47.43631" lon="0.83777">
        <ele>93.385131</ele>
        <time>2011-10-22T13:00:13Z</time>
      </trkpt>
      <trkpt lat="47.43647" lon="0.83769">
        <ele>92.904541</ele>
        <time>2011-10-22T13:00:16Z</time>
      </trkpt>
      <trkpt lat="47.43684" lon="0.83736">
        <ele>89.539917</ele>
        <time>2011-10-22T13:00:24Z</time>
      </trkpt>
      <trkpt lat="47.43722" lon="0.83719">
        <ele>85.69458</ele>
        <time>2011-10-22T13:00:30Z</time>
      </trkpt>
      <trkpt lat="47.43735" lon="0.83711">
        <ele>84.252685</ele>
        <time>2011-10-22T13:00:32Z</time>
      </trkpt>
      <trkpt lat="47.43753" lon="0.83669">
        <ele>81.849365</ele>
        <time>2011-10-22T13:00:36Z</time>
      </trkpt>
      <trkpt lat="47.4376" lon="0.83632">
        <ele>78.965454</ele>
        <time>2011-10-22T13:00:39Z</time>
      </trkpt>
      <trkpt lat="47.43766" lon="0.83614">
        <ele>77.523437</ele>
        <time>2011-10-22T13:00:41Z</time>
      </trkpt>
      <trkpt lat="47.43763" lon="0.83592">
        <ele>75.120239</ele>
        <time>2011-10-22T13:00:45Z</time>
      </trkpt>
      <trkpt lat="47.43751" lon="0.8358">
        <ele>75.120239</ele>
        <time>2011-10-22T13:00:48Z</time>
      </trkpt>
      <trkpt lat="47.43716" lon="0.83535">
        <ele>75.60083</ele>
        <time>2011-10-22T13:00:57Z</time>
      </trkpt>
      <trkpt lat="47.43688" lon="0.83506">
        <ele>77.042846</ele>
        <time>2011-10-22T13:01:04Z</time>
      </trkpt>
      <trkpt lat="47.43683" lon="0.83504">
        <ele>77.042846</ele>
        <time>2011-10-22T13:01:05Z</time>
      </trkpt>
      <trkpt lat="47.43652" lon="0.83475">
        <ele>79.926635</ele>
        <time>2011-10-22T13:01:13Z</time>
      </trkpt>
      <trkpt lat="47.43624" lon="0.83437">
        <ele>83.291381</ele>
        <time>2011-10-22T13:01:21Z</time>
      </trkpt>
      <trkpt lat="47.436" lon="0.83409">
        <ele>83.771972</ele>
        <time>2011-10-22T13:01:28Z</time>
      </trkpt>
      <trkpt lat="47.43593" lon="0.83402">
        <ele>84.252685</ele>
        <time>2011-10-22T13:01:30Z</time>
      </trkpt>
      <trkpt lat="47.43566" lon="0.83375">
        <ele>84.733398</ele>
        <time>2011-10-22T13:01:38Z</time>
      </trkpt>
      <trkpt lat="47.4354" lon="0.83346">
        <ele>85.69458</ele>
        <time>2011-10-22T13:01:46Z</time>
      </trkpt>
      <trkpt lat="47.43513" lon="0.83313">
        <ele>85.69458</ele>
        <time>2011-10-22T13:01:55Z</time>
      </trkpt>
      <trkpt lat="47.43492" lon="0.83284">
        <ele>85.69458</ele>
        <time>2011-10-22T13:02:03Z</time>
      </trkpt>
      <trkpt lat="47.43484" lon="0.83268">
        <ele>86.175293</ele>
        <time>2011-10-22T13:02:07Z</time>
      </trkpt>
      <trkpt lat="47.43465" lon="0.83242">
        <ele>87.617187</ele>
        <time>2011-10-22T13:02:14Z</time>
      </trkpt>
      <trkpt lat="47.43452" lon="0.83222">
        <ele>90.981933</ele>
        <time>2011-10-22T13:02:20Z</time>
      </trkpt>
      <trkpt lat="47.43437" lon="0.83199">
        <ele>90.981933</ele>
        <time>2011-10-22T13:02:26Z</time>
      </trkpt>
      <trkpt lat="47.43424" lon="0.83183">
        <ele>91.943237</ele>
        <time>2011-10-22T13:02:31Z</time>
      </trkpt>
      <trkpt lat="47.4341" lon="0.83171">
        <ele>92.42395</ele>
        <time>2011-10-22T13:02:37Z</time>
      </trkpt>
      <trkpt lat="47.43394" lon="0.83155">
        <ele>94.346557</ele>
        <time>2011-10-22T13:02:44Z</time>
      </trkpt>
      <trkpt lat="47.43383" lon="0.83138">
        <ele>95.307739</ele>
        <time>2011-10-22T13:02:50Z</time>
      </trkpt>
      <trkpt lat="47.43367" lon="0.83112">
        <ele>95.307739</ele>
        <time>2011-10-22T13:02:58Z</time>
      </trkpt>
      <trkpt lat="47.43349" lon="0.83089">
        <ele>95.307739</ele>
        <time>2011-10-22T13:03:06Z</time>
      </trkpt>
      <trkpt lat="47.4333" lon="0.8307">
        <ele>96.269287</ele>
        <time>2011-10-22T13:03:13Z</time>
      </trkpt>
      <trkpt lat="47.43307" lon="0.83057">
        <ele>98.191894</ele>
        <time>2011-10-22T13:03:21Z</time>
      </trkpt>
      <trkpt lat="47.43276" lon="0.8304">
        <ele>99.633789</ele>
        <time>2011-10-22T13:03:32Z</time>
      </trkpt>
      <trkpt lat="47.43256" lon="0.83029">
        <ele>99.153076</ele>
        <time>2011-10-22T13:03:39Z</time>
      </trkpt>
      <trkpt lat="47.43238" lon="0.8301">
        <ele>98.191894</ele>
        <time>2011-10-22T13:03:46Z</time>
      </trkpt>
      <trkpt lat="47.43223" lon="0.82989">
        <ele>98.191894</ele>
        <time>2011-10-22T13:03:52Z</time>
      </trkpt>
      <trkpt lat="47.43209" lon="0.82963">
        <ele>100.1145</ele>
        <time>2011-10-22T13:03:59Z</time>
      </trkpt>
      <trkpt lat="47.43197" lon="0.82949">
        <ele>101.07568</ele>
        <time>2011-10-22T13:04:04Z</time>
      </trkpt>
      <trkpt lat="47.43184" lon="0.82937">
        <ele>102.0371</ele>
        <time>2011-10-22T13:04:09Z</time>
      </trkpt>
      <trkpt lat="47.43163" lon="0.82903">
        <ele>103.479</ele>
        <time>2011-10-22T13:04:18Z</time>
      </trkpt>
      <trkpt lat="47.43152" lon="0.82883">
        <ele>102.99829</ele>
        <time>2011-10-22T13:04:23Z</time>
      </trkpt>
      <trkpt lat="47.43135" lon="0.82859">
        <ele>102.99829</ele>
        <time>2011-10-22T13:04:30Z</time>
      </trkpt>
      <trkpt lat="47.43119" lon="0.82833">
        <ele>102.99829</ele>
        <time>2011-10-22T13:04:37Z</time>
      </trkpt>
      <trkpt lat="47.43106" lon="0.82808">
        <ele>102.99829</ele>
        <time>2011-10-22T13:04:43Z</time>
      </trkpt>
      <trkpt lat="47.43095" lon="0.8279">
        <ele>103.479</ele>
        <time>2011-10-22T13:04:48Z</time>
      </trkpt>
      <trkpt lat="47.4308" lon="0.82767">
        <ele>103.95971</ele>
        <time>2011-10-22T13:04:55Z</time>
      </trkpt>
      <trkpt lat="47.43076" lon="0.82759">
        <ele>103.95971</ele>
        <time>2011-10-22T13:04:58Z</time>
      </trkpt>
      <trkpt lat="47.4307" lon="0.82751">
        <ele>103.95971</ele>
        <time>2011-10-22T13:05:04Z</time>
      </trkpt>
      <trkpt lat="47.43071" lon="0.82746">
        <ele>103.95971</ele>
        <time>2011-10-22T13:05:06Z</time>
      </trkpt>
      <trkpt lat="47.43082" lon="0.82717">
        <ele>103.479</ele>
        <time>2011-10-22T13:05:16Z</time>
      </trkpt>
      <trkpt lat="47.43099" lon="0.82682">
        <ele>103.95971</ele>
        <time>2011-10-22T13:05:26Z</time>
      </trkpt>
      <trkpt lat="47.43119" lon="0.82643">
        <ele>104.44042</ele>
        <time>2011-10-22T13:05:35Z</time>
      </trkpt>
      <trkpt lat="47.43136" lon="0.82611">
        <ele>105.40173</ele>
        <time>2011-10-22T13:05:43Z</time>
      </trkpt>
      <trkpt lat="47.43164" lon="0.82568">
        <ele>106.84362</ele>
        <time>2011-10-22T13:05:55Z</time>
      </trkpt>
      <trkpt lat="47.43189" lon="0.82527">
        <ele>107.32434</ele>
        <time>2011-10-22T13:06:06Z</time>
      </trkpt>
      <trkpt lat="47.43208" lon="0.82493">
        <ele>107.32434</ele>
        <time>2011-10-22T13:06:15Z</time>
      </trkpt>
      <trkpt lat="47.43227" lon="0.82458">
        <ele>107.80505</ele>
        <time>2011-10-22T13:06:24Z</time>
      </trkpt>
      <trkpt lat="47.4325" lon="0.82424">
        <ele>107.32434</ele>
        <time>2011-10-22T13:06:33Z</time>
      </trkpt>
      <trkpt lat="47.43285" lon="0.82376">
        <ele>106.84362</ele>
        <time>2011-10-22T13:06:45Z</time>
      </trkpt>
      <trkpt lat="47.43321" lon="0.82331">
        <ele>106.36303</ele>
        <time>2011-10-22T13:06:56Z</time>
      </trkpt>
      <trkpt lat="47.43344" lon="0.82295">
        <ele>106.36303</ele>
        <time>2011-10-22T13:07:04Z</time>
      </trkpt>
      <trkpt lat="47.43359" lon="0.8226">
        <ele>106.84362</ele>
        <time>2011-10-22T13:07:11Z</time>
      </trkpt>
      <trkpt lat="47.43375" lon="0.82216">
        <ele>107.32434</ele>
        <time>2011-10-22T13:07:19Z</time>
      </trkpt>
      <trkpt lat="47.43388" lon="0.8217">
        <ele>108.76623</ele>
        <time>2011-10-22T13:07:28Z</time>
      </trkpt>
      <trkpt lat="47.43404" lon="0.82118">
        <ele>109.72766</ele>
        <time>2011-10-22T13:07:38Z</time>
      </trkpt>
      <trkpt lat="47.43416" lon="0.82072">
        <ele>110.20825</ele>
        <time>2011-10-22T13:07:47Z</time>
      </trkpt>
      <trkpt lat="47.43424" lon="0.82024">
        <ele>111.16955</ele>
        <time>2011-10-22T13:07:56Z</time>
      </trkpt>
      <trkpt lat="47.43427" lon="0.81989">
        <ele>112.13098</ele>
        <time>2011-10-22T13:08:03Z</time>
      </trkpt>
      <trkpt lat="47.43437" lon="0.81983">
        <ele>112.61157</ele>
        <time>2011-10-22T13:08:08Z</time>
      </trkpt>
      <trkpt lat="47.43459" lon="0.82005">
        <ele>112.13098</ele>
        <time>2011-10-22T13:08:16Z</time>
      </trkpt>
      <trkpt lat="47.43488" lon="0.8203">
        <ele>112.13098</ele>
        <time>2011-10-22T13:08:26Z</time>
      </trkpt>
      <trkpt lat="47.43519" lon="0.82045">
        <ele>113.09228</ele>
        <time>2011-10-22T13:08:37Z</time>
      </trkpt>
      <trkpt lat="47.43542" lon="0.82049">
        <ele>113.57299</ele>
        <time>2011-10-22T13:08:45Z</time>
      </trkpt>
      <trkpt lat="47.43581" lon="0.82054">
        <ele>115.01489</ele>
        <time>2011-10-22T13:08:57Z</time>
      </trkpt>
      <trkpt lat="47.43613" lon="0.82059">
        <ele>116.45678</ele>
        <time>2011-10-22T13:09:07Z</time>
      </trkpt>
      <trkpt lat="47.43633" lon="0.82061">
        <ele>116.45678</ele>
        <time>2011-10-22T13:09:13Z</time>
      </trkpt>
      <trkpt lat="47.43666" lon="0.82066">
        <ele>116.9375</ele>
        <time>2011-10-22T13:09:22Z</time>
      </trkpt>
      <trkpt lat="47.43683" lon="0.82077">
        <ele>117.41821</ele>
        <time>2011-10-22T13:09:28Z</time>
      </trkpt>
      <trkpt lat="47.43689" lon="0.8209">
        <ele>116.9375</ele>
        <time>2011-10-22T13:09:32Z</time>
      </trkpt>
      <trkpt lat="47.43692" lon="0.82093">
        <ele>116.9375</ele>
        <time>2011-10-22T13:09:37Z</time>
      </trkpt>
      <trkpt lat="47.43691" lon="0.82093">
        <ele>116.45678</ele>
        <time>2011-10-22T13:09:53Z</time>
      </trkpt>
      <trkpt lat="47.4369" lon="0.82092">
        <ele>116.45678</ele>
        <time>2011-10-22T13:09:54Z</time>
      </trkpt>
      <trkpt lat="47.43691" lon="0.82091">
        <ele>116.9375</ele>
        <time>2011-10-22T13:10:10Z</time>
      </trkpt>
      <trkpt lat="47.43692" lon="0.82091">
        <ele>116.9375</ele>
        <time>2011-10-22T13:10:11Z</time>
      </trkpt>
      <trkpt lat="47.43706" lon="0.82091">
        <ele>115.4956</ele>
        <time>2011-10-22T13:10:16Z</time>
      </trkpt>
      <trkpt lat="47.43723" lon="0.82091">
        <ele>114.53417</ele>
        <time>2011-10-22T13:10:21Z</time>
      </trkpt>
      <trkpt lat="47.43739" lon="0.8209">
        <ele>113.57299</ele>
        <time>2011-10-22T13:10:25Z</time>
      </trkpt>
      <trkpt lat="47.4377" lon="0.82088">
        <ele>110.68884</ele>
        <time>2011-10-22T13:10:32Z</time>
      </trkpt>
      <trkpt lat="47.43809" lon="0.82082">
        <ele>109.72766</ele>
        <time>2011-10-22T13:10:40Z</time>
      </trkpt>
      <trkpt lat="47.43832" lon="0.8208">
        <ele>107.80505</ele>
        <time>2011-10-22T13:10:45Z</time>
      </trkpt>
      <trkpt lat="47.43851" lon="0.82089">
        <ele>107.80505</ele>
        <time>2011-10-22T13:10:49Z</time>
      </trkpt>
      <trkpt lat="47.43888" lon="0.82095">
        <ele>106.36303</ele>
        <time>2011-10-22T13:10:55Z</time>
      </trkpt>
      <trkpt lat="47.43907" lon="0.82095">
        <ele>105.88244</ele>
        <time>2011-10-22T13:10:58Z</time>
      </trkpt>
      <trkpt lat="47.43934" lon="0.82095">
        <ele>103.95971</ele>
        <time>2011-10-22T13:11:03Z</time>
      </trkpt>
      <trkpt lat="47.4395" lon="0.82098">
        <ele>102.5177</ele>
        <time>2011-10-22T13:11:06Z</time>
      </trkpt>
      <trkpt lat="47.43978" lon="0.82115">
        <ele>101.07568</ele>
        <time>2011-10-22T13:11:12Z</time>
      </trkpt>
      <trkpt lat="47.43982" lon="0.82118">
        <ele>101.55639</ele>
        <time>2011-10-22T13:11:16Z</time>
      </trkpt>
      <trkpt lat="47.43981" lon="0.82116">
        <ele>102.0371</ele>
        <time>2011-10-22T13:11:17Z</time>
      </trkpt>
      <trkpt lat="47.43976" lon="0.8211">
        <ele>101.07568</ele>
        <time>2011-10-22T13:11:24Z</time>
      </trkpt>
      <trkpt lat="47.43976" lon="0.8211">
        <ele>102.0371</ele>
        <time>2011-10-22T13:11:26Z</time>
      </trkpt>
      <trkpt lat="47.43976" lon="0.8211">
        <ele>102.0371</ele>
        <time>2011-10-22T13:11:29Z</time>
      </trkpt>
      <trkpt lat="47.43977" lon="0.82113">
        <ele>101.07568</ele>
        <time>2011-10-22T13:11:30Z</time>
      </trkpt>
      <trkpt lat="47.43979" lon="0.82114">
        <ele>101.55639</ele>
        <time>2011-10-22T13:11:34Z</time>
      </trkpt>
      <trkpt lat="47.43981" lon="0.82112">
        <ele>102.0371</ele>
        <time>2011-10-22T13:11:39Z</time>
      </trkpt>
      <trkpt lat="47.43982" lon="0.82113">
        <ele>102.99829</ele>
        <time>2011-10-22T13:11:40Z</time>
      </trkpt>
      <trkpt lat="47.43994" lon="0.82124">
        <ele>102.99829</ele>
        <time>2011-10-22T13:11:45Z</time>
      </trkpt>
      <trkpt lat="47.44011" lon="0.82135">
        <ele>102.99829</ele>
        <time>2011-10-22T13:11:49Z</time>
      </trkpt>
      <trkpt lat="47.44033" lon="0.82138">
        <ele>100.1145</ele>
        <time>2011-10-22T13:11:54Z</time>
      </trkpt>
      <trkpt lat="47.44043" lon="0.8214">
        <ele>99.153076</ele>
        <time>2011-10-22T13:11:56Z</time>
      </trkpt>
      <trkpt lat="47.44054" lon="0.82141">
        <ele>97.230468</ele>
        <time>2011-10-22T13:11:58Z</time>
      </trkpt>
      <trkpt lat="47.44079" lon="0.82157">
        <ele>93.865844</ele>
        <time>2011-10-22T13:12:04Z</time>
      </trkpt>
      <trkpt lat="47.44082" lon="0.82162">
        <ele>92.904541</ele>
        <time>2011-10-22T13:12:05Z</time>
      </trkpt>
      <trkpt lat="47.44099" lon="0.82186">
        <ele>89.059326</ele>
        <time>2011-10-22T13:12:11Z</time>
      </trkpt>
      <trkpt lat="47.44107" lon="0.8221">
        <ele>86.656005</ele>
        <time>2011-10-22T13:12:15Z</time>
      </trkpt>
      <trkpt lat="47.44106" lon="0.82216">
        <ele>86.656005</ele>
        <time>2011-10-22T13:12:16Z</time>
      </trkpt>
      <trkpt lat="47.441" lon="0.82278">
        <ele>85.213989</ele>
        <time>2011-10-22T13:12:24Z</time>
      </trkpt>
      <trkpt lat="47.44106" lon="0.82327">
        <ele>84.252685</ele>
        <time>2011-10-22T13:12:30Z</time>
      </trkpt>
      <trkpt lat="47.44107" lon="0.82335">
        <ele>84.252685</ele>
        <time>2011-10-22T13:12:31Z</time>
      </trkpt>
      <trkpt lat="47.44119" lon="0.82349">
        <ele>84.252685</ele>
        <time>2011-10-22T13:12:35Z</time>
      </trkpt>
      <trkpt lat="47.44145" lon="0.82346">
        <ele>83.771972</ele>
        <time>2011-10-22T13:12:41Z</time>
      </trkpt>
      <trkpt lat="47.44157" lon="0.82331">
        <ele>84.252685</ele>
        <time>2011-10-22T13:12:45Z</time>
      </trkpt>
      <trkpt lat="47.44157" lon="0.82325">
        <ele>84.733398</ele>
        <time>2011-10-22T13:12:46Z</time>
      </trkpt>
      <trkpt lat="47.44167" lon="0.82281">
        <ele>87.136596</ele>
        <time>2011-10-22T13:12:55Z</time>
      </trkpt>
      <trkpt lat="47.44181" lon="0.82264">
        <ele>89.059326</ele>
        <time>2011-10-22T13:13:02Z</time>
      </trkpt>
      <trkpt lat="47.44201" lon="0.82261">
        <ele>92.904541</ele>
        <time>2011-10-22T13:13:10Z</time>
      </trkpt>
      <trkpt lat="47.44219" lon="0.82257">
        <ele>96.269287</ele>
        <time>2011-10-22T13:13:17Z</time>
      </trkpt>
      <trkpt lat="47.44224" lon="0.8224">
        <ele>96.749877</ele>
        <time>2011-10-22T13:13:22Z</time>
      </trkpt>
      <trkpt lat="47.44228" lon="0.82204">
        <ele>97.711181</ele>
        <time>2011-10-22T13:13:30Z</time>
      </trkpt>
      <trkpt lat="47.44234" lon="0.82173">
        <ele>97.711181</ele>
        <time>2011-10-22T13:13:36Z</time>
      </trkpt>
      <trkpt lat="47.44254" lon="0.82133">
        <ele>98.672485</ele>
        <time>2011-10-22T13:13:45Z</time>
      </trkpt>
      <trkpt lat="47.4427" lon="0.82113">
        <ele>100.59509</ele>
        <time>2011-10-22T13:13:51Z</time>
      </trkpt>
      <trkpt lat="47.44291" lon="0.82091">
        <ele>102.5177</ele>
        <time>2011-10-22T13:13:58Z</time>
      </trkpt>
      <trkpt lat="47.44317" lon="0.82059">
        <ele>103.95971</ele>
        <time>2011-10-22T13:14:07Z</time>
      </trkpt>
      <trkpt lat="47.4434" lon="0.82019">
        <ele>103.95971</ele>
        <time>2011-10-22T13:14:16Z</time>
      </trkpt>
      <trkpt lat="47.4435" lon="0.8202">
        <ele>103.95971</ele>
        <time>2011-10-22T13:14:20Z</time>
      </trkpt>
      <trkpt lat="47.44351" lon="0.82024">
        <ele>103.95971</ele>
        <time>2011-10-22T13:14:21Z</time>
      </trkpt>
      <trkpt lat="47.44362" lon="0.82076">
        <ele>105.40173</ele>
        <time>2011-10-22T13:14:31Z</time>
      </trkpt>
      <trkpt lat="47.44369" lon="0.82108">
        <ele>105.88244</ele>
        <time>2011-10-22T13:14:36Z</time>
      </trkpt>
      <trkpt lat="47.44376" lon="0.82146">
        <ele>106.36303</ele>
        <time>2011-10-22T13:14:42Z</time>
      </trkpt>
      <trkpt lat="47.44386" lon="0.82188">
        <ele>106.84362</ele>
        <time>2011-10-22T13:14:49Z</time>
      </trkpt>
      <trkpt lat="47.44391" lon="0.82205">
        <ele>106.84362</ele>
        <time>2011-10-22T13:14:52Z</time>
      </trkpt>
      <trkpt lat="47.44395" lon="0.82231">
        <ele>106.84362</ele>
        <time>2011-10-22T13:14:56Z</time>
      </trkpt>
      <trkpt lat="47.444" lon="0.82323">
        <ele>106.84362</ele>
        <time>2011-10-22T13:15:09Z</time>
      </trkpt>
      <trkpt lat="47.44399" lon="0.82378">
        <ele>106.84362</ele>
        <time>2011-10-22T13:15:17Z</time>
      </trkpt>
      <trkpt lat="47.44392" lon="0.82448">
        <ele>106.84362</ele>
        <time>2011-10-22T13:15:27Z</time>
      </trkpt>
      <trkpt lat="47.4439" lon="0.82468">
        <ele>106.84362</ele>
        <time>2011-10-22T13:15:30Z</time>
      </trkpt>
      <trkpt lat="47.44399" lon="0.82482">
        <ele>107.32434</ele>
        <time>2011-10-22T13:15:34Z</time>
      </trkpt>
      <trkpt lat="47.44403" lon="0.82483">
        <ele>107.32434</ele>
        <time>2011-10-22T13:15:35Z</time>
      </trkpt>
      <trkpt lat="47.44445" lon="0.82488">
        <ele>107.32434</ele>
        <time>2011-10-22T13:15:44Z</time>
      </trkpt>
      <trkpt lat="47.44497" lon="0.82494">
        <ele>105.88244</ele>
        <time>2011-10-22T13:15:54Z</time>
      </trkpt>
      <trkpt lat="47.44517" lon="0.82497">
        <ele>104.92102</ele>
        <time>2011-10-22T13:15:58Z</time>
      </trkpt>
      <trkpt lat="47.44528" lon="0.82488">
        <ele>104.92102</ele>
        <time>2011-10-22T13:16:02Z</time>
      </trkpt>
      <trkpt lat="47.44529" lon="0.82475">
        <ele>104.44042</ele>
        <time>2011-10-22T13:16:04Z</time>
      </trkpt>
      <trkpt lat="47.44531" lon="0.82413">
        <ele>104.44042</ele>
        <time>2011-10-22T13:16:12Z</time>
      </trkpt>
      <trkpt lat="47.44532" lon="0.82335">
        <ele>104.44042</ele>
        <time>2011-10-22T13:16:21Z</time>
      </trkpt>
      <trkpt lat="47.44533" lon="0.82291">
        <ele>105.40173</ele>
        <time>2011-10-22T13:16:27Z</time>
      </trkpt>
      <trkpt lat="47.44533" lon="0.82275">
        <ele>104.92102</ele>
        <time>2011-10-22T13:16:29Z</time>
      </trkpt>
      <trkpt lat="47.44544" lon="0.82253">
        <ele>103.95971</ele>
        <time>2011-10-22T13:16:33Z</time>
      </trkpt>
      <trkpt lat="47.44549" lon="0.82251">
        <ele>103.95971</ele>
        <time>2011-10-22T13:16:34Z</time>
      </trkpt>
      <trkpt lat="47.44607" lon="0.82234">
        <ele>102.99829</ele>
        <time>2011-10-22T13:16:44Z</time>
      </trkpt>
      <trkpt lat="47.44631" lon="0.82229">
        <ele>102.99829</ele>
        <time>2011-10-22T13:16:48Z</time>
      </trkpt>
      <trkpt lat="47.44652" lon="0.82238">
        <ele>102.5177</ele>
        <time>2011-10-22T13:16:52Z</time>
      </trkpt>
      <trkpt lat="47.44656" lon="0.82244">
        <ele>102.99829</ele>
        <time>2011-10-22T13:16:53Z</time>
      </trkpt>
      <trkpt lat="47.44666" lon="0.82263">
        <ele>103.479</ele>
        <time>2011-10-22T13:16:56Z</time>
      </trkpt>
      <trkpt lat="47.44678" lon="0.82315">
        <ele>103.95971</ele>
        <time>2011-10-22T13:17:03Z</time>
      </trkpt>
      <trkpt lat="47.44693" lon="0.82355">
        <ele>104.44042</ele>
        <time>2011-10-22T13:17:09Z</time>
      </trkpt>
      <trkpt lat="47.44707" lon="0.82391">
        <ele>104.92102</ele>
        <time>2011-10-22T13:17:15Z</time>
      </trkpt>
      <trkpt lat="47.44709" lon="0.82398">
        <ele>104.92102</ele>
        <time>2011-10-22T13:17:16Z</time>
      </trkpt>
      <trkpt lat="47.44719" lon="0.82453">
        <ele>104.44042</ele>
        <time>2011-10-22T13:17:23Z</time>
      </trkpt>
      <trkpt lat="47.44732" lon="0.8251">
        <ele>103.479</ele>
        <time>2011-10-22T13:17:30Z</time>
      </trkpt>
      <trkpt lat="47.44734" lon="0.82518">
        <ele>102.99829</ele>
        <time>2011-10-22T13:17:31Z</time>
      </trkpt>
      <trkpt lat="47.44757" lon="0.82561">
        <ele>102.5177</ele>
        <time>2011-10-22T13:17:37Z</time>
      </trkpt>
      <trkpt lat="47.44795" lon="0.82609">
        <ele>101.55639</ele>
        <time>2011-10-22T13:17:45Z</time>
      </trkpt>
      <trkpt lat="47.44836" lon="0.82639">
        <ele>100.1145</ele>
        <time>2011-10-22T13:17:52Z</time>
      </trkpt>
      <trkpt lat="47.44886" lon="0.82667">
        <ele>98.191894</ele>
        <time>2011-10-22T13:18:01Z</time>
      </trkpt>
      <trkpt lat="47.44918" lon="0.82693">
        <ele>97.711181</ele>
        <time>2011-10-22T13:18:07Z</time>
      </trkpt>
      <trkpt lat="47.44937" lon="0.82712">
        <ele>96.749877</ele>
        <time>2011-10-22T13:18:11Z</time>
      </trkpt>
      <trkpt lat="47.44961" lon="0.82737">
        <ele>99.633789</ele>
        <time>2011-10-22T13:18:17Z</time>
      </trkpt>
      <trkpt lat="47.44994" lon="0.82777">
        <ele>102.0371</ele>
        <time>2011-10-22T13:18:26Z</time>
      </trkpt>
      <trkpt lat="47.45037" lon="0.82828">
        <ele>103.95971</ele>
        <time>2011-10-22T13:18:37Z</time>
      </trkpt>
      <trkpt lat="47.45065" lon="0.82864">
        <ele>105.40173</ele>
        <time>2011-10-22T13:18:45Z</time>
      </trkpt>
      <trkpt lat="47.45068" lon="0.82879">
        <ele>105.88244</ele>
        <time>2011-10-22T13:18:49Z</time>
      </trkpt>
      <trkpt lat="47.45059" lon="0.82878">
        <ele>105.40173</ele>
        <time>2011-10-22T13:18:52Z</time>
      </trkpt>
      <trkpt lat="47.45032" lon="0.82873">
        <ele>104.92102</ele>
        <time>2011-10-22T13:18:59Z</time>
      </trkpt>
      <trkpt lat="47.45008" lon="0.82871">
        <ele>104.92102</ele>
        <time>2011-10-22T13:19:05Z</time>
      </trkpt>
      <trkpt lat="47.4497" lon="0.82868">
        <ele>104.44042</ele>
        <time>2011-10-22T13:19:15Z</time>
      </trkpt>
      <trkpt lat="47.44943" lon="0.82874">
        <ele>104.44042</ele>
        <time>2011-10-22T13:19:22Z</time>
      </trkpt>
      <trkpt lat="47.44911" lon="0.82883">
        <ele>103.95971</ele>
        <time>2011-10-22T13:19:30Z</time>
      </trkpt>
      <trkpt lat="47.44874" lon="0.82892">
        <ele>101.07568</ele>
        <time>2011-10-22T13:19:38Z</time>
      </trkpt>
      <trkpt lat="47.44829" lon="0.82903">
        <ele>96.749877</ele>
        <time>2011-10-22T13:19:46Z</time>
      </trkpt>
      <trkpt lat="47.44781" lon="0.82918">
        <ele>94.346557</ele>
        <time>2011-10-22T13:19:53Z</time>
      </trkpt>
      <trkpt lat="47.44756" lon="0.82927">
        <ele>92.904541</ele>
        <time>2011-10-22T13:19:56Z</time>
      </trkpt>
      <trkpt lat="47.44707" lon="0.82934">
        <ele>90.501342</ele>
        <time>2011-10-22T13:20:02Z</time>
      </trkpt>
      <trkpt lat="47.44684" lon="0.82932">
        <ele>94.346557</ele>
        <time>2011-10-22T13:20:06Z</time>
      </trkpt>
      <trkpt lat="47.44663" lon="0.82927">
        <ele>98.191894</ele>
        <time>2011-10-22T13:20:11Z</time>
      </trkpt>
      <trkpt lat="47.44644" lon="0.82929">
        <ele>100.59509</ele>
        <time>2011-10-22T13:20:17Z</time>
      </trkpt>
      <trkpt lat="47.44641" lon="0.8293">
        <ele>100.59509</ele>
        <time>2011-10-22T13:20:18Z</time>
      </trkpt>
      <trkpt lat="47.44637" lon="0.82949">
        <ele>102.0371</ele>
        <time>2011-10-22T13:20:23Z</time>
      </trkpt>
      <trkpt lat="47.44636" lon="0.82992">
        <ele>102.99829</ele>
        <time>2011-10-22T13:20:31Z</time>
      </trkpt>
      <trkpt lat="47.44628" lon="0.83034">
        <ele>104.44042</ele>
        <time>2011-10-22T13:20:39Z</time>
      </trkpt>
      <trkpt lat="47.44616" lon="0.83059">
        <ele>105.40173</ele>
        <time>2011-10-22T13:20:45Z</time>
      </trkpt>
      <trkpt lat="47.44601" lon="0.83077">
        <ele>105.88244</ele>
        <time>2011-10-22T13:20:51Z</time>
      </trkpt>
      <trkpt lat="47.44581" lon="0.83101">
        <ele>104.92102</ele>
        <time>2011-10-22T13:20:59Z</time>
      </trkpt>
      <trkpt lat="47.44563" lon="0.83126">
        <ele>103.95971</ele>
        <time>2011-10-22T13:21:07Z</time>
      </trkpt>
      <trkpt lat="47.44541" lon="0.8316">
        <ele>104.44042</ele>
        <time>2011-10-22T13:21:17Z</time>
      </trkpt>
      <trkpt lat="47.44526" lon="0.83186">
        <ele>104.92102</ele>
        <time>2011-10-22T13:21:24Z</time>
      </trkpt>
      <trkpt lat="47.44504" lon="0.83219">
        <ele>104.44042</ele>
        <time>2011-10-22T13:21:34Z</time>
      </trkpt>
      <trkpt lat="47.4448" lon="0.83248">
        <ele>105.88244</ele>
        <time>2011-10-22T13:21:43Z</time>
      </trkpt>
      <trkpt lat="47.44461" lon="0.83274">
        <ele>106.84362</ele>
        <time>2011-10-22T13:21:51Z</time>
      </trkpt>
      <trkpt lat="47.44452" lon="0.8329">
        <ele>107.80505</ele>
        <time>2011-10-22T13:21:57Z</time>
      </trkpt>
      <trkpt lat="47.44451" lon="0.83293">
        <ele>111.65026</ele>
        <time>2011-10-22T13:22:01Z</time>
      </trkpt>
      <trkpt lat="47.44451" lon="0.83299">
        <ele>115.97619</ele>
        <time>2011-10-22T13:22:45Z</time>
      </trkpt>
      <trkpt lat="47.44451" lon="0.83299">
        <ele>115.97619</ele>
        <time>2011-10-22T13:22:46Z</time>
      </trkpt>
      <trkpt lat="47.44451" lon="0.83297">
        <ele>115.97619</ele>
        <time>2011-10-22T13:22:50Z</time>
      </trkpt>
      <trkpt lat="47.44451" lon="0.83296">
        <ele>115.97619</ele>
        <time>2011-10-22T13:22:51Z</time>
      </trkpt>
      <trkpt lat="47.4446" lon="0.83283">
        <ele>116.45678</ele>
        <time>2011-10-22T13:22:57Z</time>
      </trkpt>
      <trkpt lat="47.44474" lon="0.83262">
        <ele>115.01489</ele>
        <time>2011-10-22T13:23:03Z</time>
      </trkpt>
      <trkpt lat="47.44498" lon="0.83234">
        <ele>114.53417</ele>
        <time>2011-10-22T13:23:11Z</time>
      </trkpt>
      <trkpt lat="47.44515" lon="0.83213">
        <ele>113.09228</ele>
        <time>2011-10-22T13:23:16Z</time>
      </trkpt>
      <trkpt lat="47.44538" lon="0.83177">
        <ele>111.65026</ele>
        <time>2011-10-22T13:23:23Z</time>
      </trkpt>
      <trkpt lat="47.44543" lon="0.8317">
        <ele>111.16955</ele>
        <time>2011-10-22T13:23:25Z</time>
      </trkpt>
      <trkpt lat="47.44546" lon="0.83166">
        <ele>110.68884</ele>
        <time>2011-10-22T13:23:29Z</time>
      </trkpt>
      <trkpt lat="47.44546" lon="0.83165">
        <ele>110.20825</ele>
        <time>2011-10-22T13:23:38Z</time>
      </trkpt>
      <trkpt lat="47.44547" lon="0.83164">
        <ele>110.20825</ele>
        <time>2011-10-22T13:23:39Z</time>
      </trkpt>
      <trkpt lat="47.44546" lon="0.83165">
        <ele>107.80505</ele>
        <time>2011-10-22T13:28:05Z</time>
      </trkpt>
      <trkpt lat="47.44546" lon="0.83165">
        <ele>107.32434</ele>
        <time>2011-10-22T13:28:06Z</time>
      </trkpt>
      <trkpt lat="47.44546" lon="0.83164">
        <ele>107.32434</ele>
        <time>2011-10-22T13:28:19Z</time>
      </trkpt>
      <trkpt lat="47.44546" lon="0.83164">
        <ele>106.84362</ele>
        <time>2011-10-22T13:28:20Z</time>
      </trkpt>
      <trkpt lat="47.44544" lon="0.83162">
        <ele>111.16955</ele>
        <time>2011-10-22T13:29:20Z</time>
      </trkpt>
      <trkpt lat="47.44543" lon="0.83162">
        <ele>111.65026</ele>
        <time>2011-10-22T13:29:21Z</time>
      </trkpt>
      <trkpt lat="47.44543" lon="0.83158">
        <ele>116.9375</ele>
        <time>2011-10-22T13:29:41Z</time>
      </trkpt>
      <trkpt lat="47.44542" lon="0.83156">
        <ele>115.4956</ele>
        <time>2011-10-22T13:29:45Z</time>
      </trkpt>
      <trkpt lat="47.44542" lon="0.83156">
        <ele>114.05358</ele>
        <time>2011-10-22T13:29:57Z</time>
      </trkpt>
      <trkpt lat="47.44543" lon="0.83157">
        <ele>114.05358</ele>
        <time>2011-10-22T13:29:58Z</time>
      </trkpt>
      <trkpt lat="47.44543" lon="0.83156">
        <ele>114.05358</ele>
        <time>2011-10-22T13:29:59Z</time>
      </trkpt>
      <trkpt lat="47.44544" lon="0.83158">
        <ele>113.57299</ele>
        <time>2011-10-22T13:30:04Z</time>
      </trkpt>
      <trkpt lat="47.44544" lon="0.83158">
        <ele>113.09228</ele>
        <time>2011-10-22T13:30:05Z</time>
      </trkpt>
      <trkpt lat="47.44543" lon="0.83159">
        <ele>111.65026</ele>
        <time>2011-10-22T13:30:13Z</time>
      </trkpt>
      <trkpt lat="47.44543" lon="0.8316">
        <ele>110.68884</ele>
        <time>2011-10-22T13:30:14Z</time>
      </trkpt>
      <trkpt lat="47.44547" lon="0.83166">
        <ele>110.68884</ele>
        <time>2011-10-22T13:33:43Z</time>
      </trkpt>
      <trkpt lat="47.44546" lon="0.83166">
        <ele>107.80505</ele>
        <time>2011-10-22T13:33:46Z</time>
      </trkpt>
      <trkpt lat="47.44546" lon="0.83166">
        <ele>107.80505</ele>
        <time>2011-10-22T13:34:08Z</time>
      </trkpt>
      <trkpt lat="47.44546" lon="0.83166">
        <ele>107.80505</ele>
        <time>2011-10-22T13:34:11Z</time>
      </trkpt>
      <trkpt lat="47.44546" lon="0.83165">
        <ele>107.80505</ele>
        <time>2011-10-22T13:34:14Z</time>
      </trkpt>
      <trkpt lat="47.44547" lon="0.83165">
        <ele>107.80505</ele>
        <time>2011-10-22T13:34:16Z</time>
      </trkpt>
      <trkpt lat="47.44544" lon="0.83167">
        <ele>109.24694</ele>
        <time>2011-10-22T13:36:08Z</time>
      </trkpt>
      <trkpt lat="47.44545" lon="0.83165">
        <ele>110.20825</ele>
        <time>2011-10-22T13:36:11Z</time>
      </trkpt>
      <trkpt lat="47.44545" lon="0.83165">
        <ele>110.20825</ele>
        <time>2011-10-22T13:36:12Z</time>
      </trkpt>
      <trkpt lat="47.44544" lon="0.83163">
        <ele>113.09228</ele>
        <time>2011-10-22T13:36:30Z</time>
      </trkpt>
      <trkpt lat="47.44543" lon="0.83163">
        <ele>113.09228</ele>
        <time>2011-10-22T13:36:31Z</time>
      </trkpt>
      <trkpt lat="47.44543" lon="0.83164">
        <ele>108.76623</ele>
        <time>2011-10-22T13:38:03Z</time>
      </trkpt>
      <trkpt lat="47.44536" lon="0.83175">
        <ele>107.80505</ele>
        <time>2011-10-22T13:38:08Z</time>
      </trkpt>
      <trkpt lat="47.4453" lon="0.83184">
        <ele>108.28564</ele>
        <time>2011-10-22T13:38:12Z</time>
      </trkpt>
      <trkpt lat="47.44526" lon="0.83191">
        <ele>108.28564</ele>
        <time>2011-10-22T13:38:16Z</time>
      </trkpt>
      <trkpt lat="47.44518" lon="0.83204">
        <ele>108.28564</ele>
        <time>2011-10-22T13:38:21Z</time>
      </trkpt>
      <trkpt lat="47.44499" lon="0.83229">
        <ele>107.80505</ele>
        <time>2011-10-22T13:38:29Z</time>
      </trkpt>
      <trkpt lat="47.44481" lon="0.8325">
        <ele>107.80505</ele>
        <time>2011-10-22T13:38:35Z</time>
      </trkpt>
      <trkpt lat="47.4446" lon="0.83279">
        <ele>107.32434</ele>
        <time>2011-10-22T13:38:43Z</time>
      </trkpt>
      <trkpt lat="47.44447" lon="0.83304">
        <ele>108.76623</ele>
        <time>2011-10-22T13:38:49Z</time>
      </trkpt>
      <trkpt lat="47.44431" lon="0.83349">
        <ele>109.72766</ele>
        <time>2011-10-22T13:38:57Z</time>
      </trkpt>
      <trkpt lat="47.44421" lon="0.83381">
        <ele>108.76623</ele>
        <time>2011-10-22T13:39:03Z</time>
      </trkpt>
      <trkpt lat="47.44408" lon="0.83417">
        <ele>109.24694</ele>
        <time>2011-10-22T13:39:10Z</time>
      </trkpt>
      <trkpt lat="47.44401" lon="0.83438">
        <ele>108.76623</ele>
        <time>2011-10-22T13:39:16Z</time>
      </trkpt>
      <trkpt lat="47.44392" lon="0.83463">
        <ele>107.80505</ele>
        <time>2011-10-22T13:39:22Z</time>
      </trkpt>
      <trkpt lat="47.44378" lon="0.83514">
        <ele>107.32434</ele>
        <time>2011-10-22T13:39:30Z</time>
      </trkpt>
      <trkpt lat="47.44363" lon="0.83571">
        <ele>105.88244</ele>
        <time>2011-10-22T13:39:38Z</time>
      </trkpt>
      <trkpt lat="47.44357" lon="0.83591">
        <ele>105.40173</ele>
        <time>2011-10-22T13:39:41Z</time>
      </trkpt>
      <trkpt lat="47.44348" lon="0.83606">
        <ele>104.92102</ele>
        <time>2011-10-22T13:39:44Z</time>
      </trkpt>
      <trkpt lat="47.4435" lon="0.83625">
        <ele>105.40173</ele>
        <time>2011-10-22T13:39:48Z</time>
      </trkpt>
      <trkpt lat="47.4436" lon="0.83636">
        <ele>105.88244</ele>
        <time>2011-10-22T13:39:51Z</time>
      </trkpt>
      <trkpt lat="47.44377" lon="0.83648">
        <ele>106.84362</ele>
        <time>2011-10-22T13:39:55Z</time>
      </trkpt>
      <trkpt lat="47.44396" lon="0.83653">
        <ele>107.32434</ele>
        <time>2011-10-22T13:39:59Z</time>
      </trkpt>
      <trkpt lat="47.44414" lon="0.83654">
        <ele>107.32434</ele>
        <time>2011-10-22T13:40:03Z</time>
      </trkpt>
      <trkpt lat="47.44419" lon="0.83655">
        <ele>107.32434</ele>
        <time>2011-10-22T13:40:04Z</time>
      </trkpt>
      <trkpt lat="47.44451" lon="0.83665">
        <ele>106.36303</ele>
        <time>2011-10-22T13:40:11Z</time>
      </trkpt>
      <trkpt lat="47.44489" lon="0.83688">
        <ele>105.40173</ele>
        <time>2011-10-22T13:40:19Z</time>
      </trkpt>
      <trkpt lat="47.44499" lon="0.83694">
        <ele>105.40173</ele>
        <time>2011-10-22T13:40:21Z</time>
      </trkpt>
      <trkpt lat="47.44541" lon="0.83713">
        <ele>102.99829</ele>
        <time>2011-10-22T13:40:29Z</time>
      </trkpt>
      <trkpt lat="47.44569" lon="0.83729">
        <ele>99.633789</ele>
        <time>2011-10-22T13:40:35Z</time>
      </trkpt>
      <trkpt lat="47.44587" lon="0.83744">
        <ele>95.788452</ele>
        <time>2011-10-22T13:40:40Z</time>
      </trkpt>
      <trkpt lat="47.44607" lon="0.83759">
        <ele>92.904541</ele>
        <time>2011-10-22T13:40:44Z</time>
      </trkpt>
      <trkpt lat="47.4463" lon="0.83767">
        <ele>91.462524</ele>
        <time>2011-10-22T13:40:49Z</time>
      </trkpt>
      <trkpt lat="47.44642" lon="0.83756">
        <ele>90.020629</ele>
        <time>2011-10-22T13:40:53Z</time>
      </trkpt>
      <trkpt lat="47.44649" lon="0.83746">
        <ele>88.578735</ele>
        <time>2011-10-22T13:40:55Z</time>
      </trkpt>
      <trkpt lat="47.44671" lon="0.83695">
        <ele>88.578735</ele>
        <time>2011-10-22T13:41:02Z</time>
      </trkpt>
      <trkpt lat="47.44673" lon="0.83688">
        <ele>88.578735</ele>
        <time>2011-10-22T13:41:03Z</time>
      </trkpt>
      <trkpt lat="47.44682" lon="0.83667">
        <ele>89.059326</ele>
        <time>2011-10-22T13:41:07Z</time>
      </trkpt>
      <trkpt lat="47.4469" lon="0.83653">
        <ele>89.059326</ele>
        <time>2011-10-22T13:41:10Z</time>
      </trkpt>
      <trkpt lat="47.44709" lon="0.83642">
        <ele>86.175293</ele>
        <time>2011-10-22T13:41:14Z</time>
      </trkpt>
      <trkpt lat="47.44714" lon="0.83641">
        <ele>85.69458</ele>
        <time>2011-10-22T13:41:15Z</time>
      </trkpt>
      <trkpt lat="47.44724" lon="0.83641">
        <ele>84.733398</ele>
        <time>2011-10-22T13:41:17Z</time>
      </trkpt>
      <trkpt lat="47.44751" lon="0.83651">
        <ele>82.330078</ele>
        <time>2011-10-22T13:41:22Z</time>
      </trkpt>
      <trkpt lat="47.44788" lon="0.8368">
        <ele>79.926635</ele>
        <time>2011-10-22T13:41:29Z</time>
      </trkpt>
      <trkpt lat="47.44803" lon="0.83678">
        <ele>78.965454</ele>
        <time>2011-10-22T13:41:32Z</time>
      </trkpt>
      <trkpt lat="47.44811" lon="0.83667">
        <ele>78.484741</ele>
        <time>2011-10-22T13:41:34Z</time>
      </trkpt>
      <trkpt lat="47.4482" lon="0.83655">
        <ele>78.484741</ele>
        <time>2011-10-22T13:41:36Z</time>
      </trkpt>
      <trkpt lat="47.44837" lon="0.8365">
        <ele>78.004028</ele>
        <time>2011-10-22T13:41:40Z</time>
      </trkpt>
      <trkpt lat="47.44842" lon="0.83661">
        <ele>77.523437</ele>
        <time>2011-10-22T13:41:42Z</time>
      </trkpt>
      <trkpt lat="47.44852" lon="0.83707">
        <ele>76.562133</ele>
        <time>2011-10-22T13:41:48Z</time>
      </trkpt>
      <trkpt lat="47.44863" lon="0.83724">
        <ele>77.042846</ele>
        <time>2011-10-22T13:41:52Z</time>
      </trkpt>
      <trkpt lat="47.44873" lon="0.83715">
        <ele>77.042846</ele>
        <time>2011-10-22T13:41:55Z</time>
      </trkpt>
      <trkpt lat="47.44904" lon="0.83667">
        <ele>77.042846</ele>
        <time>2011-10-22T13:42:04Z</time>
      </trkpt>
      <trkpt lat="47.44916" lon="0.83653">
        <ele>77.042846</ele>
        <time>2011-10-22T13:42:07Z</time>
      </trkpt>
      <trkpt lat="47.44924" lon="0.83638">
        <ele>77.523437</ele>
        <time>2011-10-22T13:42:10Z</time>
      </trkpt>
      <trkpt lat="47.44941" lon="0.8362">
        <ele>78.484741</ele>
        <time>2011-10-22T13:42:15Z</time>
      </trkpt>
      <trkpt lat="47.44945" lon="0.83618">
        <ele>78.484741</ele>
        <time>2011-10-22T13:42:16Z</time>
      </trkpt>
      <trkpt lat="47.44959" lon="0.83606">
        <ele>78.965454</ele>
        <time>2011-10-22T13:42:20Z</time>
      </trkpt>
      <trkpt lat="47.4497" lon="0.83589">
        <ele>79.926635</ele>
        <time>2011-10-22T13:42:25Z</time>
      </trkpt>
      <trkpt lat="47.44969" lon="0.83519">
        <ele>81.849365</ele>
        <time>2011-10-22T13:42:38Z</time>
      </trkpt>
      <trkpt lat="47.4497" lon="0.83482">
        <ele>83.771972</ele>
        <time>2011-10-22T13:42:46Z</time>
      </trkpt>
      <trkpt lat="47.44971" lon="0.8344">
        <ele>85.69458</ele>
        <time>2011-10-22T13:42:55Z</time>
      </trkpt>
      <trkpt lat="47.44973" lon="0.83398">
        <ele>88.098022</ele>
        <time>2011-10-22T13:43:05Z</time>
      </trkpt>
      <trkpt lat="47.44976" lon="0.83371">
        <ele>89.539917</ele>
        <time>2011-10-22T13:43:12Z</time>
      </trkpt>
      <trkpt lat="47.4498" lon="0.83331">
        <ele>91.943237</ele>
        <time>2011-10-22T13:43:22Z</time>
      </trkpt>
      <trkpt lat="47.44983" lon="0.83292">
        <ele>93.385131</ele>
        <time>2011-10-22T13:43:31Z</time>
      </trkpt>
      <trkpt lat="47.44985" lon="0.83266">
        <ele>94.346557</ele>
        <time>2011-10-22T13:43:37Z</time>
      </trkpt>
      <trkpt lat="47.44992" lon="0.83263">
        <ele>94.827148</ele>
        <time>2011-10-22T13:43:41Z</time>
      </trkpt>
      <trkpt lat="47.45012" lon="0.83274">
        <ele>94.827148</ele>
        <time>2011-10-22T13:43:48Z</time>
      </trkpt>
      <trkpt lat="47.45028" lon="0.83282">
        <ele>94.346557</ele>
        <time>2011-10-22T13:43:53Z</time>
      </trkpt>
      <trkpt lat="47.45066" lon="0.83287">
        <ele>94.827148</ele>
        <time>2011-10-22T13:44:04Z</time>
      </trkpt>
      <trkpt lat="47.45104" lon="0.83292">
        <ele>95.307739</ele>
        <time>2011-10-22T13:44:15Z</time>
      </trkpt>
      <trkpt lat="47.45143" lon="0.83304">
        <ele>95.307739</ele>
        <time>2011-10-22T13:44:26Z</time>
      </trkpt>
      <trkpt lat="47.45175" lon="0.83317">
        <ele>95.788452</ele>
        <time>2011-10-22T13:44:35Z</time>
      </trkpt>
      <trkpt lat="47.45205" lon="0.83322">
        <ele>96.269287</ele>
        <time>2011-10-22T13:44:43Z</time>
      </trkpt>
      <trkpt lat="47.45246" lon="0.83321">
        <ele>96.749877</ele>
        <time>2011-10-22T13:44:54Z</time>
      </trkpt>
      <trkpt lat="47.45279" lon="0.83323">
        <ele>96.749877</ele>
        <time>2011-10-22T13:45:03Z</time>
      </trkpt>
      <trkpt lat="47.4531" lon="0.83327">
        <ele>95.788452</ele>
        <time>2011-10-22T13:45:11Z</time>
      </trkpt>
      <trkpt lat="47.45338" lon="0.83332">
        <ele>93.865844</ele>
        <time>2011-10-22T13:45:18Z</time>
      </trkpt>
      <trkpt lat="47.4535" lon="0.83335">
        <ele>92.42395</ele>
        <time>2011-10-22T13:45:23Z</time>
      </trkpt>
      <trkpt lat="47.45354" lon="0.83333">
        <ele>92.904541</ele>
        <time>2011-10-22T13:45:25Z</time>
      </trkpt>
      <trkpt lat="47.45357" lon="0.83314">
        <ele>93.385131</ele>
        <time>2011-10-22T13:45:31Z</time>
      </trkpt>
      <trkpt lat="47.45361" lon="0.83284">
        <ele>93.865844</ele>
        <time>2011-10-22T13:45:38Z</time>
      </trkpt>
      <trkpt lat="47.45365" lon="0.83251">
        <ele>94.346557</ele>
        <time>2011-10-22T13:45:45Z</time>
      </trkpt>
      <trkpt lat="47.45369" lon="0.83211">
        <ele>94.827148</ele>
        <time>2011-10-22T13:45:53Z</time>
      </trkpt>
      <trkpt lat="47.45378" lon="0.83148">
        <ele>95.788452</ele>
        <time>2011-10-22T13:46:05Z</time>
      </trkpt>
      <trkpt lat="47.45387" lon="0.83086">
        <ele>97.230468</ele>
        <time>2011-10-22T13:46:17Z</time>
      </trkpt>
      <trkpt lat="47.45398" lon="0.83039">
        <ele>99.153076</ele>
        <time>2011-10-22T13:46:26Z</time>
      </trkpt>
      <trkpt lat="47.4541" lon="0.83">
        <ele>100.59509</ele>
        <time>2011-10-22T13:46:34Z</time>
      </trkpt>
      <trkpt lat="47.45428" lon="0.82966">
        <ele>101.55639</ele>
        <time>2011-10-22T13:46:42Z</time>
      </trkpt>
      <trkpt lat="47.45452" lon="0.82942">
        <ele>101.55639</ele>
        <time>2011-10-22T13:46:49Z</time>
      </trkpt>
      <trkpt lat="47.45488" lon="0.82922">
        <ele>101.55639</ele>
        <time>2011-10-22T13:46:57Z</time>
      </trkpt>
      <trkpt lat="47.45543" lon="0.82893">
        <ele>101.55639</ele>
        <time>2011-10-22T13:47:08Z</time>
      </trkpt>
      <trkpt lat="47.45548" lon="0.82892">
        <ele>101.55639</ele>
        <time>2011-10-22T13:47:09Z</time>
      </trkpt>
      <trkpt lat="47.45586" lon="0.82893">
        <ele>102.0371</ele>
        <time>2011-10-22T13:47:16Z</time>
      </trkpt>
      <trkpt lat="47.45613" lon="0.82903">
        <ele>102.5177</ele>
        <time>2011-10-22T13:47:21Z</time>
      </trkpt>
      <trkpt lat="47.45629" lon="0.8292">
        <ele>102.5177</ele>
        <time>2011-10-22T13:47:25Z</time>
      </trkpt>
      <trkpt lat="47.45665" lon="0.82989">
        <ele>102.0371</ele>
        <time>2011-10-22T13:47:36Z</time>
      </trkpt>
      <trkpt lat="47.45686" lon="0.83025">
        <ele>101.55639</ele>
        <time>2011-10-22T13:47:42Z</time>
      </trkpt>
      <trkpt lat="47.45719" lon="0.83075">
        <ele>103.95971</ele>
        <time>2011-10-22T13:47:51Z</time>
      </trkpt>
      <trkpt lat="47.4575" lon="0.83115">
        <ele>105.40173</ele>
        <time>2011-10-22T13:47:59Z</time>
      </trkpt>
      <trkpt lat="47.45779" lon="0.83148">
        <ele>106.36303</ele>
        <time>2011-10-22T13:48:06Z</time>
      </trkpt>
      <trkpt lat="47.45816" lon="0.83192">
        <ele>106.84362</ele>
        <time>2011-10-22T13:48:15Z</time>
      </trkpt>
      <trkpt lat="47.45838" lon="0.83232">
        <ele>106.36303</ele>
        <time>2011-10-22T13:48:22Z</time>
      </trkpt>
      <trkpt lat="47.45856" lon="0.83272">
        <ele>104.44042</ele>
        <time>2011-10-22T13:48:28Z</time>
      </trkpt>
      <trkpt lat="47.45876" lon="0.83311">
        <ele>102.99829</ele>
        <time>2011-10-22T13:48:33Z</time>
      </trkpt>
      <trkpt lat="47.45919" lon="0.83365">
        <ele>99.633789</ele>
        <time>2011-10-22T13:48:41Z</time>
      </trkpt>
      <trkpt lat="47.45925" lon="0.83371">
        <ele>99.153076</ele>
        <time>2011-10-22T13:48:42Z</time>
      </trkpt>
      <trkpt lat="47.4594" lon="0.83389">
        <ele>99.153076</ele>
        <time>2011-10-22T13:48:45Z</time>
      </trkpt>
      <trkpt lat="47.45973" lon="0.83444">
        <ele>100.59509</ele>
        <time>2011-10-22T13:48:52Z</time>
      </trkpt>
      <trkpt lat="47.46011" lon="0.835">
        <ele>102.0371</ele>
        <time>2011-10-22T13:48:59Z</time>
      </trkpt>
      <trkpt lat="47.4604" lon="0.83538">
        <ele>102.0371</ele>
        <time>2011-10-22T13:49:04Z</time>
      </trkpt>
      <trkpt lat="47.46065" lon="0.83568">
        <ele>101.55639</ele>
        <time>2011-10-22T13:49:09Z</time>
      </trkpt>
      <trkpt lat="47.46089" lon="0.83596">
        <ele>101.55639</ele>
        <time>2011-10-22T13:49:15Z</time>
      </trkpt>
      <trkpt lat="47.46115" lon="0.83628">
        <ele>101.07568</ele>
        <time>2011-10-22T13:49:23Z</time>
      </trkpt>
      <trkpt lat="47.46143" lon="0.83657">
        <ele>100.59509</ele>
        <time>2011-10-22T13:49:31Z</time>
      </trkpt>
      <trkpt lat="47.46166" lon="0.83679">
        <ele>99.633789</ele>
        <time>2011-10-22T13:49:37Z</time>
      </trkpt>
      <trkpt lat="47.46193" lon="0.83706">
        <ele>98.191894</ele>
        <time>2011-10-22T13:49:44Z</time>
      </trkpt>
      <trkpt lat="47.4621" lon="0.8372">
        <ele>96.269287</ele>
        <time>2011-10-22T13:49:48Z</time>
      </trkpt>
      <trkpt lat="47.46253" lon="0.83735">
        <ele>94.346557</ele>
        <time>2011-10-22T13:49:56Z</time>
      </trkpt>
      <trkpt lat="47.4628" lon="0.8374">
        <ele>92.904541</ele>
        <time>2011-10-22T13:50:01Z</time>
      </trkpt>
      <trkpt lat="47.46322" lon="0.83764">
        <ele>90.981933</ele>
        <time>2011-10-22T13:50:08Z</time>
      </trkpt>
      <trkpt lat="47.46363" lon="0.83796">
        <ele>89.059326</ele>
        <time>2011-10-22T13:50:15Z</time>
      </trkpt>
      <trkpt lat="47.46389" lon="0.83802">
        <ele>88.098022</ele>
        <time>2011-10-22T13:50:19Z</time>
      </trkpt>
      <trkpt lat="47.46451" lon="0.83802">
        <ele>85.69458</ele>
        <time>2011-10-22T13:50:27Z</time>
      </trkpt>
      <trkpt lat="47.4651" lon="0.83806">
        <ele>84.252685</ele>
        <time>2011-10-22T13:50:35Z</time>
      </trkpt>
      <trkpt lat="47.46529" lon="0.83807">
        <ele>84.252685</ele>
        <time>2011-10-22T13:50:38Z</time>
      </trkpt>
      <trkpt lat="47.46539" lon="0.83816">
        <ele>83.771972</ele>
        <time>2011-10-22T13:50:41Z</time>
      </trkpt>
      <trkpt lat="47.46532" lon="0.83832">
        <ele>83.291381</ele>
        <time>2011-10-22T13:50:44Z</time>
      </trkpt>
      <trkpt lat="47.46521" lon="0.83847">
        <ele>82.810791</ele>
        <time>2011-10-22T13:50:47Z</time>
      </trkpt>
      <trkpt lat="47.46486" lon="0.83897">
        <ele>83.771972</ele>
        <time>2011-10-22T13:50:56Z</time>
      </trkpt>
      <trkpt lat="47.46454" lon="0.83934">
        <ele>83.771972</ele>
        <time>2011-10-22T13:51:04Z</time>
      </trkpt>
      <trkpt lat="47.46429" lon="0.83961">
        <ele>84.733398</ele>
        <time>2011-10-22T13:51:11Z</time>
      </trkpt>
      <trkpt lat="47.46425" lon="0.8397">
        <ele>84.733398</ele>
        <time>2011-10-22T13:51:17Z</time>
      </trkpt>
      <trkpt lat="47.46427" lon="0.83972">
        <ele>84.733398</ele>
        <time>2011-10-22T13:51:19Z</time>
      </trkpt>
      <trkpt lat="47.46445" lon="0.83982">
        <ele>83.291381</ele>
        <time>2011-10-22T13:51:25Z</time>
      </trkpt>
      <trkpt lat="47.46463" lon="0.83992">
        <ele>82.330078</ele>
        <time>2011-10-22T13:51:30Z</time>
      </trkpt>
      <trkpt lat="47.46482" lon="0.84">
        <ele>83.771972</ele>
        <time>2011-10-22T13:51:35Z</time>
      </trkpt>
      <trkpt lat="47.46498" lon="0.8401">
        <ele>84.252685</ele>
        <time>2011-10-22T13:51:39Z</time>
      </trkpt>
      <trkpt lat="47.465" lon="0.84013">
        <ele>84.252685</ele>
        <time>2011-10-22T13:51:40Z</time>
      </trkpt>
      <trkpt lat="47.46504" lon="0.84031">
        <ele>83.771972</ele>
        <time>2011-10-22T13:51:47Z</time>
      </trkpt>
      <trkpt lat="47.46502" lon="0.84058">
        <ele>87.617187</ele>
        <time>2011-10-22T13:51:54Z</time>
      </trkpt>
      <trkpt lat="47.46501" lon="0.84078">
        <ele>90.501342</ele>
        <time>2011-10-22T13:52:00Z</time>
      </trkpt>
      <trkpt lat="47.46503" lon="0.8409">
        <ele>89.059326</ele>
        <time>2011-10-22T13:52:07Z</time>
      </trkpt>
      <trkpt lat="47.46504" lon="0.8409">
        <ele>88.578735</ele>
        <time>2011-10-22T13:52:09Z</time>
      </trkpt>
      <trkpt lat="47.46503" lon="0.84089">
        <ele>88.578735</ele>
        <time>2011-10-22T13:52:12Z</time>
      </trkpt>
      <trkpt lat="47.46503" lon="0.84086">
        <ele>89.059326</ele>
        <time>2011-10-22T13:52:13Z</time>
      </trkpt>
      <trkpt lat="47.46502" lon="0.8407">
        <ele>91.462524</ele>
        <time>2011-10-22T13:52:17Z</time>
      </trkpt>
      <trkpt lat="47.46501" lon="0.84068">
        <ele>92.904541</ele>
        <time>2011-10-22T13:52:22Z</time>
      </trkpt>
      <trkpt lat="47.46502" lon="0.84076">
        <ele>93.385131</ele>
        <time>2011-10-22T13:52:28Z</time>
      </trkpt>
      <trkpt lat="47.46504" lon="0.84093">
        <ele>90.020629</ele>
        <time>2011-10-22T13:52:34Z</time>
      </trkpt>
      <trkpt lat="47.46506" lon="0.84119">
        <ele>86.175293</ele>
        <time>2011-10-22T13:52:42Z</time>
      </trkpt>
      <trkpt lat="47.46506" lon="0.84137">
        <ele>86.175293</ele>
        <time>2011-10-22T13:52:47Z</time>
      </trkpt>
      <trkpt lat="47.46509" lon="0.84156">
        <ele>85.69458</ele>
        <time>2011-10-22T13:52:52Z</time>
      </trkpt>
      <trkpt lat="47.46516" lon="0.84178">
        <ele>84.252685</ele>
        <time>2011-10-22T13:52:58Z</time>
      </trkpt>
      <trkpt lat="47.46525" lon="0.84196">
        <ele>85.69458</ele>
        <time>2011-10-22T13:53:04Z</time>
      </trkpt>
      <trkpt lat="47.46537" lon="0.84222">
        <ele>86.656005</ele>
        <time>2011-10-22T13:53:12Z</time>
      </trkpt>
      <trkpt lat="47.46542" lon="0.84232">
        <ele>89.059326</ele>
        <time>2011-10-22T13:53:16Z</time>
      </trkpt>
      <trkpt lat="47.46552" lon="0.84251">
        <ele>91.462524</ele>
        <time>2011-10-22T13:53:22Z</time>
      </trkpt>
      <trkpt lat="47.46563" lon="0.84271">
        <ele>92.42395</ele>
        <time>2011-10-22T13:53:29Z</time>
      </trkpt>
      <trkpt lat="47.46567" lon="0.84282">
        <ele>91.943237</ele>
        <time>2011-10-22T13:53:33Z</time>
      </trkpt>
      <trkpt lat="47.46571" lon="0.84302">
        <ele>92.42395</ele>
        <time>2011-10-22T13:53:41Z</time>
      </trkpt>
      <trkpt lat="47.4657" lon="0.84319">
        <ele>95.307739</ele>
        <time>2011-10-22T13:53:47Z</time>
      </trkpt>
      <trkpt lat="47.46563" lon="0.84337">
        <ele>97.711181</ele>
        <time>2011-10-22T13:53:55Z</time>
      </trkpt>
      <trkpt lat="47.46551" lon="0.84349">
        <ele>100.1145</ele>
        <time>2011-10-22T13:54:04Z</time>
      </trkpt>
      <trkpt lat="47.46538" lon="0.84362">
        <ele>101.55639</ele>
        <time>2011-10-22T13:54:12Z</time>
      </trkpt>
      <trkpt lat="47.46525" lon="0.84379">
        <ele>104.44042</ele>
        <time>2011-10-22T13:54:20Z</time>
      </trkpt>
      <trkpt lat="47.46513" lon="0.84394">
        <ele>106.36303</ele>
        <time>2011-10-22T13:54:27Z</time>
      </trkpt>
      <trkpt lat="47.46503" lon="0.84404">
        <ele>106.84362</ele>
        <time>2011-10-22T13:54:34Z</time>
      </trkpt>
      <trkpt lat="47.4649" lon="0.84418">
        <ele>108.28564</ele>
        <time>2011-10-22T13:54:43Z</time>
      </trkpt>
      <trkpt lat="47.46487" lon="0.84421">
        <ele>108.76623</ele>
        <time>2011-10-22T13:54:46Z</time>
      </trkpt>
      <trkpt lat="47.46483" lon="0.84424">
        <ele>109.72766</ele>
        <time>2011-10-22T13:54:50Z</time>
      </trkpt>
      <trkpt lat="47.4648" lon="0.84427">
        <ele>110.20825</ele>
        <time>2011-10-22T13:54:53Z</time>
      </trkpt>
      <trkpt lat="47.46475" lon="0.84434">
        <ele>109.72766</ele>
        <time>2011-10-22T13:54:59Z</time>
      </trkpt>
      <trkpt lat="47.46472" lon="0.84444">
        <ele>109.72766</ele>
        <time>2011-10-22T13:55:08Z</time>
      </trkpt>
      <trkpt lat="47.46472" lon="0.84451">
        <ele>109.72766</ele>
        <time>2011-10-22T13:55:13Z</time>
      </trkpt>
      <trkpt lat="47.46471" lon="0.84464">
        <ele>109.24694</ele>
        <time>2011-10-22T13:55:21Z</time>
      </trkpt>
      <trkpt lat="47.46469" lon="0.8448">
        <ele>108.76623</ele>
        <time>2011-10-22T13:55:29Z</time>
      </trkpt>
      <trkpt lat="47.46469" lon="0.84494">
        <ele>108.76623</ele>
        <time>2011-10-22T13:55:36Z</time>
      </trkpt>
      <trkpt lat="47.46469" lon="0.845">
        <ele>109.24694</ele>
        <time>2011-10-22T13:55:39Z</time>
      </trkpt>
      <trkpt lat="47.46466" lon="0.84515">
        <ele>110.20825</ele>
        <time>2011-10-22T13:55:47Z</time>
      </trkpt>
      <trkpt lat="47.46461" lon="0.8452">
        <ele>110.20825</ele>
        <time>2011-10-22T13:55:52Z</time>
      </trkpt>
      <trkpt lat="47.4646" lon="0.84521">
        <ele>110.20825</ele>
        <time>2011-10-22T13:55:53Z</time>
      </trkpt>
      <trkpt lat="47.46449" lon="0.84526">
        <ele>111.65026</ele>
        <time>2011-10-22T13:56:02Z</time>
      </trkpt>
      <trkpt lat="47.46446" lon="0.84528">
        <ele>112.13098</ele>
        <time>2011-10-22T13:56:05Z</time>
      </trkpt>
      <trkpt lat="47.46435" lon="0.84529">
        <ele>113.09228</ele>
        <time>2011-10-22T13:56:15Z</time>
      </trkpt>
      <trkpt lat="47.46425" lon="0.84532">
        <ele>113.57299</ele>
        <time>2011-10-22T13:56:22Z</time>
      </trkpt>
      <trkpt lat="47.4641" lon="0.84534">
        <ele>114.05358</ele>
        <time>2011-10-22T13:56:30Z</time>
      </trkpt>
      <trkpt lat="47.46393" lon="0.84537">
        <ele>114.53417</ele>
        <time>2011-10-22T13:56:38Z</time>
      </trkpt>
      <trkpt lat="47.46371" lon="0.8454">
        <ele>114.53417</ele>
        <time>2011-10-22T13:56:47Z</time>
      </trkpt>
      <trkpt lat="47.46353" lon="0.84544">
        <ele>115.01489</ele>
        <time>2011-10-22T13:56:54Z</time>
      </trkpt>
      <trkpt lat="47.46325" lon="0.84549">
        <ele>115.01489</ele>
        <time>2011-10-22T13:57:03Z</time>
      </trkpt>
      <trkpt lat="47.46299" lon="0.84554">
        <ele>114.53417</ele>
        <time>2011-10-22T13:57:11Z</time>
      </trkpt>
      <trkpt lat="47.46263" lon="0.84557">
        <ele>114.05358</ele>
        <time>2011-10-22T13:57:23Z</time>
      </trkpt>
      <trkpt lat="47.46245" lon="0.84567">
        <ele>113.09228</ele>
        <time>2011-10-22T13:57:29Z</time>
      </trkpt>
      <trkpt lat="47.46226" lon="0.84573">
        <ele>111.16955</ele>
        <time>2011-10-22T13:57:35Z</time>
      </trkpt>
      <trkpt lat="47.46199" lon="0.84571">
        <ele>108.76623</ele>
        <time>2011-10-22T13:57:43Z</time>
      </trkpt>
      <trkpt lat="47.46174" lon="0.84566">
        <ele>107.80505</ele>
        <time>2011-10-22T13:57:50Z</time>
      </trkpt>
      <trkpt lat="47.46146" lon="0.84561">
        <ele>106.84362</ele>
        <time>2011-10-22T13:57:58Z</time>
      </trkpt>
      <trkpt lat="47.46123" lon="0.84556">
        <ele>105.88244</ele>
        <time>2011-10-22T13:58:05Z</time>
      </trkpt>
      <trkpt lat="47.46089" lon="0.84549">
        <ele>107.32434</ele>
        <time>2011-10-22T13:58:14Z</time>
      </trkpt>
      <trkpt lat="47.46054" lon="0.84534">
        <ele>108.28564</ele>
        <time>2011-10-22T13:58:23Z</time>
      </trkpt>
      <trkpt lat="47.46034" lon="0.84525">
        <ele>108.28564</ele>
        <time>2011-10-22T13:58:28Z</time>
      </trkpt>
      <trkpt lat="47.45998" lon="0.84508">
        <ele>107.80505</ele>
        <time>2011-10-22T13:58:37Z</time>
      </trkpt>
      <trkpt lat="47.45966" lon="0.84492">
        <ele>106.84362</ele>
        <time>2011-10-22T13:58:45Z</time>
      </trkpt>
      <trkpt lat="47.45933" lon="0.84478">
        <ele>106.84362</ele>
        <time>2011-10-22T13:58:53Z</time>
      </trkpt>
      <trkpt lat="47.459" lon="0.84465">
        <ele>106.36303</ele>
        <time>2011-10-22T13:59:01Z</time>
      </trkpt>
      <trkpt lat="47.45865" lon="0.8445">
        <ele>107.32434</ele>
        <time>2011-10-22T13:59:09Z</time>
      </trkpt>
      <trkpt lat="47.45832" lon="0.84435">
        <ele>107.32434</ele>
        <time>2011-10-22T13:59:16Z</time>
      </trkpt>
      <trkpt lat="47.45814" lon="0.84442">
        <ele>107.32434</ele>
        <time>2011-10-22T13:59:20Z</time>
      </trkpt>
      <trkpt lat="47.45812" lon="0.84448">
        <ele>107.32434</ele>
        <time>2011-10-22T13:59:21Z</time>
      </trkpt>
      <trkpt lat="47.45797" lon="0.84472">
        <ele>107.32434</ele>
        <time>2011-10-22T13:59:26Z</time>
      </trkpt>
      <trkpt lat="47.45776" lon="0.84476">
        <ele>107.32434</ele>
        <time>2011-10-22T13:59:31Z</time>
      </trkpt>
      <trkpt lat="47.45775" lon="0.84479">
        <ele>107.80505</ele>
        <time>2011-10-22T13:59:35Z</time>
      </trkpt>
      <trkpt lat="47.45784" lon="0.84474">
        <ele>107.80505</ele>
        <time>2011-10-22T13:59:40Z</time>
      </trkpt>
      <trkpt lat="47.45804" lon="0.84468">
        <ele>107.80505</ele>
        <time>2011-10-22T13:59:46Z</time>
      </trkpt>
      <trkpt lat="47.45811" lon="0.84449">
        <ele>107.32434</ele>
        <time>2011-10-22T13:59:51Z</time>
      </trkpt>
      <trkpt lat="47.45808" lon="0.84445">
        <ele>107.32434</ele>
        <time>2011-10-22T13:59:53Z</time>
      </trkpt>
      <trkpt lat="47.45806" lon="0.84442">
        <ele>107.32434</ele>
        <time>2011-10-22T13:59:55Z</time>
      </trkpt>
      <trkpt lat="47.45803" lon="0.84435">
        <ele>107.32434</ele>
        <time>2011-10-22T13:59:59Z</time>
      </trkpt>
      <trkpt lat="47.45801" lon="0.84417">
        <ele>106.36303</ele>
        <time>2011-10-22T14:00:05Z</time>
      </trkpt>
      <trkpt lat="47.45797" lon="0.84382">
        <ele>104.92102</ele>
        <time>2011-10-22T14:00:12Z</time>
      </trkpt>
      <trkpt lat="47.45794" lon="0.8435">
        <ele>103.95971</ele>
        <time>2011-10-22T14:00:17Z</time>
      </trkpt>
      <trkpt lat="47.4579" lon="0.8432">
        <ele>102.0371</ele>
        <time>2011-10-22T14:00:21Z</time>
      </trkpt>
      <trkpt lat="47.45775" lon="0.84277">
        <ele>100.59509</ele>
        <time>2011-10-22T14:00:26Z</time>
      </trkpt>
      <trkpt lat="47.4577" lon="0.84274">
        <ele>100.59509</ele>
        <time>2011-10-22T14:00:27Z</time>
      </trkpt>
      <trkpt lat="47.45752" lon="0.84264">
        <ele>101.07568</ele>
        <time>2011-10-22T14:00:31Z</time>
      </trkpt>
      <trkpt lat="47.45723" lon="0.84236">
        <ele>102.99829</ele>
        <time>2011-10-22T14:00:39Z</time>
      </trkpt>
      <trkpt lat="47.45695" lon="0.84215">
        <ele>104.44042</ele>
        <time>2011-10-22T14:00:46Z</time>
      </trkpt>
      <trkpt lat="47.45656" lon="0.84186">
        <ele>106.36303</ele>
        <time>2011-10-22T14:00:56Z</time>
      </trkpt>
      <trkpt lat="47.45631" lon="0.84184">
        <ele>107.32434</ele>
        <time>2011-10-22T14:01:02Z</time>
      </trkpt>
      <trkpt lat="47.45606" lon="0.8419">
        <ele>108.28564</ele>
        <time>2011-10-22T14:01:08Z</time>
      </trkpt>
      <trkpt lat="47.45574" lon="0.84197">
        <ele>109.24694</ele>
        <time>2011-10-22T14:01:17Z</time>
      </trkpt>
      <trkpt lat="47.45548" lon="0.84203">
        <ele>108.28564</ele>
        <time>2011-10-22T14:01:24Z</time>
      </trkpt>
      <trkpt lat="47.4553" lon="0.84205">
        <ele>108.76623</ele>
        <time>2011-10-22T14:01:28Z</time>
      </trkpt>
      <trkpt lat="47.45509" lon="0.842">
        <ele>108.76623</ele>
        <time>2011-10-22T14:01:33Z</time>
      </trkpt>
      <trkpt lat="47.45478" lon="0.84205">
        <ele>107.80505</ele>
        <time>2011-10-22T14:01:40Z</time>
      </trkpt>
      <trkpt lat="47.4544" lon="0.84213">
        <ele>105.88244</ele>
        <time>2011-10-22T14:01:48Z</time>
      </trkpt>
      <trkpt lat="47.45395" lon="0.84221">
        <ele>105.88244</ele>
        <time>2011-10-22T14:01:57Z</time>
      </trkpt>
      <trkpt lat="47.45382" lon="0.84233">
        <ele>105.88244</ele>
        <time>2011-10-22T14:02:01Z</time>
      </trkpt>
      <trkpt lat="47.45383" lon="0.84254">
        <ele>106.36303</ele>
        <time>2011-10-22T14:02:05Z</time>
      </trkpt>
      <trkpt lat="47.45388" lon="0.84262">
        <ele>106.36303</ele>
        <time>2011-10-22T14:02:07Z</time>
      </trkpt>
      <trkpt lat="47.45412" lon="0.84291">
        <ele>107.80505</ele>
        <time>2011-10-22T14:02:14Z</time>
      </trkpt>
      <trkpt lat="47.45422" lon="0.84312">
        <ele>108.28564</ele>
        <time>2011-10-22T14:02:18Z</time>
      </trkpt>
      <trkpt lat="47.45421" lon="0.84327">
        <ele>107.80505</ele>
        <time>2011-10-22T14:02:21Z</time>
      </trkpt>
      <trkpt lat="47.45409" lon="0.84333">
        <ele>107.32434</ele>
        <time>2011-10-22T14:02:24Z</time>
      </trkpt>
      <trkpt lat="47.45356" lon="0.84348">
        <ele>106.84362</ele>
        <time>2011-10-22T14:02:35Z</time>
      </trkpt>
      <trkpt lat="47.45302" lon="0.84364">
        <ele>106.36303</ele>
        <time>2011-10-22T14:02:45Z</time>
      </trkpt>
      <trkpt lat="47.45244" lon="0.84381">
        <ele>105.40173</ele>
        <time>2011-10-22T14:02:55Z</time>
      </trkpt>
      <trkpt lat="47.45234" lon="0.84385">
        <ele>105.40173</ele>
        <time>2011-10-22T14:02:57Z</time>
      </trkpt>
      <trkpt lat="47.45229" lon="0.84399">
        <ele>104.92102</ele>
        <time>2011-10-22T14:03:00Z</time>
      </trkpt>
      <trkpt lat="47.45234" lon="0.84427">
        <ele>103.95971</ele>
        <time>2011-10-22T14:03:04Z</time>
      </trkpt>
      <trkpt lat="47.45231" lon="0.84443">
        <ele>103.479</ele>
        <time>2011-10-22T14:03:06Z</time>
      </trkpt>
      <trkpt lat="47.45213" lon="0.84521">
        <ele>101.55639</ele>
        <time>2011-10-22T14:03:15Z</time>
      </trkpt>
      <trkpt lat="47.45188" lon="0.84632">
        <ele>99.153076</ele>
        <time>2011-10-22T14:03:27Z</time>
      </trkpt>
      <trkpt lat="47.45175" lon="0.84717">
        <ele>98.191894</ele>
        <time>2011-10-22T14:03:36Z</time>
      </trkpt>
      <trkpt lat="47.45173" lon="0.84802">
        <ele>97.230468</ele>
        <time>2011-10-22T14:03:45Z</time>
      </trkpt>
      <trkpt lat="47.45176" lon="0.84838">
        <ele>96.749877</ele>
        <time>2011-10-22T14:03:49Z</time>
      </trkpt>
      <trkpt lat="47.45183" lon="0.84891">
        <ele>95.307739</ele>
        <time>2011-10-22T14:03:55Z</time>
      </trkpt>
      <trkpt lat="47.45192" lon="0.84936">
        <ele>93.385131</ele>
        <time>2011-10-22T14:04:01Z</time>
      </trkpt>
      <trkpt lat="47.45204" lon="0.84987">
        <ele>90.981933</ele>
        <time>2011-10-22T14:04:07Z</time>
      </trkpt>
      <trkpt lat="47.45214" lon="0.85047">
        <ele>88.098022</ele>
        <time>2011-10-22T14:04:12Z</time>
      </trkpt>
      <trkpt lat="47.4522" lon="0.85115">
        <ele>85.213989</ele>
        <time>2011-10-22T14:04:17Z</time>
      </trkpt>
      <trkpt lat="47.45221" lon="0.852">
        <ele>81.849365</ele>
        <time>2011-10-22T14:04:24Z</time>
      </trkpt>
      <trkpt lat="47.45217" lon="0.85298">
        <ele>77.042846</ele>
        <time>2011-10-22T14:04:32Z</time>
      </trkpt>
      <trkpt lat="47.45215" lon="0.85338">
        <ele>76.08142</ele>
        <time>2011-10-22T14:04:36Z</time>
      </trkpt>
      <trkpt lat="47.45212" lon="0.85374">
        <ele>75.120239</ele>
        <time>2011-10-22T14:04:42Z</time>
      </trkpt>
      <trkpt lat="47.45213" lon="0.85379">
        <ele>75.120239</ele>
        <time>2011-10-22T14:04:47Z</time>
      </trkpt>
      <trkpt lat="47.45214" lon="0.85379">
        <ele>74.639526</ele>
        <time>2011-10-22T14:04:53Z</time>
      </trkpt>
      <trkpt lat="47.45214" lon="0.85378">
        <ele>75.120239</ele>
        <time>2011-10-22T14:04:55Z</time>
      </trkpt>
      <trkpt lat="47.45213" lon="0.85378">
        <ele>74.639526</ele>
        <time>2011-10-22T14:05:04Z</time>
      </trkpt>
      <trkpt lat="47.45211" lon="0.85386">
        <ele>75.120239</ele>
        <time>2011-10-22T14:05:10Z</time>
      </trkpt>
      <trkpt lat="47.45211" lon="0.85394">
        <ele>75.120239</ele>
        <time>2011-10-22T14:05:17Z</time>
      </trkpt>
      <trkpt lat="47.4521" lon="0.85399">
        <ele>75.120239</ele>
        <time>2011-10-22T14:05:23Z</time>
      </trkpt>
      <trkpt lat="47.4521" lon="0.85399">
        <ele>75.60083</ele>
        <time>2011-10-22T14:05:24Z</time>
      </trkpt>
      <trkpt lat="47.45209" lon="0.85398">
        <ele>74.639526</ele>
        <time>2011-10-22T14:05:47Z</time>
      </trkpt>
      <trkpt lat="47.45209" lon="0.85397">
        <ele>74.158813</ele>
        <time>2011-10-22T14:05:49Z</time>
      </trkpt>
      <trkpt lat="47.4521" lon="0.85398">
        <ele>77.042846</ele>
        <time>2011-10-22T14:06:30Z</time>
      </trkpt>
      <trkpt lat="47.4521" lon="0.85398">
        <ele>77.523437</ele>
        <time>2011-10-22T14:06:31Z</time>
      </trkpt>
      <trkpt lat="47.45212" lon="0.85399">
        <ele>80.888183</ele>
        <time>2011-10-22T14:06:57Z</time>
      </trkpt>
      <trkpt lat="47.45212" lon="0.85399">
        <ele>80.40747</ele>
        <time>2011-10-22T14:06:59Z</time>
      </trkpt>
      <trkpt lat="47.45212" lon="0.85397">
        <ele>77.523437</ele>
        <time>2011-10-22T14:07:33Z</time>
      </trkpt>
      <trkpt lat="47.45213" lon="0.85398">
        <ele>77.042846</ele>
        <time>2011-10-22T14:07:34Z</time>
      </trkpt>
      <trkpt lat="47.4521" lon="0.85393">
        <ele>77.042846</ele>
        <time>2011-10-22T14:08:24Z</time>
      </trkpt>
      <trkpt lat="47.4521" lon="0.85392">
        <ele>77.042846</ele>
        <time>2011-10-22T14:08:26Z</time>
      </trkpt>
      <trkpt lat="47.45208" lon="0.85387">
        <ele>85.69458</ele>
        <time>2011-10-22T14:10:07Z</time>
      </trkpt>
      <trkpt lat="47.45209" lon="0.85387">
        <ele>85.213989</ele>
        <time>2011-10-22T14:10:09Z</time>
      </trkpt>
      <trkpt lat="47.4521" lon="0.85387">
        <ele>85.213989</ele>
        <time>2011-10-22T14:10:12Z</time>
      </trkpt>
      <trkpt lat="47.4521" lon="0.85387">
        <ele>86.175293</ele>
        <time>2011-10-22T14:10:13Z</time>
      </trkpt>
      <trkpt lat="47.45211" lon="0.85387">
        <ele>86.175293</ele>
        <time>2011-10-22T14:10:19Z</time>
      </trkpt>
      <trkpt lat="47.4521" lon="0.85389">
        <ele>84.733398</ele>
        <time>2011-10-22T14:10:22Z</time>
      </trkpt>
      <trkpt lat="47.45211" lon="0.85389">
        <ele>83.771972</ele>
        <time>2011-10-22T14:10:26Z</time>
      </trkpt>
      <trkpt lat="47.45212" lon="0.85388">
        <ele>83.771972</ele>
        <time>2011-10-22T14:10:30Z</time>
      </trkpt>
      <trkpt lat="47.45212" lon="0.85386">
        <ele>85.69458</ele>
        <time>2011-10-22T14:10:43Z</time>
      </trkpt>
      <trkpt lat="47.45212" lon="0.85386">
        <ele>83.771972</ele>
        <time>2011-10-22T14:10:46Z</time>
      </trkpt>
      <trkpt lat="47.45214" lon="0.85386">
        <ele>84.733398</ele>
        <time>2011-10-22T14:10:53Z</time>
      </trkpt>
      <trkpt lat="47.45217" lon="0.85385">
        <ele>87.136596</ele>
        <time>2011-10-22T14:11:00Z</time>
      </trkpt>
      <trkpt lat="47.45217" lon="0.85383">
        <ele>90.020629</ele>
        <time>2011-10-22T14:11:06Z</time>
      </trkpt>
      <trkpt lat="47.45217" lon="0.85383">
        <ele>90.981933</ele>
        <time>2011-10-22T14:11:07Z</time>
      </trkpt>
      <trkpt lat="47.45217" lon="0.85381">
        <ele>90.981933</ele>
        <time>2011-10-22T14:11:19Z</time>
      </trkpt>
      <trkpt lat="47.45217" lon="0.85381">
        <ele>91.943237</ele>
        <time>2011-10-22T14:11:20Z</time>
      </trkpt>
      <trkpt lat="47.45217" lon="0.8538">
        <ele>91.943237</ele>
        <time>2011-10-22T14:11:30Z</time>
      </trkpt>
      <trkpt lat="47.45217" lon="0.8538">
        <ele>91.943237</ele>
        <time>2011-10-22T14:11:31Z</time>
      </trkpt>
      <trkpt lat="47.45216" lon="0.85379">
        <ele>93.385131</ele>
        <time>2011-10-22T14:11:44Z</time>
      </trkpt>
      <trkpt lat="47.45216" lon="0.85378">
        <ele>94.346557</ele>
        <time>2011-10-22T14:11:45Z</time>
      </trkpt>
      <trkpt lat="47.45216" lon="0.85378">
        <ele>94.346557</ele>
        <time>2011-10-22T14:11:51Z</time>
      </trkpt>
      <trkpt lat="47.45216" lon="0.85378">
        <ele>94.827148</ele>
        <time>2011-10-22T14:11:52Z</time>
      </trkpt>
      <trkpt lat="47.45213" lon="0.85383">
        <ele>90.501342</ele>
        <time>2011-10-22T14:12:27Z</time>
      </trkpt>
      <trkpt lat="47.4521" lon="0.85387">
        <ele>87.617187</ele>
        <time>2011-10-22T14:12:29Z</time>
      </trkpt>
      <trkpt lat="47.45207" lon="0.85394">
        <ele>84.733398</ele>
        <time>2011-10-22T14:12:36Z</time>
      </trkpt>
      <trkpt lat="47.45207" lon="0.85395">
        <ele>84.252685</ele>
        <time>2011-10-22T14:12:38Z</time>
      </trkpt>
      <trkpt lat="47.45207" lon="0.85394">
        <ele>82.810791</ele>
        <time>2011-10-22T14:12:42Z</time>
      </trkpt>
      <trkpt lat="47.45209" lon="0.85392">
        <ele>81.368774</ele>
        <time>2011-10-22T14:12:44Z</time>
      </trkpt>
      <trkpt lat="47.4521" lon="0.85392">
        <ele>79.446044</ele>
        <time>2011-10-22T14:12:47Z</time>
      </trkpt>
      <trkpt lat="47.4521" lon="0.85392">
        <ele>77.523437</ele>
        <time>2011-10-22T14:13:01Z</time>
      </trkpt>
      <trkpt lat="47.45209" lon="0.85391">
        <ele>77.523437</ele>
        <time>2011-10-22T14:13:02Z</time>
      </trkpt>
      <trkpt lat="47.45209" lon="0.85392">
        <ele>76.562133</ele>
        <time>2011-10-22T14:13:14Z</time>
      </trkpt>
      <trkpt lat="47.45209" lon="0.85392">
        <ele>75.60083</ele>
        <time>2011-10-22T14:13:15Z</time>
      </trkpt>
      <trkpt lat="47.4521" lon="0.85391">
        <ele>74.639526</ele>
        <time>2011-10-22T14:13:25Z</time>
      </trkpt>
      <trkpt lat="47.4521" lon="0.85391">
        <ele>75.120239</ele>
        <time>2011-10-22T14:13:26Z</time>
      </trkpt>
      <trkpt lat="47.45209" lon="0.8539">
        <ele>78.004028</ele>
        <time>2011-10-22T14:13:35Z</time>
      </trkpt>
      <trkpt lat="47.45209" lon="0.85391">
        <ele>77.523437</ele>
        <time>2011-10-22T14:13:37Z</time>
      </trkpt>
      <trkpt lat="47.45207" lon="0.85393">
        <ele>78.004028</ele>
        <time>2011-10-22T14:13:59Z</time>
      </trkpt>
      <trkpt lat="47.45209" lon="0.85386">
        <ele>77.042846</ele>
        <time>2011-10-22T14:14:04Z</time>
      </trkpt>
      <trkpt lat="47.45213" lon="0.85377">
        <ele>76.562133</ele>
        <time>2011-10-22T14:14:12Z</time>
      </trkpt>
      <trkpt lat="47.45213" lon="0.85377">
        <ele>76.562133</ele>
        <time>2011-10-22T14:14:14Z</time>
      </trkpt>
      <trkpt lat="47.45211" lon="0.85376">
        <ele>81.368774</ele>
        <time>2011-10-22T14:15:06Z</time>
      </trkpt>
      <trkpt lat="47.45212" lon="0.85377">
        <ele>80.888183</ele>
        <time>2011-10-22T14:15:08Z</time>
      </trkpt>
      <trkpt lat="47.45212" lon="0.85378">
        <ele>81.368774</ele>
        <time>2011-10-22T14:15:11Z</time>
      </trkpt>
      <trkpt lat="47.45212" lon="0.85381">
        <ele>81.368774</ele>
        <time>2011-10-22T14:15:12Z</time>
      </trkpt>
      <trkpt lat="47.45212" lon="0.8539">
        <ele>79.926635</ele>
        <time>2011-10-22T14:15:18Z</time>
      </trkpt>
      <trkpt lat="47.45213" lon="0.85392">
        <ele>79.926635</ele>
        <time>2011-10-22T14:15:19Z</time>
      </trkpt>
      <trkpt lat="47.45224" lon="0.85401">
        <ele>78.004028</ele>
        <time>2011-10-22T14:15:27Z</time>
      </trkpt>
      <trkpt lat="47.45237" lon="0.85407">
        <ele>78.004028</ele>
        <time>2011-10-22T14:15:34Z</time>
      </trkpt>
      <trkpt lat="47.45251" lon="0.85415">
        <ele>81.368774</ele>
        <time>2011-10-22T14:15:40Z</time>
      </trkpt>
      <trkpt lat="47.45265" lon="0.85423">
        <ele>80.888183</ele>
        <time>2011-10-22T14:15:45Z</time>
      </trkpt>
      <trkpt lat="47.45277" lon="0.85431">
        <ele>79.926635</ele>
        <time>2011-10-22T14:15:50Z</time>
      </trkpt>
      <trkpt lat="47.45286" lon="0.85437">
        <ele>79.926635</ele>
        <time>2011-10-22T14:15:54Z</time>
      </trkpt>
      <trkpt lat="47.45298" lon="0.85444">
        <ele>81.368774</ele>
        <time>2011-10-22T14:15:59Z</time>
      </trkpt>
      <trkpt lat="47.45314" lon="0.85452">
        <ele>81.368774</ele>
        <time>2011-10-22T14:16:04Z</time>
      </trkpt>
      <trkpt lat="47.45323" lon="0.85458">
        <ele>80.40747</ele>
        <time>2011-10-22T14:16:08Z</time>
      </trkpt>
      <trkpt lat="47.45339" lon="0.85471">
        <ele>78.965454</ele>
        <time>2011-10-22T14:16:13Z</time>
      </trkpt>
      <trkpt lat="47.45366" lon="0.85492">
        <ele>76.562133</ele>
        <time>2011-10-22T14:16:21Z</time>
      </trkpt>
      <trkpt lat="47.45399" lon="0.85518">
        <ele>74.639526</ele>
        <time>2011-10-22T14:16:31Z</time>
      </trkpt>
      <trkpt lat="47.45425" lon="0.85539">
        <ele>77.523437</ele>
        <time>2011-10-22T14:16:38Z</time>
      </trkpt>
      <trkpt lat="47.45446" lon="0.85555">
        <ele>77.523437</ele>
        <time>2011-10-22T14:16:44Z</time>
      </trkpt>
      <trkpt lat="47.45467" lon="0.85568">
        <ele>76.562133</ele>
        <time>2011-10-22T14:16:50Z</time>
      </trkpt>
      <trkpt lat="47.45505" lon="0.85589">
        <ele>78.484741</ele>
        <time>2011-10-22T14:17:00Z</time>
      </trkpt>
      <trkpt lat="47.45509" lon="0.85591">
        <ele>78.484741</ele>
        <time>2011-10-22T14:17:01Z</time>
      </trkpt>
      <trkpt lat="47.45537" lon="0.85607">
        <ele>81.849365</ele>
        <time>2011-10-22T14:17:09Z</time>
      </trkpt>
      <trkpt lat="47.45561" lon="0.8562">
        <ele>84.252685</ele>
        <time>2011-10-22T14:17:16Z</time>
      </trkpt>
      <trkpt lat="47.45592" lon="0.85637">
        <ele>84.733398</ele>
        <time>2011-10-22T14:17:25Z</time>
      </trkpt>
      <trkpt lat="47.45613" lon="0.85644">
        <ele>85.69458</ele>
        <time>2011-10-22T14:17:32Z</time>
      </trkpt>
      <trkpt lat="47.45636" lon="0.85648">
        <ele>88.578735</ele>
        <time>2011-10-22T14:17:41Z</time>
      </trkpt>
      <trkpt lat="47.45657" lon="0.85651">
        <ele>89.539917</ele>
        <time>2011-10-22T14:17:50Z</time>
      </trkpt>
      <trkpt lat="47.4568" lon="0.85653">
        <ele>90.981933</ele>
        <time>2011-10-22T14:17:59Z</time>
      </trkpt>
      <trkpt lat="47.45704" lon="0.85652">
        <ele>92.904541</ele>
        <time>2011-10-22T14:18:08Z</time>
      </trkpt>
      <trkpt lat="47.45726" lon="0.8565">
        <ele>93.865844</ele>
        <time>2011-10-22T14:18:15Z</time>
      </trkpt>
      <trkpt lat="47.45755" lon="0.85647">
        <ele>95.788452</ele>
        <time>2011-10-22T14:18:21Z</time>
      </trkpt>
      <trkpt lat="47.45797" lon="0.85644">
        <ele>97.711181</ele>
        <time>2011-10-22T14:18:29Z</time>
      </trkpt>
      <trkpt lat="47.4581" lon="0.85644">
        <ele>98.672485</ele>
        <time>2011-10-22T14:18:31Z</time>
      </trkpt>
      <trkpt lat="47.45824" lon="0.85646">
        <ele>99.633789</ele>
        <time>2011-10-22T14:18:33Z</time>
      </trkpt>
      <trkpt lat="47.45837" lon="0.8565">
        <ele>101.07568</ele>
        <time>2011-10-22T14:18:35Z</time>
      </trkpt>
      <trkpt lat="47.45871" lon="0.85677">
        <ele>103.95971</ele>
        <time>2011-10-22T14:18:41Z</time>
      </trkpt>
      <trkpt lat="47.4588" lon="0.85689">
        <ele>104.44042</ele>
        <time>2011-10-22T14:18:43Z</time>
      </trkpt>
      <trkpt lat="47.45903" lon="0.85703">
        <ele>105.40173</ele>
        <time>2011-10-22T14:18:48Z</time>
      </trkpt>
      <trkpt lat="47.45946" lon="0.85702">
        <ele>107.32434</ele>
        <time>2011-10-22T14:18:59Z</time>
      </trkpt>
      <trkpt lat="47.45988" lon="0.857">
        <ele>107.32434</ele>
        <time>2011-10-22T14:19:09Z</time>
      </trkpt>
      <trkpt lat="47.46028" lon="0.85698">
        <ele>106.84362</ele>
        <time>2011-10-22T14:19:18Z</time>
      </trkpt>
      <trkpt lat="47.4605" lon="0.85698">
        <ele>106.36303</ele>
        <time>2011-10-22T14:19:23Z</time>
      </trkpt>
      <trkpt lat="47.46069" lon="0.85711">
        <ele>106.36303</ele>
        <time>2011-10-22T14:19:28Z</time>
      </trkpt>
      <trkpt lat="47.46076" lon="0.85726">
        <ele>106.36303</ele>
        <time>2011-10-22T14:19:31Z</time>
      </trkpt>
      <trkpt lat="47.46098" lon="0.8578">
        <ele>107.80505</ele>
        <time>2011-10-22T14:19:41Z</time>
      </trkpt>
      <trkpt lat="47.46109" lon="0.85809">
        <ele>107.80505</ele>
        <time>2011-10-22T14:19:48Z</time>
      </trkpt>
      <trkpt lat="47.4612" lon="0.85816">
        <ele>108.28564</ele>
        <time>2011-10-22T14:19:54Z</time>
      </trkpt>
      <trkpt lat="47.4613" lon="0.85816">
        <ele>107.80505</ele>
        <time>2011-10-22T14:20:01Z</time>
      </trkpt>
      <trkpt lat="47.46144" lon="0.85814">
        <ele>107.80505</ele>
        <time>2011-10-22T14:20:09Z</time>
      </trkpt>
      <trkpt lat="47.46164" lon="0.85812">
        <ele>107.80505</ele>
        <time>2011-10-22T14:20:17Z</time>
      </trkpt>
      <trkpt lat="47.46199" lon="0.85807">
        <ele>108.28564</ele>
        <time>2011-10-22T14:20:26Z</time>
      </trkpt>
      <trkpt lat="47.46247" lon="0.85804">
        <ele>108.76623</ele>
        <time>2011-10-22T14:20:37Z</time>
      </trkpt>
      <trkpt lat="47.463" lon="0.85803">
        <ele>108.76623</ele>
        <time>2011-10-22T14:20:48Z</time>
      </trkpt>
      <trkpt lat="47.46338" lon="0.85796">
        <ele>107.80505</ele>
        <time>2011-10-22T14:20:55Z</time>
      </trkpt>
      <trkpt lat="47.46379" lon="0.85764">
        <ele>106.36303</ele>
        <time>2011-10-22T14:21:02Z</time>
      </trkpt>
      <trkpt lat="47.4642" lon="0.85724">
        <ele>104.44042</ele>
        <time>2011-10-22T14:21:08Z</time>
      </trkpt>
      <trkpt lat="47.46457" lon="0.85687">
        <ele>102.99829</ele>
        <time>2011-10-22T14:21:13Z</time>
      </trkpt>
      <trkpt lat="47.46491" lon="0.85679">
        <ele>102.5177</ele>
        <time>2011-10-22T14:21:17Z</time>
      </trkpt>
      <trkpt lat="47.46499" lon="0.85684">
        <ele>102.99829</ele>
        <time>2011-10-22T14:21:18Z</time>
      </trkpt>
      <trkpt lat="47.46516" lon="0.85695">
        <ele>103.479</ele>
        <time>2011-10-22T14:21:20Z</time>
      </trkpt>
      <trkpt lat="47.46553" lon="0.85696">
        <ele>104.44042</ele>
        <time>2011-10-22T14:21:24Z</time>
      </trkpt>
      <trkpt lat="47.46637" lon="0.85661">
        <ele>107.32434</ele>
        <time>2011-10-22T14:21:33Z</time>
      </trkpt>
      <trkpt lat="47.46654" lon="0.85653">
        <ele>107.80505</ele>
        <time>2011-10-22T14:21:35Z</time>
      </trkpt>
      <trkpt lat="47.46664" lon="0.85635">
        <ele>107.80505</ele>
        <time>2011-10-22T14:21:38Z</time>
      </trkpt>
      <trkpt lat="47.46663" lon="0.8563">
        <ele>107.80505</ele>
        <time>2011-10-22T14:21:39Z</time>
      </trkpt>
      <trkpt lat="47.46652" lon="0.85576">
        <ele>106.84362</ele>
        <time>2011-10-22T14:21:49Z</time>
      </trkpt>
      <trkpt lat="47.46641" lon="0.85513">
        <ele>106.36303</ele>
        <time>2011-10-22T14:22:00Z</time>
      </trkpt>
      <trkpt lat="47.4663" lon="0.85463">
        <ele>105.88244</ele>
        <time>2011-10-22T14:22:09Z</time>
      </trkpt>
      <trkpt lat="47.46619" lon="0.85409">
        <ele>105.40173</ele>
        <time>2011-10-22T14:22:18Z</time>
      </trkpt>
      <trkpt lat="47.46615" lon="0.85377">
        <ele>105.40173</ele>
        <time>2011-10-22T14:22:23Z</time>
      </trkpt>
      <trkpt lat="47.46621" lon="0.853">
        <ele>105.40173</ele>
        <time>2011-10-22T14:22:35Z</time>
      </trkpt>
      <trkpt lat="47.46628" lon="0.85223">
        <ele>105.88244</ele>
        <time>2011-10-22T14:22:47Z</time>
      </trkpt>
      <trkpt lat="47.46633" lon="0.85145">
        <ele>105.88244</ele>
        <time>2011-10-22T14:22:59Z</time>
      </trkpt>
      <trkpt lat="47.46638" lon="0.85071">
        <ele>105.88244</ele>
        <time>2011-10-22T14:23:10Z</time>
      </trkpt>
      <trkpt lat="47.46643" lon="0.85001">
        <ele>105.88244</ele>
        <time>2011-10-22T14:23:20Z</time>
      </trkpt>
      <trkpt lat="47.46644" lon="0.84987">
        <ele>105.40173</ele>
        <time>2011-10-22T14:23:22Z</time>
      </trkpt>
      <trkpt lat="47.46637" lon="0.84946">
        <ele>104.92102</ele>
        <time>2011-10-22T14:23:28Z</time>
      </trkpt>
      <trkpt lat="47.46631" lon="0.84904">
        <ele>103.95971</ele>
        <time>2011-10-22T14:23:34Z</time>
      </trkpt>
      <trkpt lat="47.46628" lon="0.8487">
        <ele>103.95971</ele>
        <time>2011-10-22T14:23:39Z</time>
      </trkpt>
      <trkpt lat="47.46617" lon="0.84817">
        <ele>104.44042</ele>
        <time>2011-10-22T14:23:46Z</time>
      </trkpt>
      <trkpt lat="47.46601" lon="0.84728">
        <ele>104.92102</ele>
        <time>2011-10-22T14:23:56Z</time>
      </trkpt>
      <trkpt lat="47.4659" lon="0.84664">
        <ele>105.40173</ele>
        <time>2011-10-22T14:24:04Z</time>
      </trkpt>
      <trkpt lat="47.46582" lon="0.84612">
        <ele>106.36303</ele>
        <time>2011-10-22T14:24:12Z</time>
      </trkpt>
      <trkpt lat="47.46586" lon="0.84559">
        <ele>106.84362</ele>
        <time>2011-10-22T14:24:20Z</time>
      </trkpt>
      <trkpt lat="47.46595" lon="0.84506">
        <ele>106.84362</ele>
        <time>2011-10-22T14:24:28Z</time>
      </trkpt>
      <trkpt lat="47.46612" lon="0.84466">
        <ele>108.28564</ele>
        <time>2011-10-22T14:24:35Z</time>
      </trkpt>
      <trkpt lat="47.46614" lon="0.84461">
        <ele>108.76623</ele>
        <time>2011-10-22T14:24:36Z</time>
      </trkpt>
      <trkpt lat="47.46635" lon="0.8442">
        <ele>108.76623</ele>
        <time>2011-10-22T14:24:44Z</time>
      </trkpt>
      <trkpt lat="47.46655" lon="0.84376">
        <ele>108.76623</ele>
        <time>2011-10-22T14:24:52Z</time>
      </trkpt>
      <trkpt lat="47.46676" lon="0.84334">
        <ele>108.76623</ele>
        <time>2011-10-22T14:25:00Z</time>
      </trkpt>
      <trkpt lat="47.46703" lon="0.84278">
        <ele>109.24694</ele>
        <time>2011-10-22T14:25:10Z</time>
      </trkpt>
      <trkpt lat="47.46723" lon="0.84236">
        <ele>109.24694</ele>
        <time>2011-10-22T14:25:18Z</time>
      </trkpt>
      <trkpt lat="47.46731" lon="0.8422">
        <ele>109.24694</ele>
        <time>2011-10-22T14:25:21Z</time>
      </trkpt>
      <trkpt lat="47.46753" lon="0.84175">
        <ele>109.72766</ele>
        <time>2011-10-22T14:25:29Z</time>
      </trkpt>
      <trkpt lat="47.4677" lon="0.84134">
        <ele>109.24694</ele>
        <time>2011-10-22T14:25:35Z</time>
      </trkpt>
      <trkpt lat="47.46783" lon="0.84078">
        <ele>108.76623</ele>
        <time>2011-10-22T14:25:42Z</time>
      </trkpt>
      <trkpt lat="47.46792" lon="0.84015">
        <ele>108.76623</ele>
        <time>2011-10-22T14:25:50Z</time>
      </trkpt>
      <trkpt lat="47.46802" lon="0.83953">
        <ele>108.28564</ele>
        <time>2011-10-22T14:25:58Z</time>
      </trkpt>
      <trkpt lat="47.46814" lon="0.83924">
        <ele>107.80505</ele>
        <time>2011-10-22T14:26:02Z</time>
      </trkpt>
      <trkpt lat="47.46859" lon="0.83865">
        <ele>107.80505</ele>
        <time>2011-10-22T14:26:12Z</time>
      </trkpt>
      <trkpt lat="47.46879" lon="0.83846">
        <ele>107.32434</ele>
        <time>2011-10-22T14:26:16Z</time>
      </trkpt>
      <trkpt lat="47.46929" lon="0.83802">
        <ele>106.36303</ele>
        <time>2011-10-22T14:26:26Z</time>
      </trkpt>
      <trkpt lat="47.46959" lon="0.8378">
        <ele>105.88244</ele>
        <time>2011-10-22T14:26:32Z</time>
      </trkpt>
      <trkpt lat="47.46973" lon="0.83769">
        <ele>105.88244</ele>
        <time>2011-10-22T14:26:35Z</time>
      </trkpt>
      <trkpt lat="47.46984" lon="0.83748">
        <ele>105.40173</ele>
        <time>2011-10-22T14:26:39Z</time>
      </trkpt>
      <trkpt lat="47.46986" lon="0.83741">
        <ele>105.40173</ele>
        <time>2011-10-22T14:26:40Z</time>
      </trkpt>
      <trkpt lat="47.47" lon="0.83709">
        <ele>105.40173</ele>
        <time>2011-10-22T14:26:44Z</time>
      </trkpt>
      <trkpt lat="47.47026" lon="0.83656">
        <ele>104.44042</ele>
        <time>2011-10-22T14:26:51Z</time>
      </trkpt>
      <trkpt lat="47.47055" lon="0.83593">
        <ele>102.0371</ele>
        <time>2011-10-22T14:26:59Z</time>
      </trkpt>
      <trkpt lat="47.47074" lon="0.83546">
        <ele>99.633789</ele>
        <time>2011-10-22T14:27:04Z</time>
      </trkpt>
      <trkpt lat="47.47089" lon="0.83513">
        <ele>96.749877</ele>
        <time>2011-10-22T14:27:08Z</time>
      </trkpt>
      <trkpt lat="47.47117" lon="0.83482">
        <ele>92.904541</ele>
        <time>2011-10-22T14:27:13Z</time>
      </trkpt>
      <trkpt lat="47.4713" lon="0.83471">
        <ele>91.462524</ele>
        <time>2011-10-22T14:27:15Z</time>
      </trkpt>
      <trkpt lat="47.47157" lon="0.83437">
        <ele>90.981933</ele>
        <time>2011-10-22T14:27:20Z</time>
      </trkpt>
      <trkpt lat="47.4718" lon="0.83407">
        <ele>93.865844</ele>
        <time>2011-10-22T14:27:26Z</time>
      </trkpt>
      <trkpt lat="47.47197" lon="0.83388">
        <ele>96.749877</ele>
        <time>2011-10-22T14:27:31Z</time>
      </trkpt>
      <trkpt lat="47.4722" lon="0.83371">
        <ele>99.633789</ele>
        <time>2011-10-22T14:27:38Z</time>
      </trkpt>
      <trkpt lat="47.47223" lon="0.8337">
        <ele>99.633789</ele>
        <time>2011-10-22T14:27:39Z</time>
      </trkpt>
      <trkpt lat="47.47233" lon="0.83379">
        <ele>100.1145</ele>
        <time>2011-10-22T14:27:43Z</time>
      </trkpt>
      <trkpt lat="47.47246" lon="0.83392">
        <ele>101.07568</ele>
        <time>2011-10-22T14:27:48Z</time>
      </trkpt>
      <trkpt lat="47.4727" lon="0.83404">
        <ele>102.0371</ele>
        <time>2011-10-22T14:27:56Z</time>
      </trkpt>
      <trkpt lat="47.47294" lon="0.83411">
        <ele>102.5177</ele>
        <time>2011-10-22T14:28:03Z</time>
      </trkpt>
      <trkpt lat="47.47311" lon="0.8342">
        <ele>102.5177</ele>
        <time>2011-10-22T14:28:09Z</time>
      </trkpt>
      <trkpt lat="47.47337" lon="0.83433">
        <ele>102.5177</ele>
        <time>2011-10-22T14:28:16Z</time>
      </trkpt>
      <trkpt lat="47.47367" lon="0.83438">
        <ele>102.5177</ele>
        <time>2011-10-22T14:28:23Z</time>
      </trkpt>
      <trkpt lat="47.47408" lon="0.83443">
        <ele>102.5177</ele>
        <time>2011-10-22T14:28:31Z</time>
      </trkpt>
      <trkpt lat="47.47418" lon="0.83443">
        <ele>102.99829</ele>
        <time>2011-10-22T14:28:33Z</time>
      </trkpt>
      <trkpt lat="47.47463" lon="0.8345">
        <ele>103.95971</ele>
        <time>2011-10-22T14:28:42Z</time>
      </trkpt>
      <trkpt lat="47.47505" lon="0.83454">
        <ele>105.40173</ele>
        <time>2011-10-22T14:28:51Z</time>
      </trkpt>
      <trkpt lat="47.47549" lon="0.83454">
        <ele>106.36303</ele>
        <time>2011-10-22T14:29:00Z</time>
      </trkpt>
      <trkpt lat="47.47564" lon="0.83454">
        <ele>106.84362</ele>
        <time>2011-10-22T14:29:03Z</time>
      </trkpt>
      <trkpt lat="47.47573" lon="0.83456">
        <ele>106.84362</ele>
        <time>2011-10-22T14:29:05Z</time>
      </trkpt>
      <trkpt lat="47.47604" lon="0.83478">
        <ele>107.32434</ele>
        <time>2011-10-22T14:29:12Z</time>
      </trkpt>
      <trkpt lat="47.47619" lon="0.835">
        <ele>107.80505</ele>
        <time>2011-10-22T14:29:16Z</time>
      </trkpt>
      <trkpt lat="47.47628" lon="0.8352">
        <ele>108.28564</ele>
        <time>2011-10-22T14:29:19Z</time>
      </trkpt>
      <trkpt lat="47.47632" lon="0.83534">
        <ele>108.28564</ele>
        <time>2011-10-22T14:29:21Z</time>
      </trkpt>
      <trkpt lat="47.47649" lon="0.83588">
        <ele>108.76623</ele>
        <time>2011-10-22T14:29:29Z</time>
      </trkpt>
      <trkpt lat="47.47668" lon="0.83648">
        <ele>109.24694</ele>
        <time>2011-10-22T14:29:38Z</time>
      </trkpt>
      <trkpt lat="47.47675" lon="0.8367">
        <ele>109.72766</ele>
        <time>2011-10-22T14:29:42Z</time>
      </trkpt>
      <trkpt lat="47.4769" lon="0.83684">
        <ele>109.24694</ele>
        <time>2011-10-22T14:29:47Z</time>
      </trkpt>
      <trkpt lat="47.47694" lon="0.83682">
        <ele>109.24694</ele>
        <time>2011-10-22T14:29:48Z</time>
      </trkpt>
      <trkpt lat="47.47702" lon="0.83679">
        <ele>108.76623</ele>
        <time>2011-10-22T14:29:50Z</time>
      </trkpt>
      <trkpt lat="47.47722" lon="0.83667">
        <ele>107.80505</ele>
        <time>2011-10-22T14:29:55Z</time>
      </trkpt>
      <trkpt lat="47.47729" lon="0.83663">
        <ele>107.80505</ele>
        <time>2011-10-22T14:29:57Z</time>
      </trkpt>
      <trkpt lat="47.47755" lon="0.83651">
        <ele>107.32434</ele>
        <time>2011-10-22T14:30:04Z</time>
      </trkpt>
      <trkpt lat="47.47785" lon="0.83638">
        <ele>106.36303</ele>
        <time>2011-10-22T14:30:11Z</time>
      </trkpt>
      <trkpt lat="47.47816" lon="0.83627">
        <ele>104.92102</ele>
        <time>2011-10-22T14:30:17Z</time>
      </trkpt>
      <trkpt lat="47.4786" lon="0.8361">
        <ele>103.95971</ele>
        <time>2011-10-22T14:30:25Z</time>
      </trkpt>
      <trkpt lat="47.47879" lon="0.83589">
        <ele>103.479</ele>
        <time>2011-10-22T14:30:29Z</time>
      </trkpt>
      <trkpt lat="47.47912" lon="0.83521">
        <ele>104.44042</ele>
        <time>2011-10-22T14:30:38Z</time>
      </trkpt>
      <trkpt lat="47.47936" lon="0.83476">
        <ele>105.40173</ele>
        <time>2011-10-22T14:30:44Z</time>
      </trkpt>
      <trkpt lat="47.47964" lon="0.8342">
        <ele>106.36303</ele>
        <time>2011-10-22T14:30:51Z</time>
      </trkpt>
      <trkpt lat="47.47982" lon="0.83382">
        <ele>107.32434</ele>
        <time>2011-10-22T14:30:56Z</time>
      </trkpt>
      <trkpt lat="47.48005" lon="0.83304">
        <ele>106.36303</ele>
        <time>2011-10-22T14:31:06Z</time>
      </trkpt>
      <trkpt lat="47.48017" lon="0.83239">
        <ele>106.84362</ele>
        <time>2011-10-22T14:31:14Z</time>
      </trkpt>
      <trkpt lat="47.48025" lon="0.83166">
        <ele>107.80505</ele>
        <time>2011-10-22T14:31:24Z</time>
      </trkpt>
      <trkpt lat="47.48024" lon="0.83117">
        <ele>108.28564</ele>
        <time>2011-10-22T14:31:31Z</time>
      </trkpt>
      <trkpt lat="47.48019" lon="0.83063">
        <ele>109.24694</ele>
        <time>2011-10-22T14:31:39Z</time>
      </trkpt>
      <trkpt lat="47.48022" lon="0.83028">
        <ele>109.72766</ele>
        <time>2011-10-22T14:31:44Z</time>
      </trkpt>
      <trkpt lat="47.48033" lon="0.82974">
        <ele>111.16955</ele>
        <time>2011-10-22T14:31:52Z</time>
      </trkpt>
      <trkpt lat="47.48041" lon="0.82936">
        <ele>111.65026</ele>
        <time>2011-10-22T14:31:58Z</time>
      </trkpt>
      <trkpt lat="47.48036" lon="0.82914">
        <ele>111.16955</ele>
        <time>2011-10-22T14:32:02Z</time>
      </trkpt>
      <trkpt lat="47.48032" lon="0.82911">
        <ele>111.65026</ele>
        <time>2011-10-22T14:32:03Z</time>
      </trkpt>
      <trkpt lat="47.47994" lon="0.8289">
        <ele>111.65026</ele>
        <time>2011-10-22T14:32:12Z</time>
      </trkpt>
      <trkpt lat="47.47969" lon="0.82877">
        <ele>111.65026</ele>
        <time>2011-10-22T14:32:18Z</time>
      </trkpt>
      <trkpt lat="47.47931" lon="0.82855">
        <ele>110.20825</ele>
        <time>2011-10-22T14:32:27Z</time>
      </trkpt>
      <trkpt lat="47.47894" lon="0.82836">
        <ele>108.76623</ele>
        <time>2011-10-22T14:32:35Z</time>
      </trkpt>
      <trkpt lat="47.47851" lon="0.82824">
        <ele>107.80505</ele>
        <time>2011-10-22T14:32:43Z</time>
      </trkpt>
      <trkpt lat="47.47813" lon="0.8281">
        <ele>106.36303</ele>
        <time>2011-10-22T14:32:50Z</time>
      </trkpt>
      <trkpt lat="47.47785" lon="0.82798">
        <ele>105.88244</ele>
        <time>2011-10-22T14:32:55Z</time>
      </trkpt>
      <trkpt lat="47.47748" lon="0.82797">
        <ele>107.32434</ele>
        <time>2011-10-22T14:33:01Z</time>
      </trkpt>
      <trkpt lat="47.47725" lon="0.82804">
        <ele>109.24694</ele>
        <time>2011-10-22T14:33:05Z</time>
      </trkpt>
      <trkpt lat="47.47705" lon="0.82806">
        <ele>109.24694</ele>
        <time>2011-10-22T14:33:09Z</time>
      </trkpt>
      <trkpt lat="47.47672" lon="0.82807">
        <ele>104.44042</ele>
        <time>2011-10-22T14:33:15Z</time>
      </trkpt>
      <trkpt lat="47.47666" lon="0.82806">
        <ele>103.479</ele>
        <time>2011-10-22T14:33:16Z</time>
      </trkpt>
      <trkpt lat="47.47634" lon="0.82809">
        <ele>96.749877</ele>
        <time>2011-10-22T14:33:21Z</time>
      </trkpt>
      <trkpt lat="47.47605" lon="0.82807">
        <ele>91.462524</ele>
        <time>2011-10-22T14:33:25Z</time>
      </trkpt>
      <trkpt lat="47.47579" lon="0.828">
        <ele>89.059326</ele>
        <time>2011-10-22T14:33:29Z</time>
      </trkpt>
      <trkpt lat="47.47558" lon="0.82775">
        <ele>91.943237</ele>
        <time>2011-10-22T14:33:33Z</time>
      </trkpt>
      <trkpt lat="47.47558" lon="0.82748">
        <ele>92.42395</ele>
        <time>2011-10-22T14:33:36Z</time>
      </trkpt>
      <trkpt lat="47.4756" lon="0.8274">
        <ele>93.385131</ele>
        <time>2011-10-22T14:33:37Z</time>
      </trkpt>
      <trkpt lat="47.47584" lon="0.82672">
        <ele>97.230468</ele>
        <time>2011-10-22T14:33:46Z</time>
      </trkpt>
      <trkpt lat="47.47592" lon="0.82636">
        <ele>99.153076</ele>
        <time>2011-10-22T14:33:51Z</time>
      </trkpt>
      <trkpt lat="47.47595" lon="0.82593">
        <ele>101.07568</ele>
        <time>2011-10-22T14:33:57Z</time>
      </trkpt>
      <trkpt lat="47.47588" lon="0.82549">
        <ele>102.0371</ele>
        <time>2011-10-22T14:34:04Z</time>
      </trkpt>
      <trkpt lat="47.47578" lon="0.8251">
        <ele>103.479</ele>
        <time>2011-10-22T14:34:11Z</time>
      </trkpt>
      <trkpt lat="47.47571" lon="0.82474">
        <ele>104.44042</ele>
        <time>2011-10-22T14:34:19Z</time>
      </trkpt>
      <trkpt lat="47.47565" lon="0.82445">
        <ele>104.44042</ele>
        <time>2011-10-22T14:34:26Z</time>
      </trkpt>
      <trkpt lat="47.47561" lon="0.82403">
        <ele>104.44042</ele>
        <time>2011-10-22T14:34:35Z</time>
      </trkpt>
      <trkpt lat="47.47556" lon="0.82355">
        <ele>103.95971</ele>
        <time>2011-10-22T14:34:45Z</time>
      </trkpt>
      <trkpt lat="47.47552" lon="0.82309">
        <ele>103.479</ele>
        <time>2011-10-22T14:34:53Z</time>
      </trkpt>
      <trkpt lat="47.47548" lon="0.82244">
        <ele>103.95971</ele>
        <time>2011-10-22T14:35:02Z</time>
      </trkpt>
      <trkpt lat="47.47548" lon="0.8223">
        <ele>103.479</ele>
        <time>2011-10-22T14:35:04Z</time>
      </trkpt>
      <trkpt lat="47.47549" lon="0.82164">
        <ele>102.99829</ele>
        <time>2011-10-22T14:35:13Z</time>
      </trkpt>
      <trkpt lat="47.47546" lon="0.82077">
        <ele>104.44042</ele>
        <time>2011-10-22T14:35:25Z</time>
      </trkpt>
      <trkpt lat="47.47548" lon="0.82027">
        <ele>105.40173</ele>
        <time>2011-10-22T14:35:32Z</time>
      </trkpt>
      <trkpt lat="47.47549" lon="0.82">
        <ele>105.40173</ele>
        <time>2011-10-22T14:35:36Z</time>
      </trkpt>
      <trkpt lat="47.47542" lon="0.81967">
        <ele>104.92102</ele>
        <time>2011-10-22T14:35:41Z</time>
      </trkpt>
      <trkpt lat="47.47526" lon="0.81952">
        <ele>104.44042</ele>
        <time>2011-10-22T14:35:45Z</time>
      </trkpt>
      <trkpt lat="47.47517" lon="0.81948">
        <ele>103.95971</ele>
        <time>2011-10-22T14:35:47Z</time>
      </trkpt>
      <trkpt lat="47.47503" lon="0.81946">
        <ele>102.99829</ele>
        <time>2011-10-22T14:35:50Z</time>
      </trkpt>
      <trkpt lat="47.47485" lon="0.81956">
        <ele>102.99829</ele>
        <time>2011-10-22T14:35:54Z</time>
      </trkpt>
      <trkpt lat="47.47473" lon="0.81972">
        <ele>103.95971</ele>
        <time>2011-10-22T14:35:57Z</time>
      </trkpt>
      <trkpt lat="47.47455" lon="0.82011">
        <ele>105.40173</ele>
        <time>2011-10-22T14:36:03Z</time>
      </trkpt>
      <trkpt lat="47.47446" lon="0.82058">
        <ele>104.92102</ele>
        <time>2011-10-22T14:36:09Z</time>
      </trkpt>
      <trkpt lat="47.47444" lon="0.82067">
        <ele>104.92102</ele>
        <time>2011-10-22T14:36:10Z</time>
      </trkpt>
      <trkpt lat="47.47427" lon="0.82094">
        <ele>103.479</ele>
        <time>2011-10-22T14:36:14Z</time>
      </trkpt>
      <trkpt lat="47.4742" lon="0.82096">
        <ele>103.479</ele>
        <time>2011-10-22T14:36:15Z</time>
      </trkpt>
      <trkpt lat="47.47345" lon="0.82117">
        <ele>100.1145</ele>
        <time>2011-10-22T14:36:26Z</time>
      </trkpt>
      <trkpt lat="47.47287" lon="0.82129">
        <ele>97.711181</ele>
        <time>2011-10-22T14:36:34Z</time>
      </trkpt>
      <trkpt lat="47.47258" lon="0.82123">
        <ele>97.230468</ele>
        <time>2011-10-22T14:36:38Z</time>
      </trkpt>
      <trkpt lat="47.47218" lon="0.82126">
        <ele>97.711181</ele>
        <time>2011-10-22T14:36:43Z</time>
      </trkpt>
      <trkpt lat="47.47185" lon="0.82133">
        <ele>99.153076</ele>
        <time>2011-10-22T14:36:47Z</time>
      </trkpt>
      <trkpt lat="47.47167" lon="0.82149">
        <ele>100.59509</ele>
        <time>2011-10-22T14:36:51Z</time>
      </trkpt>
      <trkpt lat="47.47132" lon="0.82189">
        <ele>102.99829</ele>
        <time>2011-10-22T14:37:01Z</time>
      </trkpt>
      <trkpt lat="47.47101" lon="0.8223">
        <ele>105.40173</ele>
        <time>2011-10-22T14:37:11Z</time>
      </trkpt>
      <trkpt lat="47.47072" lon="0.8227">
        <ele>108.28564</ele>
        <time>2011-10-22T14:37:21Z</time>
      </trkpt>
      <trkpt lat="47.47046" lon="0.82298">
        <ele>110.20825</ele>
        <time>2011-10-22T14:37:30Z</time>
      </trkpt>
      <trkpt lat="47.47013" lon="0.82329">
        <ele>110.68884</ele>
        <time>2011-10-22T14:37:41Z</time>
      </trkpt>
      <trkpt lat="47.46986" lon="0.82342">
        <ele>110.20825</ele>
        <time>2011-10-22T14:37:48Z</time>
      </trkpt>
      <trkpt lat="47.46961" lon="0.8234">
        <ele>109.72766</ele>
        <time>2011-10-22T14:37:54Z</time>
      </trkpt>
      <trkpt lat="47.46921" lon="0.82325">
        <ele>108.76623</ele>
        <time>2011-10-22T14:38:04Z</time>
      </trkpt>
      <trkpt lat="47.46882" lon="0.82311">
        <ele>108.28564</ele>
        <time>2011-10-22T14:38:14Z</time>
      </trkpt>
      <trkpt lat="47.46838" lon="0.82292">
        <ele>108.76623</ele>
        <time>2011-10-22T14:38:26Z</time>
      </trkpt>
      <trkpt lat="47.46803" lon="0.82279">
        <ele>109.24694</ele>
        <time>2011-10-22T14:38:36Z</time>
      </trkpt>
      <trkpt lat="47.46767" lon="0.82265">
        <ele>109.24694</ele>
        <time>2011-10-22T14:38:47Z</time>
      </trkpt>
      <trkpt lat="47.46729" lon="0.8225">
        <ele>109.24694</ele>
        <time>2011-10-22T14:38:58Z</time>
      </trkpt>
      <trkpt lat="47.46692" lon="0.82234">
        <ele>109.24694</ele>
        <time>2011-10-22T14:39:09Z</time>
      </trkpt>
      <trkpt lat="47.46668" lon="0.82225">
        <ele>108.76623</ele>
        <time>2011-10-22T14:39:16Z</time>
      </trkpt>
      <trkpt lat="47.46637" lon="0.82213">
        <ele>109.24694</ele>
        <time>2011-10-22T14:39:25Z</time>
      </trkpt>
      <trkpt lat="47.46603" lon="0.82199">
        <ele>109.72766</ele>
        <time>2011-10-22T14:39:35Z</time>
      </trkpt>
      <trkpt lat="47.46572" lon="0.82185">
        <ele>110.68884</ele>
        <time>2011-10-22T14:39:44Z</time>
      </trkpt>
      <trkpt lat="47.46532" lon="0.82167">
        <ele>112.13098</ele>
        <time>2011-10-22T14:39:55Z</time>
      </trkpt>
      <trkpt lat="47.46488" lon="0.8215">
        <ele>112.61157</ele>
        <time>2011-10-22T14:40:07Z</time>
      </trkpt>
      <trkpt lat="47.46442" lon="0.82132">
        <ele>112.61157</ele>
        <time>2011-10-22T14:40:19Z</time>
      </trkpt>
      <trkpt lat="47.46392" lon="0.82111">
        <ele>113.09228</ele>
        <time>2011-10-22T14:40:32Z</time>
      </trkpt>
      <trkpt lat="47.46343" lon="0.82089">
        <ele>114.53417</ele>
        <time>2011-10-22T14:40:45Z</time>
      </trkpt>
      <trkpt lat="47.46302" lon="0.82073">
        <ele>115.4956</ele>
        <time>2011-10-22T14:40:55Z</time>
      </trkpt>
      <trkpt lat="47.46261" lon="0.82056">
        <ele>116.45678</ele>
        <time>2011-10-22T14:41:05Z</time>
      </trkpt>
      <trkpt lat="47.46213" lon="0.82031">
        <ele>116.9375</ele>
        <time>2011-10-22T14:41:17Z</time>
      </trkpt>
      <trkpt lat="47.46172" lon="0.82001">
        <ele>117.8988</ele>
        <time>2011-10-22T14:41:28Z</time>
      </trkpt>
      <trkpt lat="47.46133" lon="0.81972">
        <ele>117.8988</ele>
        <time>2011-10-22T14:41:38Z</time>
      </trkpt>
      <trkpt lat="47.46084" lon="0.81932">
        <ele>118.37939</ele>
        <time>2011-10-22T14:41:51Z</time>
      </trkpt>
      <trkpt lat="47.46059" lon="0.81914">
        <ele>117.8988</ele>
        <time>2011-10-22T14:41:58Z</time>
      </trkpt>
      <trkpt lat="47.46047" lon="0.81907">
        <ele>117.8988</ele>
        <time>2011-10-22T14:42:02Z</time>
      </trkpt>
      <trkpt lat="47.4603" lon="0.81897">
        <ele>116.45678</ele>
        <time>2011-10-22T14:42:09Z</time>
      </trkpt>
      <trkpt lat="47.46018" lon="0.81888">
        <ele>115.4956</ele>
        <time>2011-10-22T14:42:15Z</time>
      </trkpt>
      <trkpt lat="47.46" lon="0.81874">
        <ele>115.01489</ele>
        <time>2011-10-22T14:42:22Z</time>
      </trkpt>
      <trkpt lat="47.45974" lon="0.81853">
        <ele>115.01489</ele>
        <time>2011-10-22T14:42:31Z</time>
      </trkpt>
      <trkpt lat="47.45937" lon="0.81828">
        <ele>114.53417</ele>
        <time>2011-10-22T14:42:42Z</time>
      </trkpt>
      <trkpt lat="47.45901" lon="0.81813">
        <ele>114.05358</ele>
        <time>2011-10-22T14:42:52Z</time>
      </trkpt>
      <trkpt lat="47.45866" lon="0.81805">
        <ele>114.05358</ele>
        <time>2011-10-22T14:43:01Z</time>
      </trkpt>
      <trkpt lat="47.45833" lon="0.81798">
        <ele>114.05358</ele>
        <time>2011-10-22T14:43:09Z</time>
      </trkpt>
      <trkpt lat="47.45789" lon="0.81776">
        <ele>114.53417</ele>
        <time>2011-10-22T14:43:21Z</time>
      </trkpt>
      <trkpt lat="47.45755" lon="0.81759">
        <ele>115.01489</ele>
        <time>2011-10-22T14:43:30Z</time>
      </trkpt>
      <trkpt lat="47.45725" lon="0.81749">
        <ele>115.97619</ele>
        <time>2011-10-22T14:43:38Z</time>
      </trkpt>
      <trkpt lat="47.45699" lon="0.81746">
        <ele>116.9375</ele>
        <time>2011-10-22T14:43:45Z</time>
      </trkpt>
      <trkpt lat="47.45651" lon="0.81743">
        <ele>118.8601</ele>
        <time>2011-10-22T14:43:57Z</time>
      </trkpt>
      <trkpt lat="47.45612" lon="0.81734">
        <ele>119.34082</ele>
        <time>2011-10-22T14:44:07Z</time>
      </trkpt>
      <trkpt lat="47.45571" lon="0.81713">
        <ele>118.8601</ele>
        <time>2011-10-22T14:44:18Z</time>
      </trkpt>
      <trkpt lat="47.4554" lon="0.81685">
        <ele>118.37939</ele>
        <time>2011-10-22T14:44:27Z</time>
      </trkpt>
      <trkpt lat="47.45514" lon="0.81656">
        <ele>117.8988</ele>
        <time>2011-10-22T14:44:35Z</time>
      </trkpt>
      <trkpt lat="47.45485" lon="0.8162">
        <ele>117.41821</ele>
        <time>2011-10-22T14:44:44Z</time>
      </trkpt>
      <trkpt lat="47.45446" lon="0.81574">
        <ele>116.9375</ele>
        <time>2011-10-22T14:44:56Z</time>
      </trkpt>
      <trkpt lat="47.45409" lon="0.81529">
        <ele>116.45678</ele>
        <time>2011-10-22T14:45:07Z</time>
      </trkpt>
      <trkpt lat="47.45374" lon="0.81488">
        <ele>116.45678</ele>
        <time>2011-10-22T14:45:16Z</time>
      </trkpt>
      <trkpt lat="47.45333" lon="0.81442">
        <ele>116.9375</ele>
        <time>2011-10-22T14:45:26Z</time>
      </trkpt>
      <trkpt lat="47.45284" lon="0.81395">
        <ele>117.8988</ele>
        <time>2011-10-22T14:45:37Z</time>
      </trkpt>
      <trkpt lat="47.45265" lon="0.8137">
        <ele>117.8988</ele>
        <time>2011-10-22T14:45:42Z</time>
      </trkpt>
      <trkpt lat="47.45258" lon="0.81361">
        <ele>117.8988</ele>
        <time>2011-10-22T14:45:44Z</time>
      </trkpt>
      <trkpt lat="47.45235" lon="0.81311">
        <ele>117.8988</ele>
        <time>2011-10-22T14:45:52Z</time>
      </trkpt>
      <trkpt lat="47.45216" lon="0.8126">
        <ele>117.41821</ele>
        <time>2011-10-22T14:46:00Z</time>
      </trkpt>
      <trkpt lat="47.45207" lon="0.81246">
        <ele>117.41821</ele>
        <time>2011-10-22T14:46:03Z</time>
      </trkpt>
      <trkpt lat="47.45196" lon="0.81235">
        <ele>117.41821</ele>
        <time>2011-10-22T14:46:06Z</time>
      </trkpt>
      <trkpt lat="47.45176" lon="0.81229">
        <ele>116.9375</ele>
        <time>2011-10-22T14:46:11Z</time>
      </trkpt>
      <trkpt lat="47.45152" lon="0.81222">
        <ele>116.9375</ele>
        <time>2011-10-22T14:46:17Z</time>
      </trkpt>
      <trkpt lat="47.45114" lon="0.81213">
        <ele>116.9375</ele>
        <time>2011-10-22T14:46:26Z</time>
      </trkpt>
      <trkpt lat="47.45109" lon="0.81211">
        <ele>116.9375</ele>
        <time>2011-10-22T14:46:27Z</time>
      </trkpt>
      <trkpt lat="47.45076" lon="0.81195">
        <ele>116.9375</ele>
        <time>2011-10-22T14:46:35Z</time>
      </trkpt>
      <trkpt lat="47.45036" lon="0.81175">
        <ele>115.97619</ele>
        <time>2011-10-22T14:46:44Z</time>
      </trkpt>
      <trkpt lat="47.44996" lon="0.81162">
        <ele>115.4956</ele>
        <time>2011-10-22T14:46:52Z</time>
      </trkpt>
      <trkpt lat="47.44958" lon="0.81151">
        <ele>115.01489</ele>
        <time>2011-10-22T14:47:00Z</time>
      </trkpt>
      <trkpt lat="47.44908" lon="0.81137">
        <ele>115.01489</ele>
        <time>2011-10-22T14:47:10Z</time>
      </trkpt>
      <trkpt lat="47.44852" lon="0.81119">
        <ele>114.53417</ele>
        <time>2011-10-22T14:47:21Z</time>
      </trkpt>
      <trkpt lat="47.4481" lon="0.81104">
        <ele>113.09228</ele>
        <time>2011-10-22T14:47:29Z</time>
      </trkpt>
      <trkpt lat="47.44771" lon="0.81097">
        <ele>113.09228</ele>
        <time>2011-10-22T14:47:36Z</time>
      </trkpt>
      <trkpt lat="47.4476" lon="0.81096">
        <ele>112.61157</ele>
        <time>2011-10-22T14:47:38Z</time>
      </trkpt>
      <trkpt lat="47.44733" lon="0.81101">
        <ele>112.61157</ele>
        <time>2011-10-22T14:47:43Z</time>
      </trkpt>
      <trkpt lat="47.44701" lon="0.81104">
        <ele>112.13098</ele>
        <time>2011-10-22T14:47:50Z</time>
      </trkpt>
      <trkpt lat="47.44672" lon="0.8112">
        <ele>110.68884</ele>
        <time>2011-10-22T14:47:56Z</time>
      </trkpt>
      <trkpt lat="47.44636" lon="0.81142">
        <ele>109.72766</ele>
        <time>2011-10-22T14:48:04Z</time>
      </trkpt>
      <trkpt lat="47.44615" lon="0.81157">
        <ele>109.24694</ele>
        <time>2011-10-22T14:48:09Z</time>
      </trkpt>
      <trkpt lat="47.44602" lon="0.81175">
        <ele>109.72766</ele>
        <time>2011-10-22T14:48:13Z</time>
      </trkpt>
      <trkpt lat="47.44595" lon="0.81212">
        <ele>109.72766</ele>
        <time>2011-10-22T14:48:19Z</time>
      </trkpt>
      <trkpt lat="47.44587" lon="0.81269">
        <ele>110.20825</ele>
        <time>2011-10-22T14:48:28Z</time>
      </trkpt>
      <trkpt lat="47.44577" lon="0.81283">
        <ele>110.20825</ele>
        <time>2011-10-22T14:48:32Z</time>
      </trkpt>
      <trkpt lat="47.44572" lon="0.81283">
        <ele>109.72766</ele>
        <time>2011-10-22T14:48:33Z</time>
      </trkpt>
      <trkpt lat="47.44528" lon="0.81278">
        <ele>108.76623</ele>
        <time>2011-10-22T14:48:43Z</time>
      </trkpt>
      <trkpt lat="47.44486" lon="0.81274">
        <ele>107.80505</ele>
        <time>2011-10-22T14:48:52Z</time>
      </trkpt>
      <trkpt lat="47.44466" lon="0.81272">
        <ele>106.84362</ele>
        <time>2011-10-22T14:48:56Z</time>
      </trkpt>
      <trkpt lat="47.44456" lon="0.81287">
        <ele>106.36303</ele>
        <time>2011-10-22T14:49:00Z</time>
      </trkpt>
      <trkpt lat="47.44456" lon="0.81293">
        <ele>106.84362</ele>
        <time>2011-10-22T14:49:01Z</time>
      </trkpt>
      <trkpt lat="47.44463" lon="0.8136">
        <ele>107.80505</ele>
        <time>2011-10-22T14:49:11Z</time>
      </trkpt>
      <trkpt lat="47.44468" lon="0.81402">
        <ele>108.28564</ele>
        <time>2011-10-22T14:49:17Z</time>
      </trkpt>
      <trkpt lat="47.44475" lon="0.81475">
        <ele>108.76623</ele>
        <time>2011-10-22T14:49:28Z</time>
      </trkpt>
      <trkpt lat="47.44478" lon="0.81527">
        <ele>109.24694</ele>
        <time>2011-10-22T14:49:36Z</time>
      </trkpt>
      <trkpt lat="47.44481" lon="0.81582">
        <ele>109.24694</ele>
        <time>2011-10-22T14:49:45Z</time>
      </trkpt>
      <trkpt lat="47.44484" lon="0.81647">
        <ele>109.24694</ele>
        <time>2011-10-22T14:49:55Z</time>
      </trkpt>
      <trkpt lat="47.44488" lon="0.81737">
        <ele>109.72766</ele>
        <time>2011-10-22T14:50:08Z</time>
      </trkpt>
      <trkpt lat="47.44488" lon="0.81757">
        <ele>109.24694</ele>
        <time>2011-10-22T14:50:11Z</time>
      </trkpt>
      <trkpt lat="47.44486" lon="0.8181">
        <ele>109.24694</ele>
        <time>2011-10-22T14:50:19Z</time>
      </trkpt>
      <trkpt lat="47.44486" lon="0.81817">
        <ele>109.24694</ele>
        <time>2011-10-22T14:50:20Z</time>
      </trkpt>
      <trkpt lat="47.44479" lon="0.81834">
        <ele>109.24694</ele>
        <time>2011-10-22T14:50:24Z</time>
      </trkpt>
      <trkpt lat="47.44474" lon="0.8183">
        <ele>108.76623</ele>
        <time>2011-10-22T14:50:26Z</time>
      </trkpt>
      <trkpt lat="47.44461" lon="0.81814">
        <ele>107.32434</ele>
        <time>2011-10-22T14:50:33Z</time>
      </trkpt>
      <trkpt lat="47.44455" lon="0.81808">
        <ele>106.84362</ele>
        <time>2011-10-22T14:50:38Z</time>
      </trkpt>
      <trkpt lat="47.44455" lon="0.81808">
        <ele>106.84362</ele>
        <time>2011-10-22T14:50:39Z</time>
      </trkpt>
      <trkpt lat="47.44454" lon="0.81807">
        <ele>108.28564</ele>
        <time>2011-10-22T14:51:19Z</time>
      </trkpt>
      <trkpt lat="47.44453" lon="0.81803">
        <ele>107.80505</ele>
        <time>2011-10-22T14:51:23Z</time>
      </trkpt>
      <trkpt lat="47.44453" lon="0.81803">
        <ele>107.80505</ele>
        <time>2011-10-22T14:51:24Z</time>
      </trkpt>
      <trkpt lat="47.44453" lon="0.81803">
        <ele>107.80505</ele>
        <time>2011-10-22T14:51:27Z</time>
      </trkpt>
      <trkpt lat="47.44453" lon="0.81804">
        <ele>108.28564</ele>
        <time>2011-10-22T14:51:28Z</time>
      </trkpt>
      <trkpt lat="47.44452" lon="0.81804">
        <ele>108.28564</ele>
        <time>2011-10-22T14:51:37Z</time>
      </trkpt>
      <trkpt lat="47.44445" lon="0.818">
        <ele>107.32434</ele>
        <time>2011-10-22T14:51:41Z</time>
      </trkpt>
      <trkpt lat="47.44429" lon="0.81785">
        <ele>106.84362</ele>
        <time>2011-10-22T14:51:47Z</time>
      </trkpt>
      <trkpt lat="47.444" lon="0.81759">
        <ele>104.44042</ele>
        <time>2011-10-22T14:51:55Z</time>
      </trkpt>
      <trkpt lat="47.4437" lon="0.81736">
        <ele>102.0371</ele>
        <time>2011-10-22T14:52:01Z</time>
      </trkpt>
      <trkpt lat="47.44338" lon="0.81713">
        <ele>99.153076</ele>
        <time>2011-10-22T14:52:06Z</time>
      </trkpt>
      <trkpt lat="47.44278" lon="0.81667">
        <ele>93.865844</ele>
        <time>2011-10-22T14:52:14Z</time>
      </trkpt>
      <trkpt lat="47.44246" lon="0.81639">
        <ele>91.943237</ele>
        <time>2011-10-22T14:52:19Z</time>
      </trkpt>
      <trkpt lat="47.4423" lon="0.81647">
        <ele>90.981933</ele>
        <time>2011-10-22T14:52:23Z</time>
      </trkpt>
      <trkpt lat="47.44229" lon="0.81669">
        <ele>90.020629</ele>
        <time>2011-10-22T14:52:26Z</time>
      </trkpt>
      <trkpt lat="47.4423" lon="0.81697">
        <ele>90.020629</ele>
        <time>2011-10-22T14:52:30Z</time>
      </trkpt>
      <trkpt lat="47.4422" lon="0.81711">
        <ele>90.020629</ele>
        <time>2011-10-22T14:52:34Z</time>
      </trkpt>
      <trkpt lat="47.44204" lon="0.81706">
        <ele>90.501342</ele>
        <time>2011-10-22T14:52:38Z</time>
      </trkpt>
      <trkpt lat="47.44165" lon="0.81674">
        <ele>91.462524</ele>
        <time>2011-10-22T14:52:50Z</time>
      </trkpt>
      <trkpt lat="47.44142" lon="0.81649">
        <ele>92.42395</ele>
        <time>2011-10-22T14:52:59Z</time>
      </trkpt>
      <trkpt lat="47.44126" lon="0.81636">
        <ele>92.904541</ele>
        <time>2011-10-22T14:53:06Z</time>
      </trkpt>
      <trkpt lat="47.4411" lon="0.81628">
        <ele>94.346557</ele>
        <time>2011-10-22T14:53:12Z</time>
      </trkpt>
      <trkpt lat="47.4409" lon="0.81617">
        <ele>96.269287</ele>
        <time>2011-10-22T14:53:20Z</time>
      </trkpt>
      <trkpt lat="47.44066" lon="0.81601">
        <ele>98.672485</ele>
        <time>2011-10-22T14:53:30Z</time>
      </trkpt>
      <trkpt lat="47.44036" lon="0.81575">
        <ele>101.07568</ele>
        <time>2011-10-22T14:53:42Z</time>
      </trkpt>
      <trkpt lat="47.44006" lon="0.81547">
        <ele>103.479</ele>
        <time>2011-10-22T14:53:54Z</time>
      </trkpt>
      <trkpt lat="47.4398" lon="0.81523">
        <ele>104.92102</ele>
        <time>2011-10-22T14:54:05Z</time>
      </trkpt>
      <trkpt lat="47.43962" lon="0.81507">
        <ele>106.36303</ele>
        <time>2011-10-22T14:54:13Z</time>
      </trkpt>
      <trkpt lat="47.4393" lon="0.81481">
        <ele>108.28564</ele>
        <time>2011-10-22T14:54:26Z</time>
      </trkpt>
      <trkpt lat="47.43904" lon="0.81462">
        <ele>110.20825</ele>
        <time>2011-10-22T14:54:36Z</time>
      </trkpt>
      <trkpt lat="47.43876" lon="0.81438">
        <ele>111.65026</ele>
        <time>2011-10-22T14:54:47Z</time>
      </trkpt>
      <trkpt lat="47.43852" lon="0.81417">
        <ele>112.61157</ele>
        <time>2011-10-22T14:54:56Z</time>
      </trkpt>
      <trkpt lat="47.43828" lon="0.81399">
        <ele>113.57299</ele>
        <time>2011-10-22T14:55:05Z</time>
      </trkpt>
      <trkpt lat="47.43811" lon="0.81396">
        <ele>114.05358</ele>
        <time>2011-10-22T14:55:11Z</time>
      </trkpt>
      <trkpt lat="47.43793" lon="0.81402">
        <ele>114.53417</ele>
        <time>2011-10-22T14:55:18Z</time>
      </trkpt>
      <trkpt lat="47.43763" lon="0.81413">
        <ele>116.45678</ele>
        <time>2011-10-22T14:55:28Z</time>
      </trkpt>
      <trkpt lat="47.43735" lon="0.8142">
        <ele>117.8988</ele>
        <time>2011-10-22T14:55:37Z</time>
      </trkpt>
      <trkpt lat="47.43718" lon="0.8143">
        <ele>118.37939</ele>
        <time>2011-10-22T14:55:43Z</time>
      </trkpt>
      <trkpt lat="47.43699" lon="0.8145">
        <ele>119.34082</ele>
        <time>2011-10-22T14:55:51Z</time>
      </trkpt>
      <trkpt lat="47.4368" lon="0.81474">
        <ele>119.34082</ele>
        <time>2011-10-22T14:56:00Z</time>
      </trkpt>
      <trkpt lat="47.43656" lon="0.815">
        <ele>119.34082</ele>
        <time>2011-10-22T14:56:10Z</time>
      </trkpt>
      <trkpt lat="47.43639" lon="0.81516">
        <ele>119.82141</ele>
        <time>2011-10-22T14:56:17Z</time>
      </trkpt>
      <trkpt lat="47.43611" lon="0.81538">
        <ele>119.34082</ele>
        <time>2011-10-22T14:56:26Z</time>
      </trkpt>
      <trkpt lat="47.43583" lon="0.8156">
        <ele>118.8601</ele>
        <time>2011-10-22T14:56:34Z</time>
      </trkpt>
      <trkpt lat="47.43553" lon="0.81594">
        <ele>118.8601</ele>
        <time>2011-10-22T14:56:43Z</time>
      </trkpt>
      <trkpt lat="47.43531" lon="0.81613">
        <ele>119.34082</ele>
        <time>2011-10-22T14:56:49Z</time>
      </trkpt>
      <trkpt lat="47.43507" lon="0.81627">
        <ele>117.8988</ele>
        <time>2011-10-22T14:56:55Z</time>
      </trkpt>
      <trkpt lat="47.43464" lon="0.81646">
        <ele>116.9375</ele>
        <time>2011-10-22T14:57:05Z</time>
      </trkpt>
      <trkpt lat="47.43411" lon="0.81662">
        <ele>115.97619</ele>
        <time>2011-10-22T14:57:16Z</time>
      </trkpt>
      <trkpt lat="47.43366" lon="0.81675">
        <ele>115.4956</ele>
        <time>2011-10-22T14:57:25Z</time>
      </trkpt>
      <trkpt lat="47.43337" lon="0.81684">
        <ele>115.01489</ele>
        <time>2011-10-22T14:57:31Z</time>
      </trkpt>
      <trkpt lat="47.43327" lon="0.81673">
        <ele>114.05358</ele>
        <time>2011-10-22T14:57:34Z</time>
      </trkpt>
      <trkpt lat="47.4333" lon="0.81665">
        <ele>114.05358</ele>
        <time>2011-10-22T14:57:36Z</time>
      </trkpt>
      <trkpt lat="47.43355" lon="0.8163">
        <ele>115.01489</ele>
        <time>2011-10-22T14:57:44Z</time>
      </trkpt>
      <trkpt lat="47.43369" lon="0.81594">
        <ele>115.01489</ele>
        <time>2011-10-22T14:57:50Z</time>
      </trkpt>
      <trkpt lat="47.43376" lon="0.81538">
        <ele>115.4956</ele>
        <time>2011-10-22T14:57:58Z</time>
      </trkpt>
      <trkpt lat="47.43376" lon="0.81531">
        <ele>115.4956</ele>
        <time>2011-10-22T14:57:59Z</time>
      </trkpt>
      <trkpt lat="47.43383" lon="0.81505">
        <ele>115.01489</ele>
        <time>2011-10-22T14:58:03Z</time>
      </trkpt>
      <trkpt lat="47.434" lon="0.81469">
        <ele>114.53417</ele>
        <time>2011-10-22T14:58:10Z</time>
      </trkpt>
      <trkpt lat="47.43402" lon="0.81463">
        <ele>114.53417</ele>
        <time>2011-10-22T14:58:11Z</time>
      </trkpt>
      <trkpt lat="47.43408" lon="0.81407">
        <ele>114.05358</ele>
        <time>2011-10-22T14:58:20Z</time>
      </trkpt>
      <trkpt lat="47.43413" lon="0.8137">
        <ele>114.53417</ele>
        <time>2011-10-22T14:58:26Z</time>
      </trkpt>
      <trkpt lat="47.43425" lon="0.81338">
        <ele>114.53417</ele>
        <time>2011-10-22T14:58:32Z</time>
      </trkpt>
      <trkpt lat="47.43462" lon="0.81266">
        <ele>113.57299</ele>
        <time>2011-10-22T14:58:46Z</time>
      </trkpt>
      <trkpt lat="47.43495" lon="0.81203">
        <ele>113.09228</ele>
        <time>2011-10-22T14:58:59Z</time>
      </trkpt>
      <trkpt lat="47.43499" lon="0.81193">
        <ele>113.09228</ele>
        <time>2011-10-22T14:59:01Z</time>
      </trkpt>
      <trkpt lat="47.43503" lon="0.81167">
        <ele>113.57299</ele>
        <time>2011-10-22T14:59:06Z</time>
      </trkpt>
      <trkpt lat="47.43495" lon="0.81123">
        <ele>113.57299</ele>
        <time>2011-10-22T14:59:13Z</time>
      </trkpt>
      <trkpt lat="47.43483" lon="0.81059">
        <ele>113.09228</ele>
        <time>2011-10-22T14:59:23Z</time>
      </trkpt>
      <trkpt lat="47.4347" lon="0.80985">
        <ele>112.13098</ele>
        <time>2011-10-22T14:59:34Z</time>
      </trkpt>
      <trkpt lat="47.43466" lon="0.80958">
        <ele>112.13098</ele>
        <time>2011-10-22T14:59:38Z</time>
      </trkpt>
      <trkpt lat="47.43453" lon="0.8094">
        <ele>112.13098</ele>
        <time>2011-10-22T14:59:42Z</time>
      </trkpt>
      <trkpt lat="47.43449" lon="0.80937">
        <ele>112.13098</ele>
        <time>2011-10-22T14:59:43Z</time>
      </trkpt>
      <trkpt lat="47.43436" lon="0.80932">
        <ele>112.13098</ele>
        <time>2011-10-22T14:59:46Z</time>
      </trkpt>
      <trkpt lat="47.43424" lon="0.80913">
        <ele>112.13098</ele>
        <time>2011-10-22T14:59:50Z</time>
      </trkpt>
      <trkpt lat="47.43417" lon="0.80864">
        <ele>111.65026</ele>
        <time>2011-10-22T14:59:57Z</time>
      </trkpt>
      <trkpt lat="47.4341" lon="0.80847">
        <ele>111.65026</ele>
        <time>2011-10-22T15:00:00Z</time>
      </trkpt>
      <trkpt lat="47.4341" lon="0.80822">
        <ele>111.65026</ele>
        <time>2011-10-22T15:00:04Z</time>
      </trkpt>
      <trkpt lat="47.43416" lon="0.80767">
        <ele>111.16955</ele>
        <time>2011-10-22T15:00:12Z</time>
      </trkpt>
      <trkpt lat="47.43421" lon="0.80689">
        <ele>112.61157</ele>
        <time>2011-10-22T15:00:23Z</time>
      </trkpt>
      <trkpt lat="47.43427" lon="0.8064">
        <ele>113.57299</ele>
        <time>2011-10-22T15:00:30Z</time>
      </trkpt>
      <trkpt lat="47.43429" lon="0.80584">
        <ele>113.09228</ele>
        <time>2011-10-22T15:00:38Z</time>
      </trkpt>
      <trkpt lat="47.43432" lon="0.80518">
        <ele>112.13098</ele>
        <time>2011-10-22T15:00:47Z</time>
      </trkpt>
      <trkpt lat="47.43441" lon="0.80447">
        <ele>112.13098</ele>
        <time>2011-10-22T15:00:57Z</time>
      </trkpt>
      <trkpt lat="47.43455" lon="0.80379">
        <ele>110.68884</ele>
        <time>2011-10-22T15:01:06Z</time>
      </trkpt>
      <trkpt lat="47.43458" lon="0.80355">
        <ele>110.20825</ele>
        <time>2011-10-22T15:01:09Z</time>
      </trkpt>
      <trkpt lat="47.43453" lon="0.80324">
        <ele>109.24694</ele>
        <time>2011-10-22T15:01:13Z</time>
      </trkpt>
      <trkpt lat="47.43444" lon="0.80316">
        <ele>108.76623</ele>
        <time>2011-10-22T15:01:15Z</time>
      </trkpt>
      <trkpt lat="47.43425" lon="0.8031">
        <ele>107.80505</ele>
        <time>2011-10-22T15:01:19Z</time>
      </trkpt>
      <trkpt lat="47.43383" lon="0.80313">
        <ele>105.88244</ele>
        <time>2011-10-22T15:01:27Z</time>
      </trkpt>
      <trkpt lat="47.43333" lon="0.80329">
        <ele>105.40173</ele>
        <time>2011-10-22T15:01:36Z</time>
      </trkpt>
      <trkpt lat="47.4328" lon="0.80344">
        <ele>104.44042</ele>
        <time>2011-10-22T15:01:45Z</time>
      </trkpt>
      <trkpt lat="47.4322" lon="0.80355">
        <ele>102.99829</ele>
        <time>2011-10-22T15:01:55Z</time>
      </trkpt>
      <trkpt lat="47.43167" lon="0.80366">
        <ele>102.0371</ele>
        <time>2011-10-22T15:02:04Z</time>
      </trkpt>
      <trkpt lat="47.43149" lon="0.80374">
        <ele>101.07568</ele>
        <time>2011-10-22T15:02:07Z</time>
      </trkpt>
      <trkpt lat="47.43115" lon="0.80402">
        <ele>99.153076</ele>
        <time>2011-10-22T15:02:13Z</time>
      </trkpt>
      <trkpt lat="47.4309" lon="0.80408">
        <ele>98.191894</ele>
        <time>2011-10-22T15:02:17Z</time>
      </trkpt>
      <trkpt lat="47.43073" lon="0.80403">
        <ele>97.230468</ele>
        <time>2011-10-22T15:02:20Z</time>
      </trkpt>
      <trkpt lat="47.43047" lon="0.80386">
        <ele>96.269287</ele>
        <time>2011-10-22T15:02:25Z</time>
      </trkpt>
      <trkpt lat="47.43036" lon="0.80366">
        <ele>95.788452</ele>
        <time>2011-10-22T15:02:29Z</time>
      </trkpt>
      <trkpt lat="47.43035" lon="0.80354">
        <ele>95.788452</ele>
        <time>2011-10-22T15:02:31Z</time>
      </trkpt>
      <trkpt lat="47.43029" lon="0.80309">
        <ele>94.346557</ele>
        <time>2011-10-22T15:02:37Z</time>
      </trkpt>
      <trkpt lat="47.43018" lon="0.8026">
        <ele>93.385131</ele>
        <time>2011-10-22T15:02:43Z</time>
      </trkpt>
      <trkpt lat="47.42996" lon="0.80213">
        <ele>91.943237</ele>
        <time>2011-10-22T15:02:49Z</time>
      </trkpt>
      <trkpt lat="47.42981" lon="0.8018">
        <ele>90.501342</ele>
        <time>2011-10-22T15:02:53Z</time>
      </trkpt>
      <trkpt lat="47.42976" lon="0.80151">
        <ele>89.539917</ele>
        <time>2011-10-22T15:02:56Z</time>
      </trkpt>
      <trkpt lat="47.42981" lon="0.80108">
        <ele>88.578735</ele>
        <time>2011-10-22T15:03:01Z</time>
      </trkpt>
      <trkpt lat="47.42984" lon="0.801">
        <ele>88.578735</ele>
        <time>2011-10-22T15:03:02Z</time>
      </trkpt>
      <trkpt lat="47.43005" lon="0.80046">
        <ele>90.020629</ele>
        <time>2011-10-22T15:03:11Z</time>
      </trkpt>
      <trkpt lat="47.43019" lon="0.80011">
        <ele>90.501342</ele>
        <time>2011-10-22T15:03:18Z</time>
      </trkpt>
      <trkpt lat="47.43032" lon="0.7997">
        <ele>91.462524</ele>
        <time>2011-10-22T15:03:26Z</time>
      </trkpt>
      <trkpt lat="47.43047" lon="0.79917">
        <ele>93.865844</ele>
        <time>2011-10-22T15:03:36Z</time>
      </trkpt>
      <trkpt lat="47.43052" lon="0.7987">
        <ele>95.788452</ele>
        <time>2011-10-22T15:03:44Z</time>
      </trkpt>
      <trkpt lat="47.43057" lon="0.79808">
        <ele>97.711181</ele>
        <time>2011-10-22T15:03:55Z</time>
      </trkpt>
      <trkpt lat="47.43061" lon="0.79767">
        <ele>99.153076</ele>
        <time>2011-10-22T15:04:03Z</time>
      </trkpt>
      <trkpt lat="47.43064" lon="0.79735">
        <ele>99.633789</ele>
        <time>2011-10-22T15:04:11Z</time>
      </trkpt>
      <trkpt lat="47.43066" lon="0.79722">
        <ele>100.1145</ele>
        <time>2011-10-22T15:04:15Z</time>
      </trkpt>
      <trkpt lat="47.43078" lon="0.79717">
        <ele>100.1145</ele>
        <time>2011-10-22T15:04:20Z</time>
      </trkpt>
      <trkpt lat="47.4311" lon="0.79715">
        <ele>100.1145</ele>
        <time>2011-10-22T15:04:28Z</time>
      </trkpt>
      <trkpt lat="47.4316" lon="0.79711">
        <ele>100.1145</ele>
        <time>2011-10-22T15:04:38Z</time>
      </trkpt>
      <trkpt lat="47.43218" lon="0.79706">
        <ele>100.1145</ele>
        <time>2011-10-22T15:04:49Z</time>
      </trkpt>
      <trkpt lat="47.43245" lon="0.79708">
        <ele>100.1145</ele>
        <time>2011-10-22T15:04:54Z</time>
      </trkpt>
      <trkpt lat="47.43264" lon="0.79721">
        <ele>100.59509</ele>
        <time>2011-10-22T15:04:58Z</time>
      </trkpt>
      <trkpt lat="47.43271" lon="0.79734">
        <ele>100.59509</ele>
        <time>2011-10-22T15:05:00Z</time>
      </trkpt>
      <trkpt lat="47.43313" lon="0.79812">
        <ele>101.55639</ele>
        <time>2011-10-22T15:05:13Z</time>
      </trkpt>
      <trkpt lat="47.43346" lon="0.79859">
        <ele>102.0371</ele>
        <time>2011-10-22T15:05:22Z</time>
      </trkpt>
      <trkpt lat="47.43365" lon="0.79883">
        <ele>102.99829</ele>
        <time>2011-10-22T15:05:27Z</time>
      </trkpt>
      <trkpt lat="47.43388" lon="0.79889">
        <ele>102.99829</ele>
        <time>2011-10-22T15:05:32Z</time>
      </trkpt>
      <trkpt lat="47.43393" lon="0.79888">
        <ele>102.99829</ele>
        <time>2011-10-22T15:05:33Z</time>
      </trkpt>
      <trkpt lat="47.4344" lon="0.79875">
        <ele>103.95971</ele>
        <time>2011-10-22T15:05:44Z</time>
      </trkpt>
      <trkpt lat="47.43483" lon="0.79862">
        <ele>104.92102</ele>
        <time>2011-10-22T15:05:54Z</time>
      </trkpt>
      <trkpt lat="47.43527" lon="0.79849">
        <ele>106.36303</ele>
        <time>2011-10-22T15:06:04Z</time>
      </trkpt>
      <trkpt lat="47.43555" lon="0.79842">
        <ele>106.84362</ele>
        <time>2011-10-22T15:06:11Z</time>
      </trkpt>
      <trkpt lat="47.43572" lon="0.79839">
        <ele>106.84362</ele>
        <time>2011-10-22T15:06:17Z</time>
      </trkpt>
      <trkpt lat="47.43575" lon="0.7984">
        <ele>106.84362</ele>
        <time>2011-10-22T15:06:21Z</time>
      </trkpt>
      <trkpt lat="47.43574" lon="0.79841">
        <ele>107.32434</ele>
        <time>2011-10-22T15:06:30Z</time>
      </trkpt>
      <trkpt lat="47.43571" lon="0.79843">
        <ele>107.80505</ele>
        <time>2011-10-22T15:06:35Z</time>
      </trkpt>
      <trkpt lat="47.43571" lon="0.79843">
        <ele>107.80505</ele>
        <time>2011-10-22T15:06:36Z</time>
      </trkpt>
      <trkpt lat="47.43571" lon="0.79843">
        <ele>108.76623</ele>
        <time>2011-10-22T15:06:46Z</time>
      </trkpt>
      <trkpt lat="47.43571" lon="0.79843">
        <ele>109.24694</ele>
        <time>2011-10-22T15:06:47Z</time>
      </trkpt>
      <trkpt lat="47.43571" lon="0.79842">
        <ele>109.24694</ele>
        <time>2011-10-22T15:07:44Z</time>
      </trkpt>
      <trkpt lat="47.43572" lon="0.79841">
        <ele>108.76623</ele>
        <time>2011-10-22T15:07:45Z</time>
      </trkpt>
      <trkpt lat="47.43572" lon="0.79842">
        <ele>109.72766</ele>
        <time>2011-10-22T15:07:53Z</time>
      </trkpt>
      <trkpt lat="47.43572" lon="0.79843">
        <ele>109.24694</ele>
        <time>2011-10-22T15:07:54Z</time>
      </trkpt>
      <trkpt lat="47.43571" lon="0.79843">
        <ele>109.24694</ele>
        <time>2011-10-22T15:07:56Z</time>
      </trkpt>
      <trkpt lat="47.43572" lon="0.79843">
        <ele>111.16955</ele>
        <time>2011-10-22T15:08:11Z</time>
      </trkpt>
      <trkpt lat="47.43572" lon="0.79843">
        <ele>111.65026</ele>
        <time>2011-10-22T15:08:12Z</time>
      </trkpt>
      <trkpt lat="47.43574" lon="0.79842">
        <ele>111.65026</ele>
        <time>2011-10-22T15:09:04Z</time>
      </trkpt>
      <trkpt lat="47.43575" lon="0.7984">
        <ele>111.65026</ele>
        <time>2011-10-22T15:09:07Z</time>
      </trkpt>
      <trkpt lat="47.43573" lon="0.79842">
        <ele>111.65026</ele>
        <time>2011-10-22T15:09:38Z</time>
      </trkpt>
      <trkpt lat="47.43572" lon="0.79842">
        <ele>110.68884</ele>
        <time>2011-10-22T15:09:43Z</time>
      </trkpt>
      <trkpt lat="47.43572" lon="0.79841">
        <ele>111.16955</ele>
        <time>2011-10-22T15:09:58Z</time>
      </trkpt>
      <trkpt lat="47.43572" lon="0.79841">
        <ele>111.16955</ele>
        <time>2011-10-22T15:09:59Z</time>
      </trkpt>
      <trkpt lat="47.43571" lon="0.79841">
        <ele>110.68884</ele>
        <time>2011-10-22T15:10:17Z</time>
      </trkpt>
      <trkpt lat="47.43571" lon="0.79841">
        <ele>110.68884</ele>
        <time>2011-10-22T15:10:18Z</time>
      </trkpt>
      <trkpt lat="47.43573" lon="0.7984">
        <ele>111.65026</ele>
        <time>2011-10-22T15:10:51Z</time>
      </trkpt>
      <trkpt lat="47.43573" lon="0.7984">
        <ele>111.65026</ele>
        <time>2011-10-22T15:10:52Z</time>
      </trkpt>
      <trkpt lat="47.43572" lon="0.7984">
        <ele>107.32434</ele>
        <time>2011-10-22T15:12:05Z</time>
      </trkpt>
      <trkpt lat="47.43572" lon="0.7984">
        <ele>107.80505</ele>
        <time>2011-10-22T15:12:07Z</time>
      </trkpt>
      <trkpt lat="47.43573" lon="0.79839">
        <ele>107.80505</ele>
        <time>2011-10-22T15:12:35Z</time>
      </trkpt>
      <trkpt lat="47.43572" lon="0.79838">
        <ele>107.80505</ele>
        <time>2011-10-22T15:12:37Z</time>
      </trkpt>
      <trkpt lat="47.43572" lon="0.79838">
        <ele>108.76623</ele>
        <time>2011-10-22T15:12:41Z</time>
      </trkpt>
      <trkpt lat="47.43574" lon="0.7984">
        <ele>109.72766</ele>
        <time>2011-10-22T15:12:45Z</time>
      </trkpt>
      <trkpt lat="47.43574" lon="0.7984">
        <ele>109.72766</ele>
        <time>2011-10-22T15:12:47Z</time>
      </trkpt>
      <trkpt lat="47.43573" lon="0.7984">
        <ele>110.68884</ele>
        <time>2011-10-22T15:12:57Z</time>
      </trkpt>
      <trkpt lat="47.43573" lon="0.7984">
        <ele>110.68884</ele>
        <time>2011-10-22T15:12:58Z</time>
      </trkpt>
      <trkpt lat="47.43572" lon="0.79842">
        <ele>113.09228</ele>
        <time>2011-10-22T15:13:30Z</time>
      </trkpt>
      <trkpt lat="47.43572" lon="0.79842">
        <ele>113.09228</ele>
        <time>2011-10-22T15:13:31Z</time>
      </trkpt>
      <trkpt lat="47.43572" lon="0.79842">
        <ele>113.09228</ele>
        <time>2011-10-22T15:13:32Z</time>
      </trkpt>
      <trkpt lat="47.43573" lon="0.79842">
        <ele>112.13098</ele>
        <time>2011-10-22T15:13:42Z</time>
      </trkpt>
      <trkpt lat="47.43574" lon="0.7984">
        <ele>112.61157</ele>
        <time>2011-10-22T15:13:45Z</time>
      </trkpt>
      <trkpt lat="47.43574" lon="0.7984">
        <ele>112.61157</ele>
        <time>2011-10-22T15:13:46Z</time>
      </trkpt>
      <trkpt lat="47.43572" lon="0.79842">
        <ele>107.80505</ele>
        <time>2011-10-22T15:15:38Z</time>
      </trkpt>
      <trkpt lat="47.43572" lon="0.79843">
        <ele>107.80505</ele>
        <time>2011-10-22T15:15:39Z</time>
      </trkpt>
      <trkpt lat="47.43572" lon="0.79844">
        <ele>108.76623</ele>
        <time>2011-10-22T15:15:47Z</time>
      </trkpt>
      <trkpt lat="47.4357" lon="0.79844">
        <ele>108.76623</ele>
        <time>2011-10-22T15:15:51Z</time>
      </trkpt>
      <trkpt lat="47.4357" lon="0.79844">
        <ele>108.76623</ele>
        <time>2011-10-22T15:15:52Z</time>
      </trkpt>
      <trkpt lat="47.4357" lon="0.79842">
        <ele>108.76623</ele>
        <time>2011-10-22T15:16:02Z</time>
      </trkpt>
      <trkpt lat="47.43572" lon="0.7984">
        <ele>107.80505</ele>
        <time>2011-10-22T15:16:04Z</time>
      </trkpt>
      <trkpt lat="47.43578" lon="0.79837">
        <ele>108.76623</ele>
        <time>2011-10-22T15:16:11Z</time>
      </trkpt>
      <trkpt lat="47.43582" lon="0.79834">
        <ele>108.76623</ele>
        <time>2011-10-22T15:16:15Z</time>
      </trkpt>
      <trkpt lat="47.43589" lon="0.79832">
        <ele>107.80505</ele>
        <time>2011-10-22T15:16:22Z</time>
      </trkpt>
      <trkpt lat="47.4359" lon="0.79832">
        <ele>107.80505</ele>
        <time>2011-10-22T15:16:23Z</time>
      </trkpt>
      <trkpt lat="47.43597" lon="0.79832">
        <ele>106.36303</ele>
        <time>2011-10-22T15:16:29Z</time>
      </trkpt>
      <trkpt lat="47.43605" lon="0.79829">
        <ele>106.36303</ele>
        <time>2011-10-22T15:16:37Z</time>
      </trkpt>
      <trkpt lat="47.43608" lon="0.79828">
        <ele>107.32434</ele>
        <time>2011-10-22T15:16:40Z</time>
      </trkpt>
      <trkpt lat="47.43614" lon="0.79825">
        <ele>108.28564</ele>
        <time>2011-10-22T15:16:48Z</time>
      </trkpt>
      <trkpt lat="47.43625" lon="0.79817">
        <ele>109.72766</ele>
        <time>2011-10-22T15:16:58Z</time>
      </trkpt>
      <trkpt lat="47.43631" lon="0.7981">
        <ele>109.72766</ele>
        <time>2011-10-22T15:17:05Z</time>
      </trkpt>
      <trkpt lat="47.4364" lon="0.798">
        <ele>111.16955</ele>
        <time>2011-10-22T15:17:15Z</time>
      </trkpt>
      <trkpt lat="47.43648" lon="0.7979">
        <ele>111.65026</ele>
        <time>2011-10-22T15:17:25Z</time>
      </trkpt>
      <trkpt lat="47.4365" lon="0.79788">
        <ele>111.65026</ele>
        <time>2011-10-22T15:17:27Z</time>
      </trkpt>
      <trkpt lat="47.43657" lon="0.79781">
        <ele>113.09228</ele>
        <time>2011-10-22T15:17:35Z</time>
      </trkpt>
      <trkpt lat="47.43667" lon="0.79775">
        <ele>113.57299</ele>
        <time>2011-10-22T15:17:44Z</time>
      </trkpt>
      <trkpt lat="47.43674" lon="0.79769">
        <ele>114.05358</ele>
        <time>2011-10-22T15:17:52Z</time>
      </trkpt>
      <trkpt lat="47.43679" lon="0.7976">
        <ele>113.09228</ele>
        <time>2011-10-22T15:18:00Z</time>
      </trkpt>
      <trkpt lat="47.43679" lon="0.79748">
        <ele>113.57299</ele>
        <time>2011-10-22T15:18:08Z</time>
      </trkpt>
      <trkpt lat="47.43679" lon="0.79747">
        <ele>113.57299</ele>
        <time>2011-10-22T15:18:09Z</time>
      </trkpt>
      <trkpt lat="47.43677" lon="0.79734">
        <ele>113.09228</ele>
        <time>2011-10-22T15:18:18Z</time>
      </trkpt>
      <trkpt lat="47.43677" lon="0.7973">
        <ele>112.61157</ele>
        <time>2011-10-22T15:18:24Z</time>
      </trkpt>
      <trkpt lat="47.43674" lon="0.7973">
        <ele>113.09228</ele>
        <time>2011-10-22T15:19:04Z</time>
      </trkpt>
      <trkpt lat="47.43674" lon="0.79729">
        <ele>113.09228</ele>
        <time>2011-10-22T15:19:06Z</time>
      </trkpt>
      <trkpt lat="47.43674" lon="0.79727">
        <ele>112.61157</ele>
        <time>2011-10-22T15:19:26Z</time>
      </trkpt>
      <trkpt lat="47.43674" lon="0.79726">
        <ele>112.13098</ele>
        <time>2011-10-22T15:19:27Z</time>
      </trkpt>
    </trkseg>
  </trk>
</gpx>